<?xml version="1.0" encoding="UTF-8" standalone="no" ?>
<gpx xmlns="http://www.topografix.com/GPX/1/1" xmlns:xsi="http://www.w3.org/2001/XMLSchema-instance" xsi:schemaLocation="http://www.topografix.com/GPX/1/1 http://www.topografix.com/GPX/1/1/gpx.xsd" version="1.1" creator="VisuGPX - https://www.visugpx.com">
  <metadata>
    <name>Annay 45km</name>
  </metadata>
  <trk>
    <name><![CDATA[11919189-Annay 45km]]></name>
    <trkseg>
      <trkpt lat="50.45849" lon="2.89117">
        <ele>35</ele>
        <time>2020-08-28T07:54:51Z</time>
      </trkpt>
      <trkpt lat="50.45742" lon="2.88973">
        <ele>33</ele>
        <time>2020-08-28T07:55:24Z</time>
      </trkpt>
      <trkpt lat="50.45693" lon="2.89055">
        <ele>30</ele>
        <time>2020-08-28T07:55:41Z</time>
      </trkpt>
      <trkpt lat="50.45678" lon="2.89076">
        <ele>30</ele>
        <time>2020-08-28T07:55:45Z</time>
      </trkpt>
      <trkpt lat="50.45674" lon="2.89074">
        <ele>29</ele>
        <time>2020-08-28T07:55:46Z</time>
      </trkpt>
      <trkpt lat="50.4565" lon="2.8905">
        <ele>29</ele>
        <time>2020-08-28T07:55:53Z</time>
      </trkpt>
      <trkpt lat="50.4561" lon="2.88986">
        <ele>29</ele>
        <time>2020-08-28T07:56:06Z</time>
      </trkpt>
      <trkpt lat="50.45586" lon="2.88952">
        <ele>28</ele>
        <time>2020-08-28T07:56:14Z</time>
      </trkpt>
      <trkpt lat="50.45544" lon="2.88908">
        <ele>28</ele>
        <time>2020-08-28T07:56:26Z</time>
      </trkpt>
      <trkpt lat="50.45503" lon="2.88869">
        <ele>27</ele>
        <time>2020-08-28T07:56:37Z</time>
      </trkpt>
      <trkpt lat="50.45464" lon="2.88839">
        <ele>28</ele>
        <time>2020-08-28T07:56:47Z</time>
      </trkpt>
      <trkpt lat="50.45429" lon="2.88807">
        <ele>29</ele>
        <time>2020-08-28T07:56:56Z</time>
      </trkpt>
      <trkpt lat="50.45344" lon="2.88754">
        <ele>31</ele>
        <time>2020-08-28T07:57:18Z</time>
      </trkpt>
      <trkpt lat="50.45295" lon="2.88729">
        <ele>31</ele>
        <time>2020-08-28T07:57:30Z</time>
      </trkpt>
      <trkpt lat="50.4522" lon="2.88702">
        <ele>33</ele>
        <time>2020-08-28T07:57:48Z</time>
      </trkpt>
      <trkpt lat="50.45083" lon="2.88675">
        <ele>36</ele>
        <time>2020-08-28T07:58:20Z</time>
      </trkpt>
      <trkpt lat="50.45072" lon="2.8868">
        <ele>36</ele>
        <time>2020-08-28T07:58:23Z</time>
      </trkpt>
      <trkpt lat="50.45059" lon="2.88669">
        <ele>35</ele>
        <time>2020-08-28T07:58:26Z</time>
      </trkpt>
      <trkpt lat="50.45054" lon="2.88658">
        <ele>35</ele>
        <time>2020-08-28T07:58:28Z</time>
      </trkpt>
      <trkpt lat="50.45044" lon="2.88649">
        <ele>35</ele>
        <time>2020-08-28T07:58:31Z</time>
      </trkpt>
      <trkpt lat="50.4496" lon="2.88656">
        <ele>35</ele>
        <time>2020-08-28T07:58:50Z</time>
      </trkpt>
      <trkpt lat="50.44945" lon="2.88621">
        <ele>35</ele>
        <time>2020-08-28T07:58:57Z</time>
      </trkpt>
      <trkpt lat="50.44939" lon="2.88599">
        <ele>36</ele>
        <time>2020-08-28T07:59:00Z</time>
      </trkpt>
      <trkpt lat="50.44922" lon="2.88569">
        <ele>36</ele>
        <time>2020-08-28T07:59:06Z</time>
      </trkpt>
      <trkpt lat="50.44914" lon="2.88547">
        <ele>36</ele>
        <time>2020-08-28T07:59:10Z</time>
      </trkpt>
      <trkpt lat="50.44906" lon="2.88491">
        <ele>37</ele>
        <time>2020-08-28T07:59:19Z</time>
      </trkpt>
      <trkpt lat="50.44897" lon="2.88461">
        <ele>38</ele>
        <time>2020-08-28T07:59:24Z</time>
      </trkpt>
      <trkpt lat="50.44881" lon="2.88441">
        <ele>38</ele>
        <time>2020-08-28T07:59:28Z</time>
      </trkpt>
      <trkpt lat="50.44873" lon="2.88417">
        <ele>39</ele>
        <time>2020-08-28T07:59:32Z</time>
      </trkpt>
      <trkpt lat="50.4486" lon="2.88389">
        <ele>39</ele>
        <time>2020-08-28T07:59:37Z</time>
      </trkpt>
      <trkpt lat="50.44834" lon="2.88369">
        <ele>38</ele>
        <time>2020-08-28T07:59:44Z</time>
      </trkpt>
      <trkpt lat="50.44828" lon="2.88347">
        <ele>38</ele>
        <time>2020-08-28T07:59:48Z</time>
      </trkpt>
      <trkpt lat="50.44831" lon="2.88328">
        <ele>38</ele>
        <time>2020-08-28T07:59:51Z</time>
      </trkpt>
      <trkpt lat="50.44836" lon="2.88321">
        <ele>38</ele>
        <time>2020-08-28T07:59:52Z</time>
      </trkpt>
      <trkpt lat="50.44839" lon="2.88323">
        <ele>38</ele>
        <time>2020-08-28T07:59:53Z</time>
      </trkpt>
      <trkpt lat="50.44848" lon="2.88347">
        <ele>38</ele>
        <time>2020-08-28T07:59:57Z</time>
      </trkpt>
      <trkpt lat="50.44851" lon="2.88349">
        <ele>38</ele>
        <time>2020-08-28T07:59:58Z</time>
      </trkpt>
      <trkpt lat="50.44869" lon="2.88329">
        <ele>38</ele>
        <time>2020-08-28T08:00:03Z</time>
      </trkpt>
      <trkpt lat="50.4488" lon="2.88322">
        <ele>39</ele>
        <time>2020-08-28T08:00:06Z</time>
      </trkpt>
      <trkpt lat="50.44917" lon="2.88353">
        <ele>39</ele>
        <time>2020-08-28T08:00:16Z</time>
      </trkpt>
      <trkpt lat="50.44926" lon="2.88345">
        <ele>39</ele>
        <time>2020-08-28T08:00:18Z</time>
      </trkpt>
      <trkpt lat="50.4494" lon="2.88324">
        <ele>39</ele>
        <time>2020-08-28T08:00:23Z</time>
      </trkpt>
      <trkpt lat="50.44954" lon="2.88296">
        <ele>38</ele>
        <time>2020-08-28T08:00:28Z</time>
      </trkpt>
      <trkpt lat="50.44958" lon="2.88222">
        <ele>37</ele>
        <time>2020-08-28T08:00:39Z</time>
      </trkpt>
      <trkpt lat="50.4495" lon="2.88199">
        <ele>37</ele>
        <time>2020-08-28T08:00:43Z</time>
      </trkpt>
      <trkpt lat="50.44938" lon="2.8818">
        <ele>37</ele>
        <time>2020-08-28T08:00:47Z</time>
      </trkpt>
      <trkpt lat="50.44922" lon="2.88174">
        <ele>38</ele>
        <time>2020-08-28T08:00:51Z</time>
      </trkpt>
      <trkpt lat="50.44913" lon="2.88163">
        <ele>38</ele>
        <time>2020-08-28T08:00:53Z</time>
      </trkpt>
      <trkpt lat="50.44915" lon="2.88143">
        <ele>39</ele>
        <time>2020-08-28T08:00:56Z</time>
      </trkpt>
      <trkpt lat="50.44923" lon="2.88108">
        <ele>39</ele>
        <time>2020-08-28T08:01:02Z</time>
      </trkpt>
      <trkpt lat="50.44919" lon="2.88107">
        <ele>39</ele>
        <time>2020-08-28T08:01:03Z</time>
      </trkpt>
      <trkpt lat="50.44909" lon="2.88114">
        <ele>39</ele>
        <time>2020-08-28T08:01:05Z</time>
      </trkpt>
      <trkpt lat="50.449" lon="2.88101">
        <ele>40</ele>
        <time>2020-08-28T08:01:08Z</time>
      </trkpt>
      <trkpt lat="50.44904" lon="2.88086">
        <ele>40</ele>
        <time>2020-08-28T08:01:11Z</time>
      </trkpt>
      <trkpt lat="50.449" lon="2.88083">
        <ele>40</ele>
        <time>2020-08-28T08:01:12Z</time>
      </trkpt>
      <trkpt lat="50.44885" lon="2.88124">
        <ele>40</ele>
        <time>2020-08-28T08:01:19Z</time>
      </trkpt>
      <trkpt lat="50.4488" lon="2.8813">
        <ele>40</ele>
        <time>2020-08-28T08:01:20Z</time>
      </trkpt>
      <trkpt lat="50.44873" lon="2.88135">
        <ele>40</ele>
        <time>2020-08-28T08:01:22Z</time>
      </trkpt>
      <trkpt lat="50.44862" lon="2.88128">
        <ele>40</ele>
        <time>2020-08-28T08:01:25Z</time>
      </trkpt>
      <trkpt lat="50.44854" lon="2.88111">
        <ele>41</ele>
        <time>2020-08-28T08:01:28Z</time>
      </trkpt>
      <trkpt lat="50.44855" lon="2.88084">
        <ele>41</ele>
        <time>2020-08-28T08:01:32Z</time>
      </trkpt>
      <trkpt lat="50.44851" lon="2.88065">
        <ele>41</ele>
        <time>2020-08-28T08:01:35Z</time>
      </trkpt>
      <trkpt lat="50.44837" lon="2.8805">
        <ele>41</ele>
        <time>2020-08-28T08:01:39Z</time>
      </trkpt>
      <trkpt lat="50.44824" lon="2.88024">
        <ele>41</ele>
        <time>2020-08-28T08:01:44Z</time>
      </trkpt>
      <trkpt lat="50.44818" lon="2.87991">
        <ele>41</ele>
        <time>2020-08-28T08:01:49Z</time>
      </trkpt>
      <trkpt lat="50.44807" lon="2.87958">
        <ele>41</ele>
        <time>2020-08-28T08:01:54Z</time>
      </trkpt>
      <trkpt lat="50.44796" lon="2.87943">
        <ele>41</ele>
        <time>2020-08-28T08:01:58Z</time>
      </trkpt>
      <trkpt lat="50.44784" lon="2.87934">
        <ele>42</ele>
        <time>2020-08-28T08:02:01Z</time>
      </trkpt>
      <trkpt lat="50.44738" lon="2.87883">
        <ele>43</ele>
        <time>2020-08-28T08:02:14Z</time>
      </trkpt>
      <trkpt lat="50.44734" lon="2.87866">
        <ele>43</ele>
        <time>2020-08-28T08:02:17Z</time>
      </trkpt>
      <trkpt lat="50.44733" lon="2.87837">
        <ele>43</ele>
        <time>2020-08-28T08:02:21Z</time>
      </trkpt>
      <trkpt lat="50.44727" lon="2.87808">
        <ele>43</ele>
        <time>2020-08-28T08:02:26Z</time>
      </trkpt>
      <trkpt lat="50.44716" lon="2.87787">
        <ele>43</ele>
        <time>2020-08-28T08:02:30Z</time>
      </trkpt>
      <trkpt lat="50.44712" lon="2.87784">
        <ele>43</ele>
        <time>2020-08-28T08:02:31Z</time>
      </trkpt>
      <trkpt lat="50.44697" lon="2.87782">
        <ele>43</ele>
        <time>2020-08-28T08:02:34Z</time>
      </trkpt>
      <trkpt lat="50.44691" lon="2.87777">
        <ele>43</ele>
        <time>2020-08-28T08:02:36Z</time>
      </trkpt>
      <trkpt lat="50.44687" lon="2.87753">
        <ele>42</ele>
        <time>2020-08-28T08:02:39Z</time>
      </trkpt>
      <trkpt lat="50.44679" lon="2.87745">
        <ele>42</ele>
        <time>2020-08-28T08:02:42Z</time>
      </trkpt>
      <trkpt lat="50.44675" lon="2.87737">
        <ele>42</ele>
        <time>2020-08-28T08:02:43Z</time>
      </trkpt>
      <trkpt lat="50.44682" lon="2.87725">
        <ele>42</ele>
        <time>2020-08-28T08:02:46Z</time>
      </trkpt>
      <trkpt lat="50.44683" lon="2.87716">
        <ele>42</ele>
        <time>2020-08-28T08:02:47Z</time>
      </trkpt>
      <trkpt lat="50.44672" lon="2.87704">
        <ele>42</ele>
        <time>2020-08-28T08:02:50Z</time>
      </trkpt>
      <trkpt lat="50.44659" lon="2.87639">
        <ele>41</ele>
        <time>2020-08-28T08:03:00Z</time>
      </trkpt>
      <trkpt lat="50.44645" lon="2.87625">
        <ele>42</ele>
        <time>2020-08-28T08:03:04Z</time>
      </trkpt>
      <trkpt lat="50.44635" lon="2.87611">
        <ele>42</ele>
        <time>2020-08-28T08:03:07Z</time>
      </trkpt>
      <trkpt lat="50.44624" lon="2.87606">
        <ele>43</ele>
        <time>2020-08-28T08:03:10Z</time>
      </trkpt>
      <trkpt lat="50.44621" lon="2.87608">
        <ele>43</ele>
        <time>2020-08-28T08:03:11Z</time>
      </trkpt>
      <trkpt lat="50.44615" lon="2.87607">
        <ele>43</ele>
        <time>2020-08-28T08:03:12Z</time>
      </trkpt>
      <trkpt lat="50.44586" lon="2.87493">
        <ele>44</ele>
        <time>2020-08-28T08:03:30Z</time>
      </trkpt>
      <trkpt lat="50.44575" lon="2.87458">
        <ele>43</ele>
        <time>2020-08-28T08:03:36Z</time>
      </trkpt>
      <trkpt lat="50.44556" lon="2.87438">
        <ele>42</ele>
        <time>2020-08-28T08:03:41Z</time>
      </trkpt>
      <trkpt lat="50.44538" lon="2.87442">
        <ele>42</ele>
        <time>2020-08-28T08:03:46Z</time>
      </trkpt>
      <trkpt lat="50.44533" lon="2.87441">
        <ele>41</ele>
        <time>2020-08-28T08:03:47Z</time>
      </trkpt>
      <trkpt lat="50.44527" lon="2.87434">
        <ele>41</ele>
        <time>2020-08-28T08:03:49Z</time>
      </trkpt>
      <trkpt lat="50.44511" lon="2.87404">
        <ele>40</ele>
        <time>2020-08-28T08:03:54Z</time>
      </trkpt>
      <trkpt lat="50.44479" lon="2.87328">
        <ele>37</ele>
        <time>2020-08-28T08:04:08Z</time>
      </trkpt>
      <trkpt lat="50.44469" lon="2.87285">
        <ele>37</ele>
        <time>2020-08-28T08:04:15Z</time>
      </trkpt>
      <trkpt lat="50.4447" lon="2.87272">
        <ele>37</ele>
        <time>2020-08-28T08:04:17Z</time>
      </trkpt>
      <trkpt lat="50.44474" lon="2.8726">
        <ele>37</ele>
        <time>2020-08-28T08:04:19Z</time>
      </trkpt>
      <trkpt lat="50.44493" lon="2.87243">
        <ele>38</ele>
        <time>2020-08-28T08:04:24Z</time>
      </trkpt>
      <trkpt lat="50.44493" lon="2.87239">
        <ele>38</ele>
        <time>2020-08-28T08:04:24Z</time>
      </trkpt>
      <trkpt lat="50.44451" lon="2.87145">
        <ele>40</ele>
        <time>2020-08-28T08:04:42Z</time>
      </trkpt>
      <trkpt lat="50.44419" lon="2.87097">
        <ele>41</ele>
        <time>2020-08-28T08:04:52Z</time>
      </trkpt>
      <trkpt lat="50.44406" lon="2.87062">
        <ele>41</ele>
        <time>2020-08-28T08:04:58Z</time>
      </trkpt>
      <trkpt lat="50.44383" lon="2.86908">
        <ele>40</ele>
        <time>2020-08-28T08:05:21Z</time>
      </trkpt>
      <trkpt lat="50.4436" lon="2.86833">
        <ele>38</ele>
        <time>2020-08-28T08:05:34Z</time>
      </trkpt>
      <trkpt lat="50.44344" lon="2.86811">
        <ele>38</ele>
        <time>2020-08-28T08:05:39Z</time>
      </trkpt>
      <trkpt lat="50.44331" lon="2.86807">
        <ele>38</ele>
        <time>2020-08-28T08:05:42Z</time>
      </trkpt>
      <trkpt lat="50.44304" lon="2.8681">
        <ele>38</ele>
        <time>2020-08-28T08:05:48Z</time>
      </trkpt>
      <trkpt lat="50.44273" lon="2.86858">
        <ele>39</ele>
        <time>2020-08-28T08:05:58Z</time>
      </trkpt>
      <trkpt lat="50.44275" lon="2.86877">
        <ele>40</ele>
        <time>2020-08-28T08:06:01Z</time>
      </trkpt>
      <trkpt lat="50.44288" lon="2.86884">
        <ele>40</ele>
        <time>2020-08-28T08:06:04Z</time>
      </trkpt>
      <trkpt lat="50.44291" lon="2.86892">
        <ele>40</ele>
        <time>2020-08-28T08:06:06Z</time>
      </trkpt>
      <trkpt lat="50.44283" lon="2.8691">
        <ele>40</ele>
        <time>2020-08-28T08:06:09Z</time>
      </trkpt>
      <trkpt lat="50.44282" lon="2.86929">
        <ele>40</ele>
        <time>2020-08-28T08:06:12Z</time>
      </trkpt>
      <trkpt lat="50.44289" lon="2.86989">
        <ele>40</ele>
        <time>2020-08-28T08:06:21Z</time>
      </trkpt>
      <trkpt lat="50.44302" lon="2.87043">
        <ele>42</ele>
        <time>2020-08-28T08:06:30Z</time>
      </trkpt>
      <trkpt lat="50.4431" lon="2.87063">
        <ele>42</ele>
        <time>2020-08-28T08:06:33Z</time>
      </trkpt>
      <trkpt lat="50.44318" lon="2.87095">
        <ele>42</ele>
        <time>2020-08-28T08:06:38Z</time>
      </trkpt>
      <trkpt lat="50.44327" lon="2.87143">
        <ele>39</ele>
        <time>2020-08-28T08:06:46Z</time>
      </trkpt>
      <trkpt lat="50.44332" lon="2.87149">
        <ele>39</ele>
        <time>2020-08-28T08:06:47Z</time>
      </trkpt>
      <trkpt lat="50.44343" lon="2.87149">
        <ele>39</ele>
        <time>2020-08-28T08:06:50Z</time>
      </trkpt>
      <trkpt lat="50.4435" lon="2.87152">
        <ele>39</ele>
        <time>2020-08-28T08:06:51Z</time>
      </trkpt>
      <trkpt lat="50.44357" lon="2.87151">
        <ele>39</ele>
        <time>2020-08-28T08:06:53Z</time>
      </trkpt>
      <trkpt lat="50.4438" lon="2.87158">
        <ele>39</ele>
        <time>2020-08-28T08:06:58Z</time>
      </trkpt>
      <trkpt lat="50.44382" lon="2.87161">
        <ele>39</ele>
        <time>2020-08-28T08:06:59Z</time>
      </trkpt>
      <trkpt lat="50.44385" lon="2.87179">
        <ele>38</ele>
        <time>2020-08-28T08:07:02Z</time>
      </trkpt>
      <trkpt lat="50.44384" lon="2.87188">
        <ele>38</ele>
        <time>2020-08-28T08:07:03Z</time>
      </trkpt>
      <trkpt lat="50.44373" lon="2.87227">
        <ele>36</ele>
        <time>2020-08-28T08:07:10Z</time>
      </trkpt>
      <trkpt lat="50.44381" lon="2.87285">
        <ele>34</ele>
        <time>2020-08-28T08:07:18Z</time>
      </trkpt>
      <trkpt lat="50.44357" lon="2.8735">
        <ele>33</ele>
        <time>2020-08-28T08:07:30Z</time>
      </trkpt>
      <trkpt lat="50.44356" lon="2.8736">
        <ele>32</ele>
        <time>2020-08-28T08:07:31Z</time>
      </trkpt>
      <trkpt lat="50.44361" lon="2.87362">
        <ele>33</ele>
        <time>2020-08-28T08:07:32Z</time>
      </trkpt>
      <trkpt lat="50.44372" lon="2.87374">
        <ele>33</ele>
        <time>2020-08-28T08:07:35Z</time>
      </trkpt>
      <trkpt lat="50.44389" lon="2.87438">
        <ele>34</ele>
        <time>2020-08-28T08:07:46Z</time>
      </trkpt>
      <trkpt lat="50.44414" lon="2.87453">
        <ele>36</ele>
        <time>2020-08-28T08:07:52Z</time>
      </trkpt>
      <trkpt lat="50.44421" lon="2.87466">
        <ele>36</ele>
        <time>2020-08-28T08:07:55Z</time>
      </trkpt>
      <trkpt lat="50.44421" lon="2.87518">
        <ele>37</ele>
        <time>2020-08-28T08:08:02Z</time>
      </trkpt>
      <trkpt lat="50.44409" lon="2.87527">
        <ele>37</ele>
        <time>2020-08-28T08:08:05Z</time>
      </trkpt>
      <trkpt lat="50.44409" lon="2.87543">
        <ele>37</ele>
        <time>2020-08-28T08:08:08Z</time>
      </trkpt>
      <trkpt lat="50.44418" lon="2.87545">
        <ele>37</ele>
        <time>2020-08-28T08:08:10Z</time>
      </trkpt>
      <trkpt lat="50.44436" lon="2.8753">
        <ele>38</ele>
        <time>2020-08-28T08:08:15Z</time>
      </trkpt>
      <trkpt lat="50.44461" lon="2.87519">
        <ele>39</ele>
        <time>2020-08-28T08:08:21Z</time>
      </trkpt>
      <trkpt lat="50.44496" lon="2.87499">
        <ele>40</ele>
        <time>2020-08-28T08:08:29Z</time>
      </trkpt>
      <trkpt lat="50.44527" lon="2.87477">
        <ele>41</ele>
        <time>2020-08-28T08:08:37Z</time>
      </trkpt>
      <trkpt lat="50.44534" lon="2.87477">
        <ele>42</ele>
        <time>2020-08-28T08:08:39Z</time>
      </trkpt>
      <trkpt lat="50.44538" lon="2.875">
        <ele>42</ele>
        <time>2020-08-28T08:08:43Z</time>
      </trkpt>
      <trkpt lat="50.44532" lon="2.87524">
        <ele>42</ele>
        <time>2020-08-28T08:08:46Z</time>
      </trkpt>
      <trkpt lat="50.44536" lon="2.8754">
        <ele>42</ele>
        <time>2020-08-28T08:08:49Z</time>
      </trkpt>
      <trkpt lat="50.44559" lon="2.87578">
        <ele>43</ele>
        <time>2020-08-28T08:08:57Z</time>
      </trkpt>
      <trkpt lat="50.44565" lon="2.87594">
        <ele>43</ele>
        <time>2020-08-28T08:08:59Z</time>
      </trkpt>
      <trkpt lat="50.44549" lon="2.8761">
        <ele>42</ele>
        <time>2020-08-28T08:09:04Z</time>
      </trkpt>
      <trkpt lat="50.44543" lon="2.87652">
        <ele>41</ele>
        <time>2020-08-28T08:09:10Z</time>
      </trkpt>
      <trkpt lat="50.4453" lon="2.87667">
        <ele>41</ele>
        <time>2020-08-28T08:09:14Z</time>
      </trkpt>
      <trkpt lat="50.44519" lon="2.87671">
        <ele>40</ele>
        <time>2020-08-28T08:09:17Z</time>
      </trkpt>
      <trkpt lat="50.44517" lon="2.87688">
        <ele>40</ele>
        <time>2020-08-28T08:09:19Z</time>
      </trkpt>
      <trkpt lat="50.44523" lon="2.8772">
        <ele>40</ele>
        <time>2020-08-28T08:09:24Z</time>
      </trkpt>
      <trkpt lat="50.44529" lon="2.8773">
        <ele>40</ele>
        <time>2020-08-28T08:09:26Z</time>
      </trkpt>
      <trkpt lat="50.44546" lon="2.87742">
        <ele>40</ele>
        <time>2020-08-28T08:09:31Z</time>
      </trkpt>
      <trkpt lat="50.44558" lon="2.87763">
        <ele>40</ele>
        <time>2020-08-28T08:09:35Z</time>
      </trkpt>
      <trkpt lat="50.44583" lon="2.87779">
        <ele>40</ele>
        <time>2020-08-28T08:09:41Z</time>
      </trkpt>
      <trkpt lat="50.4459" lon="2.87786">
        <ele>40</ele>
        <time>2020-08-28T08:09:43Z</time>
      </trkpt>
      <trkpt lat="50.44598" lon="2.87807">
        <ele>41</ele>
        <time>2020-08-28T08:09:47Z</time>
      </trkpt>
      <trkpt lat="50.44603" lon="2.87814">
        <ele>41</ele>
        <time>2020-08-28T08:09:48Z</time>
      </trkpt>
      <trkpt lat="50.44616" lon="2.87817">
        <ele>41</ele>
        <time>2020-08-28T08:09:51Z</time>
      </trkpt>
      <trkpt lat="50.44622" lon="2.87816">
        <ele>42</ele>
        <time>2020-08-28T08:09:53Z</time>
      </trkpt>
      <trkpt lat="50.44652" lon="2.87788">
        <ele>42</ele>
        <time>2020-08-28T08:10:01Z</time>
      </trkpt>
      <trkpt lat="50.44665" lon="2.87801">
        <ele>43</ele>
        <time>2020-08-28T08:10:05Z</time>
      </trkpt>
      <trkpt lat="50.44677" lon="2.87825">
        <ele>44</ele>
        <time>2020-08-28T08:10:09Z</time>
      </trkpt>
      <trkpt lat="50.44698" lon="2.87844">
        <ele>44</ele>
        <time>2020-08-28T08:10:15Z</time>
      </trkpt>
      <trkpt lat="50.44702" lon="2.87864">
        <ele>44</ele>
        <time>2020-08-28T08:10:18Z</time>
      </trkpt>
      <trkpt lat="50.447" lon="2.87888">
        <ele>44</ele>
        <time>2020-08-28T08:10:21Z</time>
      </trkpt>
      <trkpt lat="50.4471" lon="2.87937">
        <ele>43</ele>
        <time>2020-08-28T08:10:29Z</time>
      </trkpt>
      <trkpt lat="50.44718" lon="2.8795">
        <ele>43</ele>
        <time>2020-08-28T08:10:32Z</time>
      </trkpt>
      <trkpt lat="50.44728" lon="2.8796">
        <ele>42</ele>
        <time>2020-08-28T08:10:35Z</time>
      </trkpt>
      <trkpt lat="50.44744" lon="2.87959">
        <ele>42</ele>
        <time>2020-08-28T08:10:38Z</time>
      </trkpt>
      <trkpt lat="50.44753" lon="2.87955">
        <ele>42</ele>
        <time>2020-08-28T08:10:40Z</time>
      </trkpt>
      <trkpt lat="50.44762" lon="2.8796">
        <ele>42</ele>
        <time>2020-08-28T08:10:43Z</time>
      </trkpt>
      <trkpt lat="50.44773" lon="2.8798">
        <ele>41</ele>
        <time>2020-08-28T08:10:47Z</time>
      </trkpt>
      <trkpt lat="50.44776" lon="2.87998">
        <ele>41</ele>
        <time>2020-08-28T08:10:49Z</time>
      </trkpt>
      <trkpt lat="50.44768" lon="2.88013">
        <ele>41</ele>
        <time>2020-08-28T08:10:52Z</time>
      </trkpt>
      <trkpt lat="50.44766" lon="2.88027">
        <ele>41</ele>
        <time>2020-08-28T08:10:54Z</time>
      </trkpt>
      <trkpt lat="50.44794" lon="2.88084">
        <ele>41</ele>
        <time>2020-08-28T08:11:05Z</time>
      </trkpt>
      <trkpt lat="50.44802" lon="2.88127">
        <ele>41</ele>
        <time>2020-08-28T08:11:12Z</time>
      </trkpt>
      <trkpt lat="50.44809" lon="2.88132">
        <ele>41</ele>
        <time>2020-08-28T08:11:14Z</time>
      </trkpt>
      <trkpt lat="50.44815" lon="2.88131">
        <ele>41</ele>
        <time>2020-08-28T08:11:15Z</time>
      </trkpt>
      <trkpt lat="50.44816" lon="2.88128">
        <ele>41</ele>
        <time>2020-08-28T08:11:16Z</time>
      </trkpt>
      <trkpt lat="50.44825" lon="2.88124">
        <ele>41</ele>
        <time>2020-08-28T08:11:18Z</time>
      </trkpt>
      <trkpt lat="50.44832" lon="2.88136">
        <ele>41</ele>
        <time>2020-08-28T08:11:20Z</time>
      </trkpt>
      <trkpt lat="50.44829" lon="2.88151">
        <ele>41</ele>
        <time>2020-08-28T08:11:22Z</time>
      </trkpt>
      <trkpt lat="50.4483" lon="2.88169">
        <ele>41</ele>
        <time>2020-08-28T08:11:25Z</time>
      </trkpt>
      <trkpt lat="50.44836" lon="2.88204">
        <ele>40</ele>
        <time>2020-08-28T08:11:31Z</time>
      </trkpt>
      <trkpt lat="50.4483" lon="2.88224">
        <ele>40</ele>
        <time>2020-08-28T08:11:34Z</time>
      </trkpt>
      <trkpt lat="50.44833" lon="2.8823">
        <ele>39</ele>
        <time>2020-08-28T08:11:35Z</time>
      </trkpt>
      <trkpt lat="50.4483" lon="2.88276">
        <ele>39</ele>
        <time>2020-08-28T08:11:42Z</time>
      </trkpt>
      <trkpt lat="50.44825" lon="2.88279">
        <ele>39</ele>
        <time>2020-08-28T08:11:43Z</time>
      </trkpt>
      <trkpt lat="50.448" lon="2.88308">
        <ele>39</ele>
        <time>2020-08-28T08:11:50Z</time>
      </trkpt>
      <trkpt lat="50.44792" lon="2.88305">
        <ele>39</ele>
        <time>2020-08-28T08:11:52Z</time>
      </trkpt>
      <trkpt lat="50.44777" lon="2.88315">
        <ele>40</ele>
        <time>2020-08-28T08:11:56Z</time>
      </trkpt>
      <trkpt lat="50.44774" lon="2.88324">
        <ele>40</ele>
        <time>2020-08-28T08:11:58Z</time>
      </trkpt>
      <trkpt lat="50.44782" lon="2.88356">
        <ele>39</ele>
        <time>2020-08-28T08:12:03Z</time>
      </trkpt>
      <trkpt lat="50.4478" lon="2.88378">
        <ele>39</ele>
        <time>2020-08-28T08:12:06Z</time>
      </trkpt>
      <trkpt lat="50.44787" lon="2.8838">
        <ele>39</ele>
        <time>2020-08-28T08:12:08Z</time>
      </trkpt>
      <trkpt lat="50.44789" lon="2.88388">
        <ele>39</ele>
        <time>2020-08-28T08:12:09Z</time>
      </trkpt>
      <trkpt lat="50.44779" lon="2.88392">
        <ele>39</ele>
        <time>2020-08-28T08:12:11Z</time>
      </trkpt>
      <trkpt lat="50.44769" lon="2.88407">
        <ele>39</ele>
        <time>2020-08-28T08:12:15Z</time>
      </trkpt>
      <trkpt lat="50.44771" lon="2.88436">
        <ele>39</ele>
        <time>2020-08-28T08:12:19Z</time>
      </trkpt>
      <trkpt lat="50.44767" lon="2.88437">
        <ele>39</ele>
        <time>2020-08-28T08:12:20Z</time>
      </trkpt>
      <trkpt lat="50.4475" lon="2.8843">
        <ele>39</ele>
        <time>2020-08-28T08:12:24Z</time>
      </trkpt>
      <trkpt lat="50.44744" lon="2.88432">
        <ele>39</ele>
        <time>2020-08-28T08:12:25Z</time>
      </trkpt>
      <trkpt lat="50.44737" lon="2.8844">
        <ele>40</ele>
        <time>2020-08-28T08:12:27Z</time>
      </trkpt>
      <trkpt lat="50.44736" lon="2.88472">
        <ele>40</ele>
        <time>2020-08-28T08:12:32Z</time>
      </trkpt>
      <trkpt lat="50.44727" lon="2.88484">
        <ele>41</ele>
        <time>2020-08-28T08:12:35Z</time>
      </trkpt>
      <trkpt lat="50.44714" lon="2.88492">
        <ele>41</ele>
        <time>2020-08-28T08:12:38Z</time>
      </trkpt>
      <trkpt lat="50.44709" lon="2.88498">
        <ele>41</ele>
        <time>2020-08-28T08:12:40Z</time>
      </trkpt>
      <trkpt lat="50.44704" lon="2.88507">
        <ele>41</ele>
        <time>2020-08-28T08:12:41Z</time>
      </trkpt>
      <trkpt lat="50.44702" lon="2.88526">
        <ele>41</ele>
        <time>2020-08-28T08:12:44Z</time>
      </trkpt>
      <trkpt lat="50.44708" lon="2.88524">
        <ele>41</ele>
        <time>2020-08-28T08:12:46Z</time>
      </trkpt>
      <trkpt lat="50.44722" lon="2.88512">
        <ele>41</ele>
        <time>2020-08-28T08:12:49Z</time>
      </trkpt>
      <trkpt lat="50.44739" lon="2.88493">
        <ele>40</ele>
        <time>2020-08-28T08:12:54Z</time>
      </trkpt>
      <trkpt lat="50.44751" lon="2.88489">
        <ele>40</ele>
        <time>2020-08-28T08:12:57Z</time>
      </trkpt>
      <trkpt lat="50.44768" lon="2.88479">
        <ele>39</ele>
        <time>2020-08-28T08:13:01Z</time>
      </trkpt>
      <trkpt lat="50.4482" lon="2.88493">
        <ele>38</ele>
        <time>2020-08-28T08:13:14Z</time>
      </trkpt>
      <trkpt lat="50.44842" lon="2.88504">
        <ele>37</ele>
        <time>2020-08-28T08:13:19Z</time>
      </trkpt>
      <trkpt lat="50.44848" lon="2.88511">
        <ele>37</ele>
        <time>2020-08-28T08:13:21Z</time>
      </trkpt>
      <trkpt lat="50.44869" lon="2.88551">
        <ele>37</ele>
        <time>2020-08-28T08:13:29Z</time>
      </trkpt>
      <trkpt lat="50.44896" lon="2.88592">
        <ele>36</ele>
        <time>2020-08-28T08:13:37Z</time>
      </trkpt>
      <trkpt lat="50.44925" lon="2.88626">
        <ele>35</ele>
        <time>2020-08-28T08:13:46Z</time>
      </trkpt>
      <trkpt lat="50.44938" lon="2.88654">
        <ele>35</ele>
        <time>2020-08-28T08:13:51Z</time>
      </trkpt>
      <trkpt lat="50.44945" lon="2.88684">
        <ele>35</ele>
        <time>2020-08-28T08:13:56Z</time>
      </trkpt>
      <trkpt lat="50.4494" lon="2.8869">
        <ele>35</ele>
        <time>2020-08-28T08:13:57Z</time>
      </trkpt>
      <trkpt lat="50.44904" lon="2.88695">
        <ele>35</ele>
        <time>2020-08-28T08:14:06Z</time>
      </trkpt>
      <trkpt lat="50.44858" lon="2.88707">
        <ele>36</ele>
        <time>2020-08-28T08:14:17Z</time>
      </trkpt>
      <trkpt lat="50.44797" lon="2.88735">
        <ele>38</ele>
        <time>2020-08-28T08:14:31Z</time>
      </trkpt>
      <trkpt lat="50.44759" lon="2.88746">
        <ele>40</ele>
        <time>2020-08-28T08:14:40Z</time>
      </trkpt>
      <trkpt lat="50.4474" lon="2.88757">
        <ele>40</ele>
        <time>2020-08-28T08:14:45Z</time>
      </trkpt>
      <trkpt lat="50.44722" lon="2.88775">
        <ele>40</ele>
        <time>2020-08-28T08:14:50Z</time>
      </trkpt>
      <trkpt lat="50.44677" lon="2.88806">
        <ele>41</ele>
        <time>2020-08-28T08:15:02Z</time>
      </trkpt>
      <trkpt lat="50.44651" lon="2.88815">
        <ele>41</ele>
        <time>2020-08-28T08:15:08Z</time>
      </trkpt>
      <trkpt lat="50.44651" lon="2.88801">
        <ele>41</ele>
        <time>2020-08-28T08:15:10Z</time>
      </trkpt>
      <trkpt lat="50.44657" lon="2.88776">
        <ele>42</ele>
        <time>2020-08-28T08:15:14Z</time>
      </trkpt>
      <trkpt lat="50.44665" lon="2.88714">
        <ele>41</ele>
        <time>2020-08-28T08:15:23Z</time>
      </trkpt>
      <trkpt lat="50.44644" lon="2.88637">
        <ele>41</ele>
        <time>2020-08-28T08:15:36Z</time>
      </trkpt>
      <trkpt lat="50.44639" lon="2.88631">
        <ele>41</ele>
        <time>2020-08-28T08:15:37Z</time>
      </trkpt>
      <trkpt lat="50.44635" lon="2.88633">
        <ele>41</ele>
        <time>2020-08-28T08:15:38Z</time>
      </trkpt>
      <trkpt lat="50.44627" lon="2.88647">
        <ele>42</ele>
        <time>2020-08-28T08:15:41Z</time>
      </trkpt>
      <trkpt lat="50.44607" lon="2.88695">
        <ele>42</ele>
        <time>2020-08-28T08:15:49Z</time>
      </trkpt>
      <trkpt lat="50.44608" lon="2.88738">
        <ele>41</ele>
        <time>2020-08-28T08:15:56Z</time>
      </trkpt>
      <trkpt lat="50.44552" lon="2.88848">
        <ele>40</ele>
        <time>2020-08-28T08:16:17Z</time>
      </trkpt>
      <trkpt lat="50.44528" lon="2.88881">
        <ele>40</ele>
        <time>2020-08-28T08:16:24Z</time>
      </trkpt>
      <trkpt lat="50.44473" lon="2.88915">
        <ele>39</ele>
        <time>2020-08-28T08:16:38Z</time>
      </trkpt>
      <trkpt lat="50.44432" lon="2.88977">
        <ele>39</ele>
        <time>2020-08-28T08:16:51Z</time>
      </trkpt>
      <trkpt lat="50.44406" lon="2.88969">
        <ele>39</ele>
        <time>2020-08-28T08:16:58Z</time>
      </trkpt>
      <trkpt lat="50.44359" lon="2.88998">
        <ele>38</ele>
        <time>2020-08-28T08:17:09Z</time>
      </trkpt>
      <trkpt lat="50.4435" lon="2.89013">
        <ele>38</ele>
        <time>2020-08-28T08:17:12Z</time>
      </trkpt>
      <trkpt lat="50.44339" lon="2.89041">
        <ele>38</ele>
        <time>2020-08-28T08:17:17Z</time>
      </trkpt>
      <trkpt lat="50.44316" lon="2.89068">
        <ele>37</ele>
        <time>2020-08-28T08:17:24Z</time>
      </trkpt>
      <trkpt lat="50.44279" lon="2.891">
        <ele>37</ele>
        <time>2020-08-28T08:17:34Z</time>
      </trkpt>
      <trkpt lat="50.44225" lon="2.89134">
        <ele>36</ele>
        <time>2020-08-28T08:17:47Z</time>
      </trkpt>
      <trkpt lat="50.44225" lon="2.89138">
        <ele>36</ele>
        <time>2020-08-28T08:17:48Z</time>
      </trkpt>
      <trkpt lat="50.44227" lon="2.89138">
        <ele>36</ele>
        <time>2020-08-28T08:17:49Z</time>
      </trkpt>
      <trkpt lat="50.44241" lon="2.89133">
        <ele>36</ele>
        <time>2020-08-28T08:17:52Z</time>
      </trkpt>
      <trkpt lat="50.44244" lon="2.89146">
        <ele>36</ele>
        <time>2020-08-28T08:17:54Z</time>
      </trkpt>
      <trkpt lat="50.44233" lon="2.89155">
        <ele>36</ele>
        <time>2020-08-28T08:17:57Z</time>
      </trkpt>
      <trkpt lat="50.44174" lon="2.89194">
        <ele>34</ele>
        <time>2020-08-28T08:18:12Z</time>
      </trkpt>
      <trkpt lat="50.44139" lon="2.89201">
        <ele>32</ele>
        <time>2020-08-28T08:18:20Z</time>
      </trkpt>
      <trkpt lat="50.44103" lon="2.89226">
        <ele>30</ele>
        <time>2020-08-28T08:18:29Z</time>
      </trkpt>
      <trkpt lat="50.44074" lon="2.89251">
        <ele>29</ele>
        <time>2020-08-28T08:18:37Z</time>
      </trkpt>
      <trkpt lat="50.44053" lon="2.89255">
        <ele>28</ele>
        <time>2020-08-28T08:18:42Z</time>
      </trkpt>
      <trkpt lat="50.44035" lon="2.89264">
        <ele>27</ele>
        <time>2020-08-28T08:18:46Z</time>
      </trkpt>
      <trkpt lat="50.44039" lon="2.89291">
        <ele>27</ele>
        <time>2020-08-28T08:18:50Z</time>
      </trkpt>
      <trkpt lat="50.44037" lon="2.89296">
        <ele>27</ele>
        <time>2020-08-28T08:18:51Z</time>
      </trkpt>
      <trkpt lat="50.44025" lon="2.89292">
        <ele>27</ele>
        <time>2020-08-28T08:18:54Z</time>
      </trkpt>
      <trkpt lat="50.43988" lon="2.89311">
        <ele>25</ele>
        <time>2020-08-28T08:19:03Z</time>
      </trkpt>
      <trkpt lat="50.43974" lon="2.89332">
        <ele>25</ele>
        <time>2020-08-28T08:19:08Z</time>
      </trkpt>
      <trkpt lat="50.43959" lon="2.89383">
        <ele>24</ele>
        <time>2020-08-28T08:19:16Z</time>
      </trkpt>
      <trkpt lat="50.4395" lon="2.89444">
        <ele>24</ele>
        <time>2020-08-28T08:19:25Z</time>
      </trkpt>
      <trkpt lat="50.43953" lon="2.89459">
        <ele>24</ele>
        <time>2020-08-28T08:19:28Z</time>
      </trkpt>
      <trkpt lat="50.43952" lon="2.89509">
        <ele>25</ele>
        <time>2020-08-28T08:19:35Z</time>
      </trkpt>
      <trkpt lat="50.44022" lon="2.89901">
        <ele>25</ele>
        <time>2020-08-28T08:20:36Z</time>
      </trkpt>
      <trkpt lat="50.4406" lon="2.90096">
        <ele>23</ele>
        <time>2020-08-28T08:21:06Z</time>
      </trkpt>
      <trkpt lat="50.4407" lon="2.90138">
        <ele>23</ele>
        <time>2020-08-28T08:21:13Z</time>
      </trkpt>
      <trkpt lat="50.44073" lon="2.90145">
        <ele>23</ele>
        <time>2020-08-28T08:21:14Z</time>
      </trkpt>
      <trkpt lat="50.44086" lon="2.90161">
        <ele>23</ele>
        <time>2020-08-28T08:21:18Z</time>
      </trkpt>
      <trkpt lat="50.44159" lon="2.9022">
        <ele>25</ele>
        <time>2020-08-28T08:21:37Z</time>
      </trkpt>
      <trkpt lat="50.44195" lon="2.90244">
        <ele>26</ele>
        <time>2020-08-28T08:21:46Z</time>
      </trkpt>
      <trkpt lat="50.442" lon="2.90258">
        <ele>26</ele>
        <time>2020-08-28T08:21:49Z</time>
      </trkpt>
      <trkpt lat="50.44207" lon="2.90306">
        <ele>26</ele>
        <time>2020-08-28T08:21:56Z</time>
      </trkpt>
      <trkpt lat="50.44202" lon="2.90323">
        <ele>26</ele>
        <time>2020-08-28T08:21:59Z</time>
      </trkpt>
      <trkpt lat="50.44159" lon="2.903">
        <ele>25</ele>
        <time>2020-08-28T08:22:09Z</time>
      </trkpt>
      <trkpt lat="50.44128" lon="2.90289">
        <ele>24</ele>
        <time>2020-08-28T08:22:17Z</time>
      </trkpt>
      <trkpt lat="50.44053" lon="2.90319">
        <ele>24</ele>
        <time>2020-08-28T08:22:35Z</time>
      </trkpt>
      <trkpt lat="50.44047" lon="2.90317">
        <ele>24</ele>
        <time>2020-08-28T08:22:36Z</time>
      </trkpt>
      <trkpt lat="50.4405" lon="2.90295">
        <ele>24</ele>
        <time>2020-08-28T08:22:40Z</time>
      </trkpt>
      <trkpt lat="50.4405" lon="2.90272">
        <ele>24</ele>
        <time>2020-08-28T08:22:43Z</time>
      </trkpt>
      <trkpt lat="50.44034" lon="2.90168">
        <ele>24</ele>
        <time>2020-08-28T08:22:59Z</time>
      </trkpt>
      <trkpt lat="50.44028" lon="2.90144">
        <ele>24</ele>
        <time>2020-08-28T08:23:03Z</time>
      </trkpt>
      <trkpt lat="50.44013" lon="2.90126">
        <ele>25</ele>
        <time>2020-08-28T08:23:07Z</time>
      </trkpt>
      <trkpt lat="50.44011" lon="2.90119">
        <ele>25</ele>
        <time>2020-08-28T08:23:08Z</time>
      </trkpt>
      <trkpt lat="50.44008" lon="2.90097">
        <ele>25</ele>
        <time>2020-08-28T08:23:12Z</time>
      </trkpt>
      <trkpt lat="50.43985" lon="2.89996">
        <ele>27</ele>
        <time>2020-08-28T08:23:28Z</time>
      </trkpt>
      <trkpt lat="50.43994" lon="2.8996">
        <ele>26</ele>
        <time>2020-08-28T08:23:33Z</time>
      </trkpt>
      <trkpt lat="50.43984" lon="2.89881">
        <ele>26</ele>
        <time>2020-08-28T08:23:45Z</time>
      </trkpt>
      <trkpt lat="50.43976" lon="2.89842">
        <ele>26</ele>
        <time>2020-08-28T08:23:51Z</time>
      </trkpt>
      <trkpt lat="50.43963" lon="2.89835">
        <ele>26</ele>
        <time>2020-08-28T08:23:55Z</time>
      </trkpt>
      <trkpt lat="50.43933" lon="2.89839">
        <ele>27</ele>
        <time>2020-08-28T08:24:02Z</time>
      </trkpt>
      <trkpt lat="50.43924" lon="2.89825">
        <ele>27</ele>
        <time>2020-08-28T08:24:05Z</time>
      </trkpt>
      <trkpt lat="50.43916" lon="2.89748">
        <ele>29</ele>
        <time>2020-08-28T08:24:16Z</time>
      </trkpt>
      <trkpt lat="50.43922" lon="2.89724">
        <ele>28</ele>
        <time>2020-08-28T08:24:20Z</time>
      </trkpt>
      <trkpt lat="50.43939" lon="2.89709">
        <ele>27</ele>
        <time>2020-08-28T08:24:25Z</time>
      </trkpt>
      <trkpt lat="50.43941" lon="2.89694">
        <ele>27</ele>
        <time>2020-08-28T08:24:27Z</time>
      </trkpt>
      <trkpt lat="50.43931" lon="2.89672">
        <ele>27</ele>
        <time>2020-08-28T08:24:31Z</time>
      </trkpt>
      <trkpt lat="50.43901" lon="2.89675">
        <ele>28</ele>
        <time>2020-08-28T08:24:38Z</time>
      </trkpt>
      <trkpt lat="50.43886" lon="2.89681">
        <ele>28</ele>
        <time>2020-08-28T08:24:42Z</time>
      </trkpt>
      <trkpt lat="50.43877" lon="2.89674">
        <ele>28</ele>
        <time>2020-08-28T08:24:44Z</time>
      </trkpt>
      <trkpt lat="50.43878" lon="2.89646">
        <ele>28</ele>
        <time>2020-08-28T08:24:48Z</time>
      </trkpt>
      <trkpt lat="50.43888" lon="2.89584">
        <ele>27</ele>
        <time>2020-08-28T08:24:58Z</time>
      </trkpt>
      <trkpt lat="50.43909" lon="2.89491">
        <ele>25</ele>
        <time>2020-08-28T08:25:12Z</time>
      </trkpt>
      <trkpt lat="50.43911" lon="2.89469">
        <ele>24</ele>
        <time>2020-08-28T08:25:16Z</time>
      </trkpt>
      <trkpt lat="50.43909" lon="2.89434">
        <ele>23</ele>
        <time>2020-08-28T08:25:21Z</time>
      </trkpt>
      <trkpt lat="50.43903" lon="2.8941">
        <ele>23</ele>
        <time>2020-08-28T08:25:25Z</time>
      </trkpt>
      <trkpt lat="50.43886" lon="2.89386">
        <ele>23</ele>
        <time>2020-08-28T08:25:30Z</time>
      </trkpt>
      <trkpt lat="50.43882" lon="2.89348">
        <ele>22</ele>
        <time>2020-08-28T08:25:36Z</time>
      </trkpt>
      <trkpt lat="50.43881" lon="2.89306">
        <ele>22</ele>
        <time>2020-08-28T08:25:42Z</time>
      </trkpt>
      <trkpt lat="50.43875" lon="2.89258">
        <ele>22</ele>
        <time>2020-08-28T08:25:49Z</time>
      </trkpt>
      <trkpt lat="50.43851" lon="2.89169">
        <ele>24</ele>
        <time>2020-08-28T08:26:04Z</time>
      </trkpt>
      <trkpt lat="50.43837" lon="2.89105">
        <ele>24</ele>
        <time>2020-08-28T08:26:14Z</time>
      </trkpt>
      <trkpt lat="50.43807" lon="2.8895">
        <ele>20</ele>
        <time>2020-08-28T08:26:38Z</time>
      </trkpt>
      <trkpt lat="50.43799" lon="2.88902">
        <ele>19</ele>
        <time>2020-08-28T08:26:45Z</time>
      </trkpt>
      <trkpt lat="50.43798" lon="2.88873">
        <ele>19</ele>
        <time>2020-08-28T08:26:49Z</time>
      </trkpt>
      <trkpt lat="50.43793" lon="2.88861">
        <ele>19</ele>
        <time>2020-08-28T08:26:52Z</time>
      </trkpt>
      <trkpt lat="50.43789" lon="2.88841">
        <ele>19</ele>
        <time>2020-08-28T08:26:55Z</time>
      </trkpt>
      <trkpt lat="50.43787" lon="2.88814">
        <ele>18</ele>
        <time>2020-08-28T08:26:59Z</time>
      </trkpt>
      <trkpt lat="50.43753" lon="2.88651">
        <ele>17</ele>
        <time>2020-08-28T08:27:24Z</time>
      </trkpt>
      <trkpt lat="50.43744" lon="2.88628">
        <ele>18</ele>
        <time>2020-08-28T08:27:28Z</time>
      </trkpt>
      <trkpt lat="50.43732" lon="2.88534">
        <ele>22</ele>
        <time>2020-08-28T08:27:43Z</time>
      </trkpt>
      <trkpt lat="50.43674" lon="2.88192">
        <ele>26</ele>
        <time>2020-08-28T08:28:35Z</time>
      </trkpt>
      <trkpt lat="50.43651" lon="2.88099">
        <ele>26</ele>
        <time>2020-08-28T08:28:50Z</time>
      </trkpt>
      <trkpt lat="50.43634" lon="2.87992">
        <ele>21</ele>
        <time>2020-08-28T08:29:06Z</time>
      </trkpt>
      <trkpt lat="50.43628" lon="2.87982">
        <ele>21</ele>
        <time>2020-08-28T08:29:08Z</time>
      </trkpt>
      <trkpt lat="50.43622" lon="2.8799">
        <ele>21</ele>
        <time>2020-08-28T08:29:10Z</time>
      </trkpt>
      <trkpt lat="50.4361" lon="2.87993">
        <ele>22</ele>
        <time>2020-08-28T08:29:13Z</time>
      </trkpt>
      <trkpt lat="50.43594" lon="2.87991">
        <ele>23</ele>
        <time>2020-08-28T08:29:17Z</time>
      </trkpt>
      <trkpt lat="50.43589" lon="2.87986">
        <ele>23</ele>
        <time>2020-08-28T08:29:18Z</time>
      </trkpt>
      <trkpt lat="50.43586" lon="2.87965">
        <ele>22</ele>
        <time>2020-08-28T08:29:21Z</time>
      </trkpt>
      <trkpt lat="50.43589" lon="2.8793">
        <ele>20</ele>
        <time>2020-08-28T08:29:27Z</time>
      </trkpt>
      <trkpt lat="50.43583" lon="2.87862">
        <ele>19</ele>
        <time>2020-08-28T08:29:37Z</time>
      </trkpt>
      <trkpt lat="50.43576" lon="2.8782">
        <ele>18</ele>
        <time>2020-08-28T08:29:43Z</time>
      </trkpt>
      <trkpt lat="50.43576" lon="2.87803">
        <ele>18</ele>
        <time>2020-08-28T08:29:46Z</time>
      </trkpt>
      <trkpt lat="50.43581" lon="2.87792">
        <ele>18</ele>
        <time>2020-08-28T08:29:48Z</time>
      </trkpt>
      <trkpt lat="50.43596" lon="2.87789">
        <ele>18</ele>
        <time>2020-08-28T08:29:51Z</time>
      </trkpt>
      <trkpt lat="50.43601" lon="2.87785">
        <ele>19</ele>
        <time>2020-08-28T08:29:53Z</time>
      </trkpt>
      <trkpt lat="50.43606" lon="2.87764">
        <ele>19</ele>
        <time>2020-08-28T08:29:56Z</time>
      </trkpt>
      <trkpt lat="50.43592" lon="2.87599">
        <ele>20</ele>
        <time>2020-08-28T08:30:21Z</time>
      </trkpt>
      <trkpt lat="50.43582" lon="2.8759">
        <ele>20</ele>
        <time>2020-08-28T08:30:24Z</time>
      </trkpt>
      <trkpt lat="50.43554" lon="2.87595">
        <ele>19</ele>
        <time>2020-08-28T08:30:30Z</time>
      </trkpt>
      <trkpt lat="50.43548" lon="2.87591">
        <ele>19</ele>
        <time>2020-08-28T08:30:32Z</time>
      </trkpt>
      <trkpt lat="50.43541" lon="2.87536">
        <ele>19</ele>
        <time>2020-08-28T08:30:40Z</time>
      </trkpt>
      <trkpt lat="50.43526" lon="2.87463">
        <ele>18</ele>
        <time>2020-08-28T08:30:51Z</time>
      </trkpt>
      <trkpt lat="50.43528" lon="2.87439">
        <ele>18</ele>
        <time>2020-08-28T08:30:55Z</time>
      </trkpt>
      <trkpt lat="50.43541" lon="2.87422">
        <ele>18</ele>
        <time>2020-08-28T08:30:59Z</time>
      </trkpt>
      <trkpt lat="50.43558" lon="2.8742">
        <ele>18</ele>
        <time>2020-08-28T08:31:03Z</time>
      </trkpt>
      <trkpt lat="50.43569" lon="2.87414">
        <ele>19</ele>
        <time>2020-08-28T08:31:06Z</time>
      </trkpt>
      <trkpt lat="50.43571" lon="2.8741">
        <ele>19</ele>
        <time>2020-08-28T08:31:06Z</time>
      </trkpt>
      <trkpt lat="50.43571" lon="2.87393">
        <ele>19</ele>
        <time>2020-08-28T08:31:09Z</time>
      </trkpt>
      <trkpt lat="50.43565" lon="2.87383">
        <ele>19</ele>
        <time>2020-08-28T08:31:11Z</time>
      </trkpt>
      <trkpt lat="50.43538" lon="2.87381">
        <ele>19</ele>
        <time>2020-08-28T08:31:17Z</time>
      </trkpt>
      <trkpt lat="50.43512" lon="2.87389">
        <ele>18</ele>
        <time>2020-08-28T08:31:23Z</time>
      </trkpt>
      <trkpt lat="50.43499" lon="2.8739">
        <ele>18</ele>
        <time>2020-08-28T08:31:27Z</time>
      </trkpt>
      <trkpt lat="50.43491" lon="2.87395">
        <ele>18</ele>
        <time>2020-08-28T08:31:29Z</time>
      </trkpt>
      <trkpt lat="50.43488" lon="2.87455">
        <ele>18</ele>
        <time>2020-08-28T08:31:37Z</time>
      </trkpt>
      <trkpt lat="50.43476" lon="2.87561">
        <ele>19</ele>
        <time>2020-08-28T08:31:54Z</time>
      </trkpt>
      <trkpt lat="50.43473" lon="2.87612">
        <ele>18</ele>
        <time>2020-08-28T08:32:01Z</time>
      </trkpt>
      <trkpt lat="50.43458" lon="2.87699">
        <ele>17</ele>
        <time>2020-08-28T08:32:15Z</time>
      </trkpt>
      <trkpt lat="50.43461" lon="2.87712">
        <ele>17</ele>
        <time>2020-08-28T08:32:17Z</time>
      </trkpt>
      <trkpt lat="50.43468" lon="2.87725">
        <ele>17</ele>
        <time>2020-08-28T08:32:19Z</time>
      </trkpt>
      <trkpt lat="50.43475" lon="2.87747">
        <ele>16</ele>
        <time>2020-08-28T08:32:23Z</time>
      </trkpt>
      <trkpt lat="50.43494" lon="2.87779">
        <ele>16</ele>
        <time>2020-08-28T08:32:29Z</time>
      </trkpt>
      <trkpt lat="50.435" lon="2.87794">
        <ele>17</ele>
        <time>2020-08-28T08:32:32Z</time>
      </trkpt>
      <trkpt lat="50.43511" lon="2.87857">
        <ele>17</ele>
        <time>2020-08-28T08:32:42Z</time>
      </trkpt>
      <trkpt lat="50.43538" lon="2.87953">
        <ele>21</ele>
        <time>2020-08-28T08:32:57Z</time>
      </trkpt>
      <trkpt lat="50.43543" lon="2.87976">
        <ele>23</ele>
        <time>2020-08-28T08:33:01Z</time>
      </trkpt>
      <trkpt lat="50.43542" lon="2.87985">
        <ele>24</ele>
        <time>2020-08-28T08:33:02Z</time>
      </trkpt>
      <trkpt lat="50.43537" lon="2.87986">
        <ele>24</ele>
        <time>2020-08-28T08:33:03Z</time>
      </trkpt>
      <trkpt lat="50.43511" lon="2.87975">
        <ele>23</ele>
        <time>2020-08-28T08:33:10Z</time>
      </trkpt>
      <trkpt lat="50.43497" lon="2.87975">
        <ele>23</ele>
        <time>2020-08-28T08:33:13Z</time>
      </trkpt>
      <trkpt lat="50.43472" lon="2.87984">
        <ele>23</ele>
        <time>2020-08-28T08:33:19Z</time>
      </trkpt>
      <trkpt lat="50.43407" lon="2.87999">
        <ele>22</ele>
        <time>2020-08-28T08:33:34Z</time>
      </trkpt>
      <trkpt lat="50.43394" lon="2.88013">
        <ele>23</ele>
        <time>2020-08-28T08:33:38Z</time>
      </trkpt>
      <trkpt lat="50.43377" lon="2.88045">
        <ele>25</ele>
        <time>2020-08-28T08:33:44Z</time>
      </trkpt>
      <trkpt lat="50.43351" lon="2.88076">
        <ele>24</ele>
        <time>2020-08-28T08:33:52Z</time>
      </trkpt>
      <trkpt lat="50.4334" lon="2.88095">
        <ele>23</ele>
        <time>2020-08-28T08:33:56Z</time>
      </trkpt>
      <trkpt lat="50.43324" lon="2.88132">
        <ele>25</ele>
        <time>2020-08-28T08:34:02Z</time>
      </trkpt>
      <trkpt lat="50.43313" lon="2.88169">
        <ele>27</ele>
        <time>2020-08-28T08:34:08Z</time>
      </trkpt>
      <trkpt lat="50.43264" lon="2.88307">
        <ele>27</ele>
        <time>2020-08-28T08:34:32Z</time>
      </trkpt>
      <trkpt lat="50.43254" lon="2.88343">
        <ele>27</ele>
        <time>2020-08-28T08:34:38Z</time>
      </trkpt>
      <trkpt lat="50.43255" lon="2.8836">
        <ele>28</ele>
        <time>2020-08-28T08:34:40Z</time>
      </trkpt>
      <trkpt lat="50.43261" lon="2.88374">
        <ele>30</ele>
        <time>2020-08-28T08:34:43Z</time>
      </trkpt>
      <trkpt lat="50.4326" lon="2.88385">
        <ele>30</ele>
        <time>2020-08-28T08:34:44Z</time>
      </trkpt>
      <trkpt lat="50.43252" lon="2.88406">
        <ele>30</ele>
        <time>2020-08-28T08:34:48Z</time>
      </trkpt>
      <trkpt lat="50.43233" lon="2.88482">
        <ele>31</ele>
        <time>2020-08-28T08:35:00Z</time>
      </trkpt>
      <trkpt lat="50.43234" lon="2.88512">
        <ele>31</ele>
        <time>2020-08-28T08:35:05Z</time>
      </trkpt>
      <trkpt lat="50.43244" lon="2.88544">
        <ele>31</ele>
        <time>2020-08-28T08:35:10Z</time>
      </trkpt>
      <trkpt lat="50.43273" lon="2.88612">
        <ele>33</ele>
        <time>2020-08-28T08:35:22Z</time>
      </trkpt>
      <trkpt lat="50.43312" lon="2.8868">
        <ele>34</ele>
        <time>2020-08-28T08:35:36Z</time>
      </trkpt>
      <trkpt lat="50.43403" lon="2.88784">
        <ele>33</ele>
        <time>2020-08-28T08:36:02Z</time>
      </trkpt>
      <trkpt lat="50.43421" lon="2.88801">
        <ele>31</ele>
        <time>2020-08-28T08:36:07Z</time>
      </trkpt>
      <trkpt lat="50.43434" lon="2.88801">
        <ele>30</ele>
        <time>2020-08-28T08:36:10Z</time>
      </trkpt>
      <trkpt lat="50.43434" lon="2.88831">
        <ele>28</ele>
        <time>2020-08-28T08:36:14Z</time>
      </trkpt>
      <trkpt lat="50.43442" lon="2.88849">
        <ele>27</ele>
        <time>2020-08-28T08:36:18Z</time>
      </trkpt>
      <trkpt lat="50.43486" lon="2.88897">
        <ele>23</ele>
        <time>2020-08-28T08:36:30Z</time>
      </trkpt>
      <trkpt lat="50.43505" lon="2.88921">
        <ele>21</ele>
        <time>2020-08-28T08:36:36Z</time>
      </trkpt>
      <trkpt lat="50.43535" lon="2.88971">
        <ele>18</ele>
        <time>2020-08-28T08:36:46Z</time>
      </trkpt>
      <trkpt lat="50.43546" lon="2.88996">
        <ele>18</ele>
        <time>2020-08-28T08:36:51Z</time>
      </trkpt>
      <trkpt lat="50.43558" lon="2.89037">
        <ele>17</ele>
        <time>2020-08-28T08:36:57Z</time>
      </trkpt>
      <trkpt lat="50.43567" lon="2.8908">
        <ele>18</ele>
        <time>2020-08-28T08:37:04Z</time>
      </trkpt>
      <trkpt lat="50.43571" lon="2.89109">
        <ele>19</ele>
        <time>2020-08-28T08:37:08Z</time>
      </trkpt>
      <trkpt lat="50.43572" lon="2.89179">
        <ele>21</ele>
        <time>2020-08-28T08:37:19Z</time>
      </trkpt>
      <trkpt lat="50.43576" lon="2.89234">
        <ele>22</ele>
        <time>2020-08-28T08:37:27Z</time>
      </trkpt>
      <trkpt lat="50.4358" lon="2.89256">
        <ele>23</ele>
        <time>2020-08-28T08:37:31Z</time>
      </trkpt>
      <trkpt lat="50.43586" lon="2.89264">
        <ele>22</ele>
        <time>2020-08-28T08:37:32Z</time>
      </trkpt>
      <trkpt lat="50.43614" lon="2.89283">
        <ele>22</ele>
        <time>2020-08-28T08:37:40Z</time>
      </trkpt>
      <trkpt lat="50.43649" lon="2.89274">
        <ele>20</ele>
        <time>2020-08-28T08:37:48Z</time>
      </trkpt>
      <trkpt lat="50.43659" lon="2.89276">
        <ele>20</ele>
        <time>2020-08-28T08:37:50Z</time>
      </trkpt>
      <trkpt lat="50.43673" lon="2.89299">
        <ele>20</ele>
        <time>2020-08-28T08:37:55Z</time>
      </trkpt>
      <trkpt lat="50.43697" lon="2.8933">
        <ele>21</ele>
        <time>2020-08-28T08:38:02Z</time>
      </trkpt>
      <trkpt lat="50.43705" lon="2.89345">
        <ele>21</ele>
        <time>2020-08-28T08:38:05Z</time>
      </trkpt>
      <trkpt lat="50.43741" lon="2.89359">
        <ele>23</ele>
        <time>2020-08-28T08:38:14Z</time>
      </trkpt>
      <trkpt lat="50.43746" lon="2.89376">
        <ele>23</ele>
        <time>2020-08-28T08:38:16Z</time>
      </trkpt>
      <trkpt lat="50.43756" lon="2.89388">
        <ele>24</ele>
        <time>2020-08-28T08:38:19Z</time>
      </trkpt>
      <trkpt lat="50.43761" lon="2.89398">
        <ele>24</ele>
        <time>2020-08-28T08:38:21Z</time>
      </trkpt>
      <trkpt lat="50.43795" lon="2.89476">
        <ele>25</ele>
        <time>2020-08-28T08:38:35Z</time>
      </trkpt>
      <trkpt lat="50.43805" lon="2.89534">
        <ele>26</ele>
        <time>2020-08-28T08:38:44Z</time>
      </trkpt>
      <trkpt lat="50.43799" lon="2.89549">
        <ele>26</ele>
        <time>2020-08-28T08:38:47Z</time>
      </trkpt>
      <trkpt lat="50.43757" lon="2.89555">
        <ele>25</ele>
        <time>2020-08-28T08:38:57Z</time>
      </trkpt>
      <trkpt lat="50.4374" lon="2.8958">
        <ele>24</ele>
        <time>2020-08-28T08:39:02Z</time>
      </trkpt>
      <trkpt lat="50.43738" lon="2.89592">
        <ele>24</ele>
        <time>2020-08-28T08:39:04Z</time>
      </trkpt>
      <trkpt lat="50.43758" lon="2.8962">
        <ele>25</ele>
        <time>2020-08-28T08:39:10Z</time>
      </trkpt>
      <trkpt lat="50.43771" lon="2.89623">
        <ele>26</ele>
        <time>2020-08-28T08:39:13Z</time>
      </trkpt>
      <trkpt lat="50.43785" lon="2.89617">
        <ele>26</ele>
        <time>2020-08-28T08:39:17Z</time>
      </trkpt>
      <trkpt lat="50.43794" lon="2.89616">
        <ele>27</ele>
        <time>2020-08-28T08:39:19Z</time>
      </trkpt>
      <trkpt lat="50.43801" lon="2.89618">
        <ele>27</ele>
        <time>2020-08-28T08:39:21Z</time>
      </trkpt>
      <trkpt lat="50.43813" lon="2.89637">
        <ele>28</ele>
        <time>2020-08-28T08:39:25Z</time>
      </trkpt>
      <trkpt lat="50.43816" lon="2.89654">
        <ele>28</ele>
        <time>2020-08-28T08:39:27Z</time>
      </trkpt>
      <trkpt lat="50.43826" lon="2.89676">
        <ele>28</ele>
        <time>2020-08-28T08:39:31Z</time>
      </trkpt>
      <trkpt lat="50.4383" lon="2.89705">
        <ele>28</ele>
        <time>2020-08-28T08:39:36Z</time>
      </trkpt>
      <trkpt lat="50.43853" lon="2.8973">
        <ele>28</ele>
        <time>2020-08-28T08:39:42Z</time>
      </trkpt>
      <trkpt lat="50.43862" lon="2.89748">
        <ele>28</ele>
        <time>2020-08-28T08:39:46Z</time>
      </trkpt>
      <trkpt lat="50.43868" lon="2.8977">
        <ele>27</ele>
        <time>2020-08-28T08:39:49Z</time>
      </trkpt>
      <trkpt lat="50.43864" lon="2.89804">
        <ele>26</ele>
        <time>2020-08-28T08:39:54Z</time>
      </trkpt>
      <trkpt lat="50.43867" lon="2.89831">
        <ele>26</ele>
        <time>2020-08-28T08:39:58Z</time>
      </trkpt>
      <trkpt lat="50.43881" lon="2.89858">
        <ele>26</ele>
        <time>2020-08-28T08:40:03Z</time>
      </trkpt>
      <trkpt lat="50.43893" lon="2.89896">
        <ele>26</ele>
        <time>2020-08-28T08:40:10Z</time>
      </trkpt>
      <trkpt lat="50.43894" lon="2.89909">
        <ele>26</ele>
        <time>2020-08-28T08:40:12Z</time>
      </trkpt>
      <trkpt lat="50.43883" lon="2.89919">
        <ele>25</ele>
        <time>2020-08-28T08:40:15Z</time>
      </trkpt>
      <trkpt lat="50.43875" lon="2.89916">
        <ele>25</ele>
        <time>2020-08-28T08:40:17Z</time>
      </trkpt>
      <trkpt lat="50.43851" lon="2.89893">
        <ele>25</ele>
        <time>2020-08-28T08:40:23Z</time>
      </trkpt>
      <trkpt lat="50.43828" lon="2.89863">
        <ele>25</ele>
        <time>2020-08-28T08:40:30Z</time>
      </trkpt>
      <trkpt lat="50.43817" lon="2.89846">
        <ele>25</ele>
        <time>2020-08-28T08:40:34Z</time>
      </trkpt>
      <trkpt lat="50.43814" lon="2.8983">
        <ele>25</ele>
        <time>2020-08-28T08:40:36Z</time>
      </trkpt>
      <trkpt lat="50.43793" lon="2.89804">
        <ele>25</ele>
        <time>2020-08-28T08:40:43Z</time>
      </trkpt>
      <trkpt lat="50.43778" lon="2.89779">
        <ele>25</ele>
        <time>2020-08-28T08:40:48Z</time>
      </trkpt>
      <trkpt lat="50.43769" lon="2.89771">
        <ele>25</ele>
        <time>2020-08-28T08:40:50Z</time>
      </trkpt>
      <trkpt lat="50.43772" lon="2.89736">
        <ele>26</ele>
        <time>2020-08-28T08:40:55Z</time>
      </trkpt>
      <trkpt lat="50.43753" lon="2.89716">
        <ele>25</ele>
        <time>2020-08-28T08:41:01Z</time>
      </trkpt>
      <trkpt lat="50.43747" lon="2.89699">
        <ele>25</ele>
        <time>2020-08-28T08:41:04Z</time>
      </trkpt>
      <trkpt lat="50.43736" lon="2.89692">
        <ele>25</ele>
        <time>2020-08-28T08:41:06Z</time>
      </trkpt>
      <trkpt lat="50.43724" lon="2.8968">
        <ele>25</ele>
        <time>2020-08-28T08:41:10Z</time>
      </trkpt>
      <trkpt lat="50.43723" lon="2.89666">
        <ele>25</ele>
        <time>2020-08-28T08:41:12Z</time>
      </trkpt>
      <trkpt lat="50.43711" lon="2.89645">
        <ele>25</ele>
        <time>2020-08-28T08:41:16Z</time>
      </trkpt>
      <trkpt lat="50.43698" lon="2.89613">
        <ele>25</ele>
        <time>2020-08-28T08:41:22Z</time>
      </trkpt>
      <trkpt lat="50.43686" lon="2.89593">
        <ele>25</ele>
        <time>2020-08-28T08:41:26Z</time>
      </trkpt>
      <trkpt lat="50.43676" lon="2.89566">
        <ele>25</ele>
        <time>2020-08-28T08:41:30Z</time>
      </trkpt>
      <trkpt lat="50.43661" lon="2.89551">
        <ele>25</ele>
        <time>2020-08-28T08:41:34Z</time>
      </trkpt>
      <trkpt lat="50.43637" lon="2.89566">
        <ele>25</ele>
        <time>2020-08-28T08:41:40Z</time>
      </trkpt>
      <trkpt lat="50.4362" lon="2.8958">
        <ele>26</ele>
        <time>2020-08-28T08:41:45Z</time>
      </trkpt>
      <trkpt lat="50.43591" lon="2.8962">
        <ele>26</ele>
        <time>2020-08-28T08:41:54Z</time>
      </trkpt>
      <trkpt lat="50.43581" lon="2.89645">
        <ele>27</ele>
        <time>2020-08-28T08:41:58Z</time>
      </trkpt>
      <trkpt lat="50.43571" lon="2.89674">
        <ele>27</ele>
        <time>2020-08-28T08:42:03Z</time>
      </trkpt>
      <trkpt lat="50.4356" lon="2.89733">
        <ele>26</ele>
        <time>2020-08-28T08:42:12Z</time>
      </trkpt>
      <trkpt lat="50.4355" lon="2.89847">
        <ele>25</ele>
        <time>2020-08-28T08:42:30Z</time>
      </trkpt>
      <trkpt lat="50.43549" lon="2.89875">
        <ele>25</ele>
        <time>2020-08-28T08:42:34Z</time>
      </trkpt>
      <trkpt lat="50.43554" lon="2.89937">
        <ele>25</ele>
        <time>2020-08-28T08:42:43Z</time>
      </trkpt>
      <trkpt lat="50.43576" lon="2.90016">
        <ele>26</ele>
        <time>2020-08-28T08:42:56Z</time>
      </trkpt>
      <trkpt lat="50.43625" lon="2.90217">
        <ele>24</ele>
        <time>2020-08-28T08:43:28Z</time>
      </trkpt>
      <trkpt lat="50.43522" lon="2.90258">
        <ele>22</ele>
        <time>2020-08-28T08:43:53Z</time>
      </trkpt>
      <trkpt lat="50.43499" lon="2.9026">
        <ele>22</ele>
        <time>2020-08-28T08:43:58Z</time>
      </trkpt>
      <trkpt lat="50.43487" lon="2.90257">
        <ele>22</ele>
        <time>2020-08-28T08:44:01Z</time>
      </trkpt>
      <trkpt lat="50.43476" lon="2.9025">
        <ele>21</ele>
        <time>2020-08-28T08:44:04Z</time>
      </trkpt>
      <trkpt lat="50.43445" lon="2.9023">
        <ele>21</ele>
        <time>2020-08-28T08:44:11Z</time>
      </trkpt>
      <trkpt lat="50.43408" lon="2.902">
        <ele>20</ele>
        <time>2020-08-28T08:44:21Z</time>
      </trkpt>
      <trkpt lat="50.43345" lon="2.90159">
        <ele>19</ele>
        <time>2020-08-28T08:44:37Z</time>
      </trkpt>
      <trkpt lat="50.43339" lon="2.90158">
        <ele>19</ele>
        <time>2020-08-28T08:44:39Z</time>
      </trkpt>
      <trkpt lat="50.43334" lon="2.90161">
        <ele>19</ele>
        <time>2020-08-28T08:44:40Z</time>
      </trkpt>
      <trkpt lat="50.43326" lon="2.90178">
        <ele>19</ele>
        <time>2020-08-28T08:44:43Z</time>
      </trkpt>
      <trkpt lat="50.43307" lon="2.90255">
        <ele>20</ele>
        <time>2020-08-28T08:44:55Z</time>
      </trkpt>
      <trkpt lat="50.43305" lon="2.90255">
        <ele>20</ele>
        <time>2020-08-28T08:44:56Z</time>
      </trkpt>
      <trkpt lat="50.43306" lon="2.90247">
        <ele>20</ele>
        <time>2020-08-28T08:44:57Z</time>
      </trkpt>
      <trkpt lat="50.43251" lon="2.90192">
        <ele>21</ele>
        <time>2020-08-28T08:45:12Z</time>
      </trkpt>
      <trkpt lat="50.43234" lon="2.90169">
        <ele>21</ele>
        <time>2020-08-28T08:45:17Z</time>
      </trkpt>
      <trkpt lat="50.4319" lon="2.9012">
        <ele>21</ele>
        <time>2020-08-28T08:45:30Z</time>
      </trkpt>
      <trkpt lat="50.43137" lon="2.90047">
        <ele>21</ele>
        <time>2020-08-28T08:45:46Z</time>
      </trkpt>
      <trkpt lat="50.43119" lon="2.90018">
        <ele>21</ele>
        <time>2020-08-28T08:45:52Z</time>
      </trkpt>
      <trkpt lat="50.43108" lon="2.90007">
        <ele>21</ele>
        <time>2020-08-28T08:45:55Z</time>
      </trkpt>
      <trkpt lat="50.4311" lon="2.8998">
        <ele>21</ele>
        <time>2020-08-28T08:46:00Z</time>
      </trkpt>
      <trkpt lat="50.43155" lon="2.89715">
        <ele>23</ele>
        <time>2020-08-28T08:46:40Z</time>
      </trkpt>
      <trkpt lat="50.43151" lon="2.89703">
        <ele>24</ele>
        <time>2020-08-28T08:46:42Z</time>
      </trkpt>
      <trkpt lat="50.43146" lon="2.897">
        <ele>25</ele>
        <time>2020-08-28T08:46:44Z</time>
      </trkpt>
      <trkpt lat="50.43132" lon="2.89698">
        <ele>26</ele>
        <time>2020-08-28T08:46:47Z</time>
      </trkpt>
      <trkpt lat="50.43108" lon="2.8969">
        <ele>29</ele>
        <time>2020-08-28T08:46:53Z</time>
      </trkpt>
      <trkpt lat="50.43089" lon="2.8969">
        <ele>31</ele>
        <time>2020-08-28T08:46:57Z</time>
      </trkpt>
      <trkpt lat="50.43035" lon="2.89715">
        <ele>34</ele>
        <time>2020-08-28T08:47:10Z</time>
      </trkpt>
      <trkpt lat="50.43001" lon="2.89757">
        <ele>32</ele>
        <time>2020-08-28T08:47:20Z</time>
      </trkpt>
      <trkpt lat="50.42983" lon="2.89795">
        <ele>33</ele>
        <time>2020-08-28T08:47:27Z</time>
      </trkpt>
      <trkpt lat="50.42973" lon="2.898">
        <ele>35</ele>
        <time>2020-08-28T08:47:30Z</time>
      </trkpt>
      <trkpt lat="50.42969" lon="2.89808">
        <ele>35</ele>
        <time>2020-08-28T08:47:31Z</time>
      </trkpt>
      <trkpt lat="50.42959" lon="2.89867">
        <ele>35</ele>
        <time>2020-08-28T08:47:40Z</time>
      </trkpt>
      <trkpt lat="50.42954" lon="2.89921">
        <ele>34</ele>
        <time>2020-08-28T08:47:49Z</time>
      </trkpt>
      <trkpt lat="50.42939" lon="2.89983">
        <ele>33</ele>
        <time>2020-08-28T08:47:58Z</time>
      </trkpt>
      <trkpt lat="50.42944" lon="2.90015">
        <ele>31</ele>
        <time>2020-08-28T08:48:03Z</time>
      </trkpt>
      <trkpt lat="50.42956" lon="2.9005">
        <ele>28</ele>
        <time>2020-08-28T08:48:09Z</time>
      </trkpt>
      <trkpt lat="50.42957" lon="2.90107">
        <ele>25</ele>
        <time>2020-08-28T08:48:18Z</time>
      </trkpt>
      <trkpt lat="50.42955" lon="2.9012">
        <ele>25</ele>
        <time>2020-08-28T08:48:20Z</time>
      </trkpt>
      <trkpt lat="50.42945" lon="2.90139">
        <ele>25</ele>
        <time>2020-08-28T08:48:23Z</time>
      </trkpt>
      <trkpt lat="50.42899" lon="2.90204">
        <ele>28</ele>
        <time>2020-08-28T08:48:38Z</time>
      </trkpt>
      <trkpt lat="50.42874" lon="2.90214">
        <ele>31</ele>
        <time>2020-08-28T08:48:44Z</time>
      </trkpt>
      <trkpt lat="50.42847" lon="2.90238">
        <ele>34</ele>
        <time>2020-08-28T08:48:51Z</time>
      </trkpt>
      <trkpt lat="50.42835" lon="2.90253">
        <ele>35</ele>
        <time>2020-08-28T08:48:55Z</time>
      </trkpt>
      <trkpt lat="50.42832" lon="2.90252">
        <ele>35</ele>
        <time>2020-08-28T08:48:55Z</time>
      </trkpt>
      <trkpt lat="50.42848" lon="2.90175">
        <ele>39</ele>
        <time>2020-08-28T08:49:07Z</time>
      </trkpt>
      <trkpt lat="50.42869" lon="2.90139">
        <ele>37</ele>
        <time>2020-08-28T08:49:15Z</time>
      </trkpt>
      <trkpt lat="50.42895" lon="2.90065">
        <ele>37</ele>
        <time>2020-08-28T08:49:27Z</time>
      </trkpt>
      <trkpt lat="50.42905" lon="2.90013">
        <ele>37</ele>
        <time>2020-08-28T08:49:35Z</time>
      </trkpt>
      <trkpt lat="50.4291" lon="2.89952">
        <ele>41</ele>
        <time>2020-08-28T08:49:44Z</time>
      </trkpt>
      <trkpt lat="50.42908" lon="2.89943">
        <ele>42</ele>
        <time>2020-08-28T08:49:46Z</time>
      </trkpt>
      <trkpt lat="50.42909" lon="2.89915">
        <ele>44</ele>
        <time>2020-08-28T08:49:50Z</time>
      </trkpt>
      <trkpt lat="50.42912" lon="2.899">
        <ele>45</ele>
        <time>2020-08-28T08:49:52Z</time>
      </trkpt>
      <trkpt lat="50.42934" lon="2.8983">
        <ele>43</ele>
        <time>2020-08-28T08:50:04Z</time>
      </trkpt>
      <trkpt lat="50.42935" lon="2.89811">
        <ele>44</ele>
        <time>2020-08-28T08:50:07Z</time>
      </trkpt>
      <trkpt lat="50.42941" lon="2.89799">
        <ele>43</ele>
        <time>2020-08-28T08:50:09Z</time>
      </trkpt>
      <trkpt lat="50.42942" lon="2.89782">
        <ele>44</ele>
        <time>2020-08-28T08:50:12Z</time>
      </trkpt>
      <trkpt lat="50.42947" lon="2.89767">
        <ele>43</ele>
        <time>2020-08-28T08:50:14Z</time>
      </trkpt>
      <trkpt lat="50.42944" lon="2.89759">
        <ele>45</ele>
        <time>2020-08-28T08:50:16Z</time>
      </trkpt>
      <trkpt lat="50.42968" lon="2.89702">
        <ele>44</ele>
        <time>2020-08-28T08:50:26Z</time>
      </trkpt>
      <trkpt lat="50.42976" lon="2.89668">
        <ele>47</ele>
        <time>2020-08-28T08:50:31Z</time>
      </trkpt>
      <trkpt lat="50.42966" lon="2.89643">
        <ele>47</ele>
        <time>2020-08-28T08:50:35Z</time>
      </trkpt>
      <trkpt lat="50.42967" lon="2.89631">
        <ele>47</ele>
        <time>2020-08-28T08:50:37Z</time>
      </trkpt>
      <trkpt lat="50.42975" lon="2.89621">
        <ele>47</ele>
        <time>2020-08-28T08:50:40Z</time>
      </trkpt>
      <trkpt lat="50.42993" lon="2.8963">
        <ele>46</ele>
        <time>2020-08-28T08:50:44Z</time>
      </trkpt>
      <trkpt lat="50.43009" lon="2.89646">
        <ele>45</ele>
        <time>2020-08-28T08:50:49Z</time>
      </trkpt>
      <trkpt lat="50.43013" lon="2.89646">
        <ele>44</ele>
        <time>2020-08-28T08:50:49Z</time>
      </trkpt>
      <trkpt lat="50.43029" lon="2.89616">
        <ele>44</ele>
        <time>2020-08-28T08:50:55Z</time>
      </trkpt>
      <trkpt lat="50.43048" lon="2.89592">
        <ele>44</ele>
        <time>2020-08-28T08:51:01Z</time>
      </trkpt>
      <trkpt lat="50.43053" lon="2.89596">
        <ele>43</ele>
        <time>2020-08-28T08:51:02Z</time>
      </trkpt>
      <trkpt lat="50.43054" lon="2.89605">
        <ele>42</ele>
        <time>2020-08-28T08:51:04Z</time>
      </trkpt>
      <trkpt lat="50.43064" lon="2.8963">
        <ele>40</ele>
        <time>2020-08-28T08:51:08Z</time>
      </trkpt>
      <trkpt lat="50.43066" lon="2.89643">
        <ele>39</ele>
        <time>2020-08-28T08:51:10Z</time>
      </trkpt>
      <trkpt lat="50.43073" lon="2.89646">
        <ele>38</ele>
        <time>2020-08-28T08:51:12Z</time>
      </trkpt>
      <trkpt lat="50.43088" lon="2.89643">
        <ele>36</ele>
        <time>2020-08-28T08:51:15Z</time>
      </trkpt>
      <trkpt lat="50.43094" lon="2.89633">
        <ele>36</ele>
        <time>2020-08-28T08:51:17Z</time>
      </trkpt>
      <trkpt lat="50.43095" lon="2.89606">
        <ele>38</ele>
        <time>2020-08-28T08:51:21Z</time>
      </trkpt>
      <trkpt lat="50.43085" lon="2.89597">
        <ele>41</ele>
        <time>2020-08-28T08:51:24Z</time>
      </trkpt>
      <trkpt lat="50.43082" lon="2.89577">
        <ele>42</ele>
        <time>2020-08-28T08:51:27Z</time>
      </trkpt>
      <trkpt lat="50.43077" lon="2.89562">
        <ele>42</ele>
        <time>2020-08-28T08:51:30Z</time>
      </trkpt>
      <trkpt lat="50.43074" lon="2.8956">
        <ele>42</ele>
        <time>2020-08-28T08:51:30Z</time>
      </trkpt>
      <trkpt lat="50.43048" lon="2.89556">
        <ele>44</ele>
        <time>2020-08-28T08:51:36Z</time>
      </trkpt>
      <trkpt lat="50.43031" lon="2.89562">
        <ele>45</ele>
        <time>2020-08-28T08:51:41Z</time>
      </trkpt>
      <trkpt lat="50.43013" lon="2.8958">
        <ele>46</ele>
        <time>2020-08-28T08:51:46Z</time>
      </trkpt>
      <trkpt lat="50.43005" lon="2.89583">
        <ele>47</ele>
        <time>2020-08-28T08:51:47Z</time>
      </trkpt>
      <trkpt lat="50.42997" lon="2.89574">
        <ele>47</ele>
        <time>2020-08-28T08:51:50Z</time>
      </trkpt>
      <trkpt lat="50.42986" lon="2.8957">
        <ele>46</ele>
        <time>2020-08-28T08:51:52Z</time>
      </trkpt>
      <trkpt lat="50.42975" lon="2.8957">
        <ele>46</ele>
        <time>2020-08-28T08:51:55Z</time>
      </trkpt>
      <trkpt lat="50.42969" lon="2.89576">
        <ele>46</ele>
        <time>2020-08-28T08:51:57Z</time>
      </trkpt>
      <trkpt lat="50.42969" lon="2.8959">
        <ele>47</ele>
        <time>2020-08-28T08:51:59Z</time>
      </trkpt>
      <trkpt lat="50.42974" lon="2.89597">
        <ele>47</ele>
        <time>2020-08-28T08:52:00Z</time>
      </trkpt>
      <trkpt lat="50.42975" lon="2.89603">
        <ele>47</ele>
        <time>2020-08-28T08:52:01Z</time>
      </trkpt>
      <trkpt lat="50.42969" lon="2.8961">
        <ele>47</ele>
        <time>2020-08-28T08:52:03Z</time>
      </trkpt>
      <trkpt lat="50.42963" lon="2.89613">
        <ele>47</ele>
        <time>2020-08-28T08:52:04Z</time>
      </trkpt>
      <trkpt lat="50.42939" lon="2.89617">
        <ele>48</ele>
        <time>2020-08-28T08:52:10Z</time>
      </trkpt>
      <trkpt lat="50.42924" lon="2.89617">
        <ele>48</ele>
        <time>2020-08-28T08:52:14Z</time>
      </trkpt>
      <trkpt lat="50.42912" lon="2.89593">
        <ele>47</ele>
        <time>2020-08-28T08:52:18Z</time>
      </trkpt>
      <trkpt lat="50.42919" lon="2.89596">
        <ele>47</ele>
        <time>2020-08-28T08:52:20Z</time>
      </trkpt>
      <trkpt lat="50.42934" lon="2.89588">
        <ele>46</ele>
        <time>2020-08-28T08:52:23Z</time>
      </trkpt>
      <trkpt lat="50.42954" lon="2.89571">
        <ele>46</ele>
        <time>2020-08-28T08:52:29Z</time>
      </trkpt>
      <trkpt lat="50.42969" lon="2.89552">
        <ele>45</ele>
        <time>2020-08-28T08:52:33Z</time>
      </trkpt>
      <trkpt lat="50.42986" lon="2.8954">
        <ele>45</ele>
        <time>2020-08-28T08:52:38Z</time>
      </trkpt>
      <trkpt lat="50.43011" lon="2.89534">
        <ele>45</ele>
        <time>2020-08-28T08:52:44Z</time>
      </trkpt>
      <trkpt lat="50.43022" lon="2.89528">
        <ele>44</ele>
        <time>2020-08-28T08:52:46Z</time>
      </trkpt>
      <trkpt lat="50.43064" lon="2.89515">
        <ele>43</ele>
        <time>2020-08-28T08:52:56Z</time>
      </trkpt>
      <trkpt lat="50.43084" lon="2.89514">
        <ele>42</ele>
        <time>2020-08-28T08:53:01Z</time>
      </trkpt>
      <trkpt lat="50.43101" lon="2.89508">
        <ele>40</ele>
        <time>2020-08-28T08:53:05Z</time>
      </trkpt>
      <trkpt lat="50.43112" lon="2.89513">
        <ele>38</ele>
        <time>2020-08-28T08:53:08Z</time>
      </trkpt>
      <trkpt lat="50.43119" lon="2.8951">
        <ele>37</ele>
        <time>2020-08-28T08:53:09Z</time>
      </trkpt>
      <trkpt lat="50.43123" lon="2.895">
        <ele>37</ele>
        <time>2020-08-28T08:53:11Z</time>
      </trkpt>
      <trkpt lat="50.43122" lon="2.89484">
        <ele>37</ele>
        <time>2020-08-28T08:53:13Z</time>
      </trkpt>
      <trkpt lat="50.4311" lon="2.89418">
        <ele>38</ele>
        <time>2020-08-28T08:53:24Z</time>
      </trkpt>
      <trkpt lat="50.43107" lon="2.89386">
        <ele>37</ele>
        <time>2020-08-28T08:53:29Z</time>
      </trkpt>
      <trkpt lat="50.43098" lon="2.89372">
        <ele>37</ele>
        <time>2020-08-28T08:53:31Z</time>
      </trkpt>
      <trkpt lat="50.43067" lon="2.89374">
        <ele>38</ele>
        <time>2020-08-28T08:53:39Z</time>
      </trkpt>
      <trkpt lat="50.43042" lon="2.89372">
        <ele>39</ele>
        <time>2020-08-28T08:53:45Z</time>
      </trkpt>
      <trkpt lat="50.43019" lon="2.89385">
        <ele>40</ele>
        <time>2020-08-28T08:53:50Z</time>
      </trkpt>
      <trkpt lat="50.42999" lon="2.89407">
        <ele>42</ele>
        <time>2020-08-28T08:53:56Z</time>
      </trkpt>
      <trkpt lat="50.42942" lon="2.89495">
        <ele>42</ele>
        <time>2020-08-28T08:54:15Z</time>
      </trkpt>
      <trkpt lat="50.42909" lon="2.8953">
        <ele>42</ele>
        <time>2020-08-28T08:54:24Z</time>
      </trkpt>
      <trkpt lat="50.42901" lon="2.89517">
        <ele>41</ele>
        <time>2020-08-28T08:54:27Z</time>
      </trkpt>
      <trkpt lat="50.42909" lon="2.89417">
        <ele>40</ele>
        <time>2020-08-28T08:54:42Z</time>
      </trkpt>
      <trkpt lat="50.42918" lon="2.89388">
        <ele>39</ele>
        <time>2020-08-28T08:54:46Z</time>
      </trkpt>
      <trkpt lat="50.42915" lon="2.89387">
        <ele>39</ele>
        <time>2020-08-28T08:54:47Z</time>
      </trkpt>
      <trkpt lat="50.42906" lon="2.89393">
        <ele>39</ele>
        <time>2020-08-28T08:54:49Z</time>
      </trkpt>
      <trkpt lat="50.42898" lon="2.89406">
        <ele>39</ele>
        <time>2020-08-28T08:54:52Z</time>
      </trkpt>
      <trkpt lat="50.42882" lon="2.89443">
        <ele>39</ele>
        <time>2020-08-28T08:54:59Z</time>
      </trkpt>
      <trkpt lat="50.42868" lon="2.89491">
        <ele>39</ele>
        <time>2020-08-28T08:55:07Z</time>
      </trkpt>
      <trkpt lat="50.42859" lon="2.89536">
        <ele>41</ele>
        <time>2020-08-28T08:55:14Z</time>
      </trkpt>
      <trkpt lat="50.42832" lon="2.89565">
        <ele>42</ele>
        <time>2020-08-28T08:55:21Z</time>
      </trkpt>
      <trkpt lat="50.42828" lon="2.89581">
        <ele>44</ele>
        <time>2020-08-28T08:55:24Z</time>
      </trkpt>
      <trkpt lat="50.42833" lon="2.89589">
        <ele>44</ele>
        <time>2020-08-28T08:55:26Z</time>
      </trkpt>
      <trkpt lat="50.4284" lon="2.89592">
        <ele>45</ele>
        <time>2020-08-28T08:55:27Z</time>
      </trkpt>
      <trkpt lat="50.42855" lon="2.89585">
        <ele>45</ele>
        <time>2020-08-28T08:55:31Z</time>
      </trkpt>
      <trkpt lat="50.42866" lon="2.89574">
        <ele>44</ele>
        <time>2020-08-28T08:55:34Z</time>
      </trkpt>
      <trkpt lat="50.42871" lon="2.89574">
        <ele>44</ele>
        <time>2020-08-28T08:55:35Z</time>
      </trkpt>
      <trkpt lat="50.42876" lon="2.89585">
        <ele>45</ele>
        <time>2020-08-28T08:55:37Z</time>
      </trkpt>
      <trkpt lat="50.42876" lon="2.89611">
        <ele>47</ele>
        <time>2020-08-28T08:55:41Z</time>
      </trkpt>
      <trkpt lat="50.42863" lon="2.89625">
        <ele>48</ele>
        <time>2020-08-28T08:55:45Z</time>
      </trkpt>
      <trkpt lat="50.4284" lon="2.89629">
        <ele>47</ele>
        <time>2020-08-28T08:55:50Z</time>
      </trkpt>
      <trkpt lat="50.42832" lon="2.89634">
        <ele>48</ele>
        <time>2020-08-28T08:55:52Z</time>
      </trkpt>
      <trkpt lat="50.428" lon="2.8963">
        <ele>46</ele>
        <time>2020-08-28T08:56:00Z</time>
      </trkpt>
      <trkpt lat="50.42798" lon="2.89619">
        <ele>45</ele>
        <time>2020-08-28T08:56:01Z</time>
      </trkpt>
      <trkpt lat="50.42805" lon="2.89538">
        <ele>40</ele>
        <time>2020-08-28T08:56:13Z</time>
      </trkpt>
      <trkpt lat="50.42804" lon="2.8952">
        <ele>39</ele>
        <time>2020-08-28T08:56:16Z</time>
      </trkpt>
      <trkpt lat="50.428" lon="2.89509">
        <ele>38</ele>
        <time>2020-08-28T08:56:18Z</time>
      </trkpt>
      <trkpt lat="50.42784" lon="2.89505">
        <ele>38</ele>
        <time>2020-08-28T08:56:22Z</time>
      </trkpt>
      <trkpt lat="50.42776" lon="2.89506">
        <ele>38</ele>
        <time>2020-08-28T08:56:24Z</time>
      </trkpt>
      <trkpt lat="50.42768" lon="2.89499">
        <ele>38</ele>
        <time>2020-08-28T08:56:26Z</time>
      </trkpt>
      <trkpt lat="50.42768" lon="2.89468">
        <ele>38</ele>
        <time>2020-08-28T08:56:30Z</time>
      </trkpt>
      <trkpt lat="50.42763" lon="2.89459">
        <ele>38</ele>
        <time>2020-08-28T08:56:32Z</time>
      </trkpt>
      <trkpt lat="50.42755" lon="2.8946">
        <ele>38</ele>
        <time>2020-08-28T08:56:34Z</time>
      </trkpt>
      <trkpt lat="50.42724" lon="2.89478">
        <ele>38</ele>
        <time>2020-08-28T08:56:42Z</time>
      </trkpt>
      <trkpt lat="50.42717" lon="2.89475">
        <ele>38</ele>
        <time>2020-08-28T08:56:43Z</time>
      </trkpt>
      <trkpt lat="50.42714" lon="2.89469">
        <ele>38</ele>
        <time>2020-08-28T08:56:45Z</time>
      </trkpt>
      <trkpt lat="50.42703" lon="2.89465">
        <ele>38</ele>
        <time>2020-08-28T08:56:47Z</time>
      </trkpt>
      <trkpt lat="50.42683" lon="2.89467">
        <ele>38</ele>
        <time>2020-08-28T08:56:52Z</time>
      </trkpt>
      <trkpt lat="50.4267" lon="2.89461">
        <ele>38</ele>
        <time>2020-08-28T08:56:55Z</time>
      </trkpt>
      <trkpt lat="50.42651" lon="2.89447">
        <ele>37</ele>
        <time>2020-08-28T08:57:00Z</time>
      </trkpt>
      <trkpt lat="50.42643" lon="2.89454">
        <ele>37</ele>
        <time>2020-08-28T08:57:02Z</time>
      </trkpt>
      <trkpt lat="50.42625" lon="2.89459">
        <ele>38</ele>
        <time>2020-08-28T08:57:06Z</time>
      </trkpt>
      <trkpt lat="50.42597" lon="2.89482">
        <ele>37</ele>
        <time>2020-08-28T08:57:14Z</time>
      </trkpt>
      <trkpt lat="50.42574" lon="2.89482">
        <ele>37</ele>
        <time>2020-08-28T08:57:19Z</time>
      </trkpt>
      <trkpt lat="50.42526" lon="2.89523">
        <ele>34</ele>
        <time>2020-08-28T08:57:32Z</time>
      </trkpt>
      <trkpt lat="50.42392" lon="2.89567">
        <ele>34</ele>
        <time>2020-08-28T08:58:04Z</time>
      </trkpt>
      <trkpt lat="50.42383" lon="2.89584">
        <ele>34</ele>
        <time>2020-08-28T08:58:07Z</time>
      </trkpt>
      <trkpt lat="50.42383" lon="2.89605">
        <ele>34</ele>
        <time>2020-08-28T08:58:10Z</time>
      </trkpt>
      <trkpt lat="50.42389" lon="2.89604">
        <ele>34</ele>
        <time>2020-08-28T08:58:12Z</time>
      </trkpt>
      <trkpt lat="50.42404" lon="2.8961">
        <ele>33</ele>
        <time>2020-08-28T08:58:15Z</time>
      </trkpt>
      <trkpt lat="50.42415" lon="2.89632">
        <ele>34</ele>
        <time>2020-08-28T08:58:19Z</time>
      </trkpt>
      <trkpt lat="50.42425" lon="2.89666">
        <ele>34</ele>
        <time>2020-08-28T08:58:25Z</time>
      </trkpt>
      <trkpt lat="50.42438" lon="2.89695">
        <ele>34</ele>
        <time>2020-08-28T08:58:30Z</time>
      </trkpt>
      <trkpt lat="50.42444" lon="2.89725">
        <ele>34</ele>
        <time>2020-08-28T08:58:35Z</time>
      </trkpt>
      <trkpt lat="50.42433" lon="2.89812">
        <ele>34</ele>
        <time>2020-08-28T08:58:48Z</time>
      </trkpt>
      <trkpt lat="50.42437" lon="2.89837">
        <ele>35</ele>
        <time>2020-08-28T08:58:52Z</time>
      </trkpt>
      <trkpt lat="50.42474" lon="2.89929">
        <ele>38</ele>
        <time>2020-08-28T08:59:08Z</time>
      </trkpt>
      <trkpt lat="50.42481" lon="2.89963">
        <ele>39</ele>
        <time>2020-08-28T08:59:14Z</time>
      </trkpt>
      <trkpt lat="50.42487" lon="2.89966">
        <ele>39</ele>
        <time>2020-08-28T08:59:15Z</time>
      </trkpt>
      <trkpt lat="50.42493" lon="2.89955">
        <ele>40</ele>
        <time>2020-08-28T08:59:17Z</time>
      </trkpt>
      <trkpt lat="50.42506" lon="2.89887">
        <ele>40</ele>
        <time>2020-08-28T08:59:28Z</time>
      </trkpt>
      <trkpt lat="50.4254" lon="2.89755">
        <ele>40</ele>
        <time>2020-08-28T08:59:49Z</time>
      </trkpt>
      <trkpt lat="50.42561" lon="2.89711">
        <ele>40</ele>
        <time>2020-08-28T08:59:57Z</time>
      </trkpt>
      <trkpt lat="50.42565" lon="2.89694">
        <ele>39</ele>
        <time>2020-08-28T09:00:00Z</time>
      </trkpt>
      <trkpt lat="50.42568" lon="2.89691">
        <ele>39</ele>
        <time>2020-08-28T09:00:01Z</time>
      </trkpt>
      <trkpt lat="50.42577" lon="2.89689">
        <ele>39</ele>
        <time>2020-08-28T09:00:03Z</time>
      </trkpt>
      <trkpt lat="50.42579" lon="2.89691">
        <ele>40</ele>
        <time>2020-08-28T09:00:03Z</time>
      </trkpt>
      <trkpt lat="50.42591" lon="2.89692">
        <ele>41</ele>
        <time>2020-08-28T09:00:06Z</time>
      </trkpt>
      <trkpt lat="50.42612" lon="2.89691">
        <ele>42</ele>
        <time>2020-08-28T09:00:11Z</time>
      </trkpt>
      <trkpt lat="50.42659" lon="2.8968">
        <ele>44</ele>
        <time>2020-08-28T09:00:22Z</time>
      </trkpt>
      <trkpt lat="50.42699" lon="2.89679">
        <ele>46</ele>
        <time>2020-08-28T09:00:31Z</time>
      </trkpt>
      <trkpt lat="50.42724" lon="2.89688">
        <ele>47</ele>
        <time>2020-08-28T09:00:37Z</time>
      </trkpt>
      <trkpt lat="50.42731" lon="2.89693">
        <ele>48</ele>
        <time>2020-08-28T09:00:39Z</time>
      </trkpt>
      <trkpt lat="50.42745" lon="2.89712">
        <ele>50</ele>
        <time>2020-08-28T09:00:44Z</time>
      </trkpt>
      <trkpt lat="50.42777" lon="2.89728">
        <ele>51</ele>
        <time>2020-08-28T09:00:51Z</time>
      </trkpt>
      <trkpt lat="50.42792" lon="2.89726">
        <ele>52</ele>
        <time>2020-08-28T09:00:55Z</time>
      </trkpt>
      <trkpt lat="50.42824" lon="2.89711">
        <ele>51</ele>
        <time>2020-08-28T09:01:03Z</time>
      </trkpt>
      <trkpt lat="50.42855" lon="2.89701">
        <ele>51</ele>
        <time>2020-08-28T09:01:10Z</time>
      </trkpt>
      <trkpt lat="50.42892" lon="2.89682">
        <ele>51</ele>
        <time>2020-08-28T09:01:19Z</time>
      </trkpt>
      <trkpt lat="50.42948" lon="2.89665">
        <ele>49</ele>
        <time>2020-08-28T09:01:32Z</time>
      </trkpt>
      <trkpt lat="50.4295" lon="2.89652">
        <ele>49</ele>
        <time>2020-08-28T09:01:34Z</time>
      </trkpt>
      <trkpt lat="50.42952" lon="2.89656">
        <ele>49</ele>
        <time>2020-08-28T09:01:35Z</time>
      </trkpt>
      <trkpt lat="50.42951" lon="2.8967">
        <ele>49</ele>
        <time>2020-08-28T09:01:37Z</time>
      </trkpt>
      <trkpt lat="50.42944" lon="2.89681">
        <ele>49</ele>
        <time>2020-08-28T09:01:40Z</time>
      </trkpt>
      <trkpt lat="50.42936" lon="2.89686">
        <ele>50</ele>
        <time>2020-08-28T09:01:42Z</time>
      </trkpt>
      <trkpt lat="50.42928" lon="2.89706">
        <ele>50</ele>
        <time>2020-08-28T09:01:45Z</time>
      </trkpt>
      <trkpt lat="50.42923" lon="2.89739">
        <ele>50</ele>
        <time>2020-08-28T09:01:50Z</time>
      </trkpt>
      <trkpt lat="50.42892" lon="2.89842">
        <ele>49</ele>
        <time>2020-08-28T09:02:07Z</time>
      </trkpt>
      <trkpt lat="50.42886" lon="2.8985">
        <ele>50</ele>
        <time>2020-08-28T09:02:09Z</time>
      </trkpt>
      <trkpt lat="50.4287" lon="2.89862">
        <ele>51</ele>
        <time>2020-08-28T09:02:13Z</time>
      </trkpt>
      <trkpt lat="50.42859" lon="2.89866">
        <ele>52</ele>
        <time>2020-08-28T09:02:16Z</time>
      </trkpt>
      <trkpt lat="50.42856" lon="2.89865">
        <ele>52</ele>
        <time>2020-08-28T09:02:16Z</time>
      </trkpt>
      <trkpt lat="50.42845" lon="2.89853">
        <ele>53</ele>
        <time>2020-08-28T09:02:20Z</time>
      </trkpt>
      <trkpt lat="50.42834" lon="2.89851">
        <ele>54</ele>
        <time>2020-08-28T09:02:22Z</time>
      </trkpt>
      <trkpt lat="50.42824" lon="2.89845">
        <ele>54</ele>
        <time>2020-08-28T09:02:25Z</time>
      </trkpt>
      <trkpt lat="50.42811" lon="2.89864">
        <ele>54</ele>
        <time>2020-08-28T09:02:29Z</time>
      </trkpt>
      <trkpt lat="50.42775" lon="2.89872">
        <ele>54</ele>
        <time>2020-08-28T09:02:37Z</time>
      </trkpt>
      <trkpt lat="50.42766" lon="2.89876">
        <ele>54</ele>
        <time>2020-08-28T09:02:40Z</time>
      </trkpt>
      <trkpt lat="50.42739" lon="2.89907">
        <ele>53</ele>
        <time>2020-08-28T09:02:47Z</time>
      </trkpt>
      <trkpt lat="50.42723" lon="2.89911">
        <ele>53</ele>
        <time>2020-08-28T09:02:51Z</time>
      </trkpt>
      <trkpt lat="50.42709" lon="2.899">
        <ele>53</ele>
        <time>2020-08-28T09:02:55Z</time>
      </trkpt>
      <trkpt lat="50.42695" lon="2.89896">
        <ele>53</ele>
        <time>2020-08-28T09:02:58Z</time>
      </trkpt>
      <trkpt lat="50.42682" lon="2.89882">
        <ele>53</ele>
        <time>2020-08-28T09:03:02Z</time>
      </trkpt>
      <trkpt lat="50.42671" lon="2.89795">
        <ele>51</ele>
        <time>2020-08-28T09:03:15Z</time>
      </trkpt>
      <trkpt lat="50.42614" lon="2.89772">
        <ele>48</ele>
        <time>2020-08-28T09:03:29Z</time>
      </trkpt>
      <trkpt lat="50.42607" lon="2.89771">
        <ele>47</ele>
        <time>2020-08-28T09:03:30Z</time>
      </trkpt>
      <trkpt lat="50.42594" lon="2.89789">
        <ele>47</ele>
        <time>2020-08-28T09:03:34Z</time>
      </trkpt>
      <trkpt lat="50.42588" lon="2.89808">
        <ele>48</ele>
        <time>2020-08-28T09:03:38Z</time>
      </trkpt>
      <trkpt lat="50.42592" lon="2.89865">
        <ele>50</ele>
        <time>2020-08-28T09:03:46Z</time>
      </trkpt>
      <trkpt lat="50.42578" lon="2.89905">
        <ele>51</ele>
        <time>2020-08-28T09:03:53Z</time>
      </trkpt>
      <trkpt lat="50.42566" lon="2.89927">
        <ele>49</ele>
        <time>2020-08-28T09:03:57Z</time>
      </trkpt>
      <trkpt lat="50.42559" lon="2.89947">
        <ele>48</ele>
        <time>2020-08-28T09:04:01Z</time>
      </trkpt>
      <trkpt lat="50.42563" lon="2.89958">
        <ele>48</ele>
        <time>2020-08-28T09:04:02Z</time>
      </trkpt>
      <trkpt lat="50.42565" lon="2.8996">
        <ele>49</ele>
        <time>2020-08-28T09:04:03Z</time>
      </trkpt>
      <trkpt lat="50.42603" lon="2.89954">
        <ele>51</ele>
        <time>2020-08-28T09:04:12Z</time>
      </trkpt>
      <trkpt lat="50.4262" lon="2.89961">
        <ele>51</ele>
        <time>2020-08-28T09:04:16Z</time>
      </trkpt>
      <trkpt lat="50.42637" lon="2.89976">
        <ele>51</ele>
        <time>2020-08-28T09:04:21Z</time>
      </trkpt>
      <trkpt lat="50.42655" lon="2.89985">
        <ele>51</ele>
        <time>2020-08-28T09:04:25Z</time>
      </trkpt>
      <trkpt lat="50.42672" lon="2.89986">
        <ele>51</ele>
        <time>2020-08-28T09:04:29Z</time>
      </trkpt>
      <trkpt lat="50.42717" lon="2.90012">
        <ele>50</ele>
        <time>2020-08-28T09:04:40Z</time>
      </trkpt>
      <trkpt lat="50.4273" lon="2.90027">
        <ele>50</ele>
        <time>2020-08-28T09:04:44Z</time>
      </trkpt>
      <trkpt lat="50.42749" lon="2.90072">
        <ele>48</ele>
        <time>2020-08-28T09:04:52Z</time>
      </trkpt>
      <trkpt lat="50.42757" lon="2.90097">
        <ele>47</ele>
        <time>2020-08-28T09:04:56Z</time>
      </trkpt>
      <trkpt lat="50.42756" lon="2.90148">
        <ele>46</ele>
        <time>2020-08-28T09:05:04Z</time>
      </trkpt>
      <trkpt lat="50.42733" lon="2.90097">
        <ele>46</ele>
        <time>2020-08-28T09:05:13Z</time>
      </trkpt>
      <trkpt lat="50.42724" lon="2.90071">
        <ele>47</ele>
        <time>2020-08-28T09:05:17Z</time>
      </trkpt>
      <trkpt lat="50.42714" lon="2.90051">
        <ele>48</ele>
        <time>2020-08-28T09:05:21Z</time>
      </trkpt>
      <trkpt lat="50.42704" lon="2.9004">
        <ele>48</ele>
        <time>2020-08-28T09:05:24Z</time>
      </trkpt>
      <trkpt lat="50.42684" lon="2.90036">
        <ele>48</ele>
        <time>2020-08-28T09:05:29Z</time>
      </trkpt>
      <trkpt lat="50.42671" lon="2.9003">
        <ele>48</ele>
        <time>2020-08-28T09:05:32Z</time>
      </trkpt>
      <trkpt lat="50.42654" lon="2.90019">
        <ele>49</ele>
        <time>2020-08-28T09:05:36Z</time>
      </trkpt>
      <trkpt lat="50.42635" lon="2.90001">
        <ele>51</ele>
        <time>2020-08-28T09:05:41Z</time>
      </trkpt>
      <trkpt lat="50.42606" lon="2.90007">
        <ele>50</ele>
        <time>2020-08-28T09:05:48Z</time>
      </trkpt>
      <trkpt lat="50.42597" lon="2.90013">
        <ele>49</ele>
        <time>2020-08-28T09:05:51Z</time>
      </trkpt>
      <trkpt lat="50.42578" lon="2.90018">
        <ele>48</ele>
        <time>2020-08-28T09:05:55Z</time>
      </trkpt>
      <trkpt lat="50.42555" lon="2.9003">
        <ele>44</ele>
        <time>2020-08-28T09:06:01Z</time>
      </trkpt>
      <trkpt lat="50.42551" lon="2.90029">
        <ele>44</ele>
        <time>2020-08-28T09:06:02Z</time>
      </trkpt>
      <trkpt lat="50.42539" lon="2.90018">
        <ele>43</ele>
        <time>2020-08-28T09:06:05Z</time>
      </trkpt>
      <trkpt lat="50.42527" lon="2.90001">
        <ele>43</ele>
        <time>2020-08-28T09:06:09Z</time>
      </trkpt>
      <trkpt lat="50.42525" lon="2.90001">
        <ele>43</ele>
        <time>2020-08-28T09:06:09Z</time>
      </trkpt>
      <trkpt lat="50.42523" lon="2.90011">
        <ele>42</ele>
        <time>2020-08-28T09:06:11Z</time>
      </trkpt>
      <trkpt lat="50.42527" lon="2.9003">
        <ele>41</ele>
        <time>2020-08-28T09:06:14Z</time>
      </trkpt>
      <trkpt lat="50.42555" lon="2.90085">
        <ele>40</ele>
        <time>2020-08-28T09:06:24Z</time>
      </trkpt>
      <trkpt lat="50.4256" lon="2.9015">
        <ele>39</ele>
        <time>2020-08-28T09:06:34Z</time>
      </trkpt>
      <trkpt lat="50.42577" lon="2.902">
        <ele>39</ele>
        <time>2020-08-28T09:06:42Z</time>
      </trkpt>
      <trkpt lat="50.42579" lon="2.90202">
        <ele>39</ele>
        <time>2020-08-28T09:06:43Z</time>
      </trkpt>
      <trkpt lat="50.42583" lon="2.90201">
        <ele>39</ele>
        <time>2020-08-28T09:06:44Z</time>
      </trkpt>
      <trkpt lat="50.42596" lon="2.90191">
        <ele>39</ele>
        <time>2020-08-28T09:06:47Z</time>
      </trkpt>
      <trkpt lat="50.42608" lon="2.90191">
        <ele>39</ele>
        <time>2020-08-28T09:06:50Z</time>
      </trkpt>
      <trkpt lat="50.42637" lon="2.90208">
        <ele>37</ele>
        <time>2020-08-28T09:06:57Z</time>
      </trkpt>
      <trkpt lat="50.42641" lon="2.90213">
        <ele>37</ele>
        <time>2020-08-28T09:06:58Z</time>
      </trkpt>
      <trkpt lat="50.42651" lon="2.90259">
        <ele>36</ele>
        <time>2020-08-28T09:07:06Z</time>
      </trkpt>
      <trkpt lat="50.42663" lon="2.90274">
        <ele>36</ele>
        <time>2020-08-28T09:07:09Z</time>
      </trkpt>
      <trkpt lat="50.42669" lon="2.9029">
        <ele>36</ele>
        <time>2020-08-28T09:07:12Z</time>
      </trkpt>
      <trkpt lat="50.42693" lon="2.90323">
        <ele>37</ele>
        <time>2020-08-28T09:07:19Z</time>
      </trkpt>
      <trkpt lat="50.42714" lon="2.90367">
        <ele>36</ele>
        <time>2020-08-28T09:07:28Z</time>
      </trkpt>
      <trkpt lat="50.42739" lon="2.90403">
        <ele>36</ele>
        <time>2020-08-28T09:07:36Z</time>
      </trkpt>
      <trkpt lat="50.42746" lon="2.90407">
        <ele>35</ele>
        <time>2020-08-28T09:07:37Z</time>
      </trkpt>
      <trkpt lat="50.42773" lon="2.9039">
        <ele>35</ele>
        <time>2020-08-28T09:07:44Z</time>
      </trkpt>
      <trkpt lat="50.42806" lon="2.90376">
        <ele>35</ele>
        <time>2020-08-28T09:07:52Z</time>
      </trkpt>
      <trkpt lat="50.42813" lon="2.9037">
        <ele>35</ele>
        <time>2020-08-28T09:07:54Z</time>
      </trkpt>
      <trkpt lat="50.42816" lon="2.90366">
        <ele>35</ele>
        <time>2020-08-28T09:07:55Z</time>
      </trkpt>
      <trkpt lat="50.4282" lon="2.90336">
        <ele>35</ele>
        <time>2020-08-28T09:07:59Z</time>
      </trkpt>
      <trkpt lat="50.42827" lon="2.90325">
        <ele>34</ele>
        <time>2020-08-28T09:08:02Z</time>
      </trkpt>
      <trkpt lat="50.42848" lon="2.90317">
        <ele>32</ele>
        <time>2020-08-28T09:08:07Z</time>
      </trkpt>
      <trkpt lat="50.42859" lon="2.90316">
        <ele>31</ele>
        <time>2020-08-28T09:08:09Z</time>
      </trkpt>
      <trkpt lat="50.42865" lon="2.90327">
        <ele>30</ele>
        <time>2020-08-28T09:08:12Z</time>
      </trkpt>
      <trkpt lat="50.42868" lon="2.90397">
        <ele>29</ele>
        <time>2020-08-28T09:08:22Z</time>
      </trkpt>
      <trkpt lat="50.42868" lon="2.90491">
        <ele>30</ele>
        <time>2020-08-28T09:08:36Z</time>
      </trkpt>
      <trkpt lat="50.42879" lon="2.90568">
        <ele>30</ele>
        <time>2020-08-28T09:08:48Z</time>
      </trkpt>
      <trkpt lat="50.42888" lon="2.90605">
        <ele>29</ele>
        <time>2020-08-28T09:08:54Z</time>
      </trkpt>
      <trkpt lat="50.42895" lon="2.90661">
        <ele>29</ele>
        <time>2020-08-28T09:09:02Z</time>
      </trkpt>
      <trkpt lat="50.42893" lon="2.90669">
        <ele>29</ele>
        <time>2020-08-28T09:09:03Z</time>
      </trkpt>
      <trkpt lat="50.42884" lon="2.90678">
        <ele>30</ele>
        <time>2020-08-28T09:09:06Z</time>
      </trkpt>
      <trkpt lat="50.42866" lon="2.90682">
        <ele>31</ele>
        <time>2020-08-28T09:09:10Z</time>
      </trkpt>
      <trkpt lat="50.42852" lon="2.90688">
        <ele>32</ele>
        <time>2020-08-28T09:09:13Z</time>
      </trkpt>
      <trkpt lat="50.42828" lon="2.90691">
        <ele>34</ele>
        <time>2020-08-28T09:09:19Z</time>
      </trkpt>
      <trkpt lat="50.4279" lon="2.90687">
        <ele>35</ele>
        <time>2020-08-28T09:09:28Z</time>
      </trkpt>
      <trkpt lat="50.42759" lon="2.90688">
        <ele>36</ele>
        <time>2020-08-28T09:09:35Z</time>
      </trkpt>
      <trkpt lat="50.42746" lon="2.90698">
        <ele>36</ele>
        <time>2020-08-28T09:09:39Z</time>
      </trkpt>
      <trkpt lat="50.4274" lon="2.90708">
        <ele>36</ele>
        <time>2020-08-28T09:09:41Z</time>
      </trkpt>
      <trkpt lat="50.42738" lon="2.90713">
        <ele>36</ele>
        <time>2020-08-28T09:09:42Z</time>
      </trkpt>
      <trkpt lat="50.4274" lon="2.90734">
        <ele>36</ele>
        <time>2020-08-28T09:09:45Z</time>
      </trkpt>
      <trkpt lat="50.42754" lon="2.90748">
        <ele>37</ele>
        <time>2020-08-28T09:09:49Z</time>
      </trkpt>
      <trkpt lat="50.42763" lon="2.90752">
        <ele>36</ele>
        <time>2020-08-28T09:09:51Z</time>
      </trkpt>
      <trkpt lat="50.4278" lon="2.90746">
        <ele>35</ele>
        <time>2020-08-28T09:09:55Z</time>
      </trkpt>
      <trkpt lat="50.42818" lon="2.90724">
        <ele>33</ele>
        <time>2020-08-28T09:10:04Z</time>
      </trkpt>
      <trkpt lat="50.42837" lon="2.90716">
        <ele>32</ele>
        <time>2020-08-28T09:10:09Z</time>
      </trkpt>
      <trkpt lat="50.42922" lon="2.90705">
        <ele>25</ele>
        <time>2020-08-28T09:10:29Z</time>
      </trkpt>
      <trkpt lat="50.42942" lon="2.90688">
        <ele>24</ele>
        <time>2020-08-28T09:10:34Z</time>
      </trkpt>
      <trkpt lat="50.42953" lon="2.90687">
        <ele>23</ele>
        <time>2020-08-28T09:10:37Z</time>
      </trkpt>
      <trkpt lat="50.42965" lon="2.90701">
        <ele>22</ele>
        <time>2020-08-28T09:10:40Z</time>
      </trkpt>
      <trkpt lat="50.43028" lon="2.90814">
        <ele>21</ele>
        <time>2020-08-28T09:11:02Z</time>
      </trkpt>
      <trkpt lat="50.43061" lon="2.9086">
        <ele>21</ele>
        <time>2020-08-28T09:11:13Z</time>
      </trkpt>
      <trkpt lat="50.43085" lon="2.90897">
        <ele>21</ele>
        <time>2020-08-28T09:11:21Z</time>
      </trkpt>
      <trkpt lat="50.43087" lon="2.90904">
        <ele>21</ele>
        <time>2020-08-28T09:11:22Z</time>
      </trkpt>
      <trkpt lat="50.43101" lon="2.90922">
        <ele>21</ele>
        <time>2020-08-28T09:11:26Z</time>
      </trkpt>
      <trkpt lat="50.43128" lon="2.90937">
        <ele>21</ele>
        <time>2020-08-28T09:11:33Z</time>
      </trkpt>
      <trkpt lat="50.43151" lon="2.90935">
        <ele>21</ele>
        <time>2020-08-28T09:11:38Z</time>
      </trkpt>
      <trkpt lat="50.43195" lon="2.90906">
        <ele>22</ele>
        <time>2020-08-28T09:11:49Z</time>
      </trkpt>
      <trkpt lat="50.43203" lon="2.90916">
        <ele>22</ele>
        <time>2020-08-28T09:11:52Z</time>
      </trkpt>
      <trkpt lat="50.43207" lon="2.90965">
        <ele>22</ele>
        <time>2020-08-28T09:11:59Z</time>
      </trkpt>
      <trkpt lat="50.43207" lon="2.91011">
        <ele>22</ele>
        <time>2020-08-28T09:12:06Z</time>
      </trkpt>
      <trkpt lat="50.43211" lon="2.9103">
        <ele>22</ele>
        <time>2020-08-28T09:12:09Z</time>
      </trkpt>
      <trkpt lat="50.43221" lon="2.91039">
        <ele>22</ele>
        <time>2020-08-28T09:12:11Z</time>
      </trkpt>
      <trkpt lat="50.43237" lon="2.91044">
        <ele>22</ele>
        <time>2020-08-28T09:12:15Z</time>
      </trkpt>
      <trkpt lat="50.43249" lon="2.91028">
        <ele>23</ele>
        <time>2020-08-28T09:12:19Z</time>
      </trkpt>
      <trkpt lat="50.43293" lon="2.90994">
        <ele>22</ele>
        <time>2020-08-28T09:12:30Z</time>
      </trkpt>
      <trkpt lat="50.43303" lon="2.90962">
        <ele>22</ele>
        <time>2020-08-28T09:12:36Z</time>
      </trkpt>
      <trkpt lat="50.4331" lon="2.90923">
        <ele>22</ele>
        <time>2020-08-28T09:12:42Z</time>
      </trkpt>
      <trkpt lat="50.43302" lon="2.90904">
        <ele>22</ele>
        <time>2020-08-28T09:12:45Z</time>
      </trkpt>
      <trkpt lat="50.43266" lon="2.90846">
        <ele>22</ele>
        <time>2020-08-28T09:12:57Z</time>
      </trkpt>
      <trkpt lat="50.43257" lon="2.90821">
        <ele>22</ele>
        <time>2020-08-28T09:13:01Z</time>
      </trkpt>
      <trkpt lat="50.43243" lon="2.90768">
        <ele>21</ele>
        <time>2020-08-28T09:13:10Z</time>
      </trkpt>
      <trkpt lat="50.43238" lon="2.90731">
        <ele>20</ele>
        <time>2020-08-28T09:13:16Z</time>
      </trkpt>
      <trkpt lat="50.43234" lon="2.90597">
        <ele>19</ele>
        <time>2020-08-28T09:13:36Z</time>
      </trkpt>
      <trkpt lat="50.43235" lon="2.9059">
        <ele>19</ele>
        <time>2020-08-28T09:13:37Z</time>
      </trkpt>
      <trkpt lat="50.43246" lon="2.90573">
        <ele>19</ele>
        <time>2020-08-28T09:13:40Z</time>
      </trkpt>
      <trkpt lat="50.43355" lon="2.90513">
        <ele>20</ele>
        <time>2020-08-28T09:14:07Z</time>
      </trkpt>
      <trkpt lat="50.43373" lon="2.90543">
        <ele>20</ele>
        <time>2020-08-28T09:14:13Z</time>
      </trkpt>
      <trkpt lat="50.43385" lon="2.90539">
        <ele>20</ele>
        <time>2020-08-28T09:14:16Z</time>
      </trkpt>
      <trkpt lat="50.43455" lon="2.90501">
        <ele>20</ele>
        <time>2020-08-28T09:14:34Z</time>
      </trkpt>
      <trkpt lat="50.43472" lon="2.90468">
        <ele>19</ele>
        <time>2020-08-28T09:14:40Z</time>
      </trkpt>
      <trkpt lat="50.43497" lon="2.90449">
        <ele>19</ele>
        <time>2020-08-28T09:14:46Z</time>
      </trkpt>
      <trkpt lat="50.43506" lon="2.90449">
        <ele>19</ele>
        <time>2020-08-28T09:14:48Z</time>
      </trkpt>
      <trkpt lat="50.4352" lon="2.90455">
        <ele>19</ele>
        <time>2020-08-28T09:14:52Z</time>
      </trkpt>
      <trkpt lat="50.43528" lon="2.90455">
        <ele>19</ele>
        <time>2020-08-28T09:14:54Z</time>
      </trkpt>
      <trkpt lat="50.43541" lon="2.90442">
        <ele>19</ele>
        <time>2020-08-28T09:14:57Z</time>
      </trkpt>
      <trkpt lat="50.43543" lon="2.90433">
        <ele>19</ele>
        <time>2020-08-28T09:14:59Z</time>
      </trkpt>
      <trkpt lat="50.43549" lon="2.90426">
        <ele>20</ele>
        <time>2020-08-28T09:15:00Z</time>
      </trkpt>
      <trkpt lat="50.43585" lon="2.90405">
        <ele>20</ele>
        <time>2020-08-28T09:15:09Z</time>
      </trkpt>
      <trkpt lat="50.43611" lon="2.90394">
        <ele>22</ele>
        <time>2020-08-28T09:15:16Z</time>
      </trkpt>
      <trkpt lat="50.43628" lon="2.9039">
        <ele>23</ele>
        <time>2020-08-28T09:15:20Z</time>
      </trkpt>
      <trkpt lat="50.43648" lon="2.9038">
        <ele>24</ele>
        <time>2020-08-28T09:15:25Z</time>
      </trkpt>
      <trkpt lat="50.43652" lon="2.90383">
        <ele>25</ele>
        <time>2020-08-28T09:15:26Z</time>
      </trkpt>
      <trkpt lat="50.43663" lon="2.90429">
        <ele>25</ele>
        <time>2020-08-28T09:15:33Z</time>
      </trkpt>
      <trkpt lat="50.43677" lon="2.90466">
        <ele>25</ele>
        <time>2020-08-28T09:15:39Z</time>
      </trkpt>
      <trkpt lat="50.43688" lon="2.90515">
        <ele>25</ele>
        <time>2020-08-28T09:15:47Z</time>
      </trkpt>
      <trkpt lat="50.43721" lon="2.90633">
        <ele>25</ele>
        <time>2020-08-28T09:16:06Z</time>
      </trkpt>
      <trkpt lat="50.43753" lon="2.90769">
        <ele>26</ele>
        <time>2020-08-28T09:16:28Z</time>
      </trkpt>
      <trkpt lat="50.43775" lon="2.90828">
        <ele>25</ele>
        <time>2020-08-28T09:16:38Z</time>
      </trkpt>
      <trkpt lat="50.43782" lon="2.90833">
        <ele>25</ele>
        <time>2020-08-28T09:16:40Z</time>
      </trkpt>
      <trkpt lat="50.43854" lon="2.9079">
        <ele>26</ele>
        <time>2020-08-28T09:16:58Z</time>
      </trkpt>
      <trkpt lat="50.43894" lon="2.90769">
        <ele>24</ele>
        <time>2020-08-28T09:17:08Z</time>
      </trkpt>
      <trkpt lat="50.43901" lon="2.90762">
        <ele>24</ele>
        <time>2020-08-28T09:17:10Z</time>
      </trkpt>
      <trkpt lat="50.43907" lon="2.90745">
        <ele>24</ele>
        <time>2020-08-28T09:17:12Z</time>
      </trkpt>
      <trkpt lat="50.43908" lon="2.90629">
        <ele>24</ele>
        <time>2020-08-28T09:17:30Z</time>
      </trkpt>
      <trkpt lat="50.43916" lon="2.90503">
        <ele>23</ele>
        <time>2020-08-28T09:17:49Z</time>
      </trkpt>
      <trkpt lat="50.43912" lon="2.90417">
        <ele>24</ele>
        <time>2020-08-28T09:18:01Z</time>
      </trkpt>
      <trkpt lat="50.43913" lon="2.90371">
        <ele>25</ele>
        <time>2020-08-28T09:18:08Z</time>
      </trkpt>
      <trkpt lat="50.43914" lon="2.90348">
        <ele>25</ele>
        <time>2020-08-28T09:18:12Z</time>
      </trkpt>
      <trkpt lat="50.43923" lon="2.90333">
        <ele>25</ele>
        <time>2020-08-28T09:18:15Z</time>
      </trkpt>
      <trkpt lat="50.43943" lon="2.90328">
        <ele>25</ele>
        <time>2020-08-28T09:18:19Z</time>
      </trkpt>
      <trkpt lat="50.4399" lon="2.90332">
        <ele>26</ele>
        <time>2020-08-28T09:18:30Z</time>
      </trkpt>
      <trkpt lat="50.44009" lon="2.9035">
        <ele>25</ele>
        <time>2020-08-28T09:18:36Z</time>
      </trkpt>
      <trkpt lat="50.44024" lon="2.9037">
        <ele>23</ele>
        <time>2020-08-28T09:18:40Z</time>
      </trkpt>
      <trkpt lat="50.44036" lon="2.90377">
        <ele>23</ele>
        <time>2020-08-28T09:18:43Z</time>
      </trkpt>
      <trkpt lat="50.4406" lon="2.90375">
        <ele>23</ele>
        <time>2020-08-28T09:18:49Z</time>
      </trkpt>
      <trkpt lat="50.44074" lon="2.90385">
        <ele>23</ele>
        <time>2020-08-28T09:18:52Z</time>
      </trkpt>
      <trkpt lat="50.44092" lon="2.90497">
        <ele>22</ele>
        <time>2020-08-28T09:19:10Z</time>
      </trkpt>
      <trkpt lat="50.44098" lon="2.90516">
        <ele>22</ele>
        <time>2020-08-28T09:19:13Z</time>
      </trkpt>
      <trkpt lat="50.44114" lon="2.90612">
        <ele>23</ele>
        <time>2020-08-28T09:19:27Z</time>
      </trkpt>
      <trkpt lat="50.44141" lon="2.90748">
        <ele>24</ele>
        <time>2020-08-28T09:19:49Z</time>
      </trkpt>
      <trkpt lat="50.44184" lon="2.90873">
        <ele>27</ele>
        <time>2020-08-28T09:20:10Z</time>
      </trkpt>
      <trkpt lat="50.44206" lon="2.90923">
        <ele>26</ele>
        <time>2020-08-28T09:20:19Z</time>
      </trkpt>
      <trkpt lat="50.44218" lon="2.90958">
        <ele>26</ele>
        <time>2020-08-28T09:20:25Z</time>
      </trkpt>
      <trkpt lat="50.4425" lon="2.91021">
        <ele>26</ele>
        <time>2020-08-28T09:20:37Z</time>
      </trkpt>
      <trkpt lat="50.44333" lon="2.91159">
        <ele>28</ele>
        <time>2020-08-28T09:21:05Z</time>
      </trkpt>
      <trkpt lat="50.44338" lon="2.91169">
        <ele>28</ele>
        <time>2020-08-28T09:21:07Z</time>
      </trkpt>
      <trkpt lat="50.44345" lon="2.91202">
        <ele>27</ele>
        <time>2020-08-28T09:21:12Z</time>
      </trkpt>
      <trkpt lat="50.44334" lon="2.91204">
        <ele>28</ele>
        <time>2020-08-28T09:21:15Z</time>
      </trkpt>
      <trkpt lat="50.44316" lon="2.91161">
        <ele>28</ele>
        <time>2020-08-28T09:21:22Z</time>
      </trkpt>
      <trkpt lat="50.4429" lon="2.9111">
        <ele>28</ele>
        <time>2020-08-28T09:21:32Z</time>
      </trkpt>
      <trkpt lat="50.44232" lon="2.91019">
        <ele>27</ele>
        <time>2020-08-28T09:21:51Z</time>
      </trkpt>
      <trkpt lat="50.44213" lon="2.90971">
        <ele>27</ele>
        <time>2020-08-28T09:22:00Z</time>
      </trkpt>
      <trkpt lat="50.44209" lon="2.90968">
        <ele>27</ele>
        <time>2020-08-28T09:22:01Z</time>
      </trkpt>
      <trkpt lat="50.44191" lon="2.90966">
        <ele>28</ele>
        <time>2020-08-28T09:22:05Z</time>
      </trkpt>
      <trkpt lat="50.44165" lon="2.90975">
        <ele>30</ele>
        <time>2020-08-28T09:22:11Z</time>
      </trkpt>
      <trkpt lat="50.44152" lon="2.90976">
        <ele>30</ele>
        <time>2020-08-28T09:22:14Z</time>
      </trkpt>
      <trkpt lat="50.44145" lon="2.90959">
        <ele>30</ele>
        <time>2020-08-28T09:22:17Z</time>
      </trkpt>
      <trkpt lat="50.44148" lon="2.90942">
        <ele>29</ele>
        <time>2020-08-28T09:22:20Z</time>
      </trkpt>
      <trkpt lat="50.44144" lon="2.90912">
        <ele>29</ele>
        <time>2020-08-28T09:22:24Z</time>
      </trkpt>
      <trkpt lat="50.44137" lon="2.90907">
        <ele>28</ele>
        <time>2020-08-28T09:22:26Z</time>
      </trkpt>
      <trkpt lat="50.44126" lon="2.9089">
        <ele>28</ele>
        <time>2020-08-28T09:22:30Z</time>
      </trkpt>
      <trkpt lat="50.4411" lon="2.90842">
        <ele>26</ele>
        <time>2020-08-28T09:22:38Z</time>
      </trkpt>
      <trkpt lat="50.44103" lon="2.90835">
        <ele>26</ele>
        <time>2020-08-28T09:22:40Z</time>
      </trkpt>
      <trkpt lat="50.44098" lon="2.9084">
        <ele>26</ele>
        <time>2020-08-28T09:22:41Z</time>
      </trkpt>
      <trkpt lat="50.44097" lon="2.90847">
        <ele>26</ele>
        <time>2020-08-28T09:22:42Z</time>
      </trkpt>
      <trkpt lat="50.441" lon="2.90868">
        <ele>27</ele>
        <time>2020-08-28T09:22:45Z</time>
      </trkpt>
      <trkpt lat="50.44106" lon="2.90896">
        <ele>28</ele>
        <time>2020-08-28T09:22:50Z</time>
      </trkpt>
      <trkpt lat="50.44119" lon="2.90936">
        <ele>29</ele>
        <time>2020-08-28T09:22:56Z</time>
      </trkpt>
      <trkpt lat="50.44117" lon="2.9095">
        <ele>29</ele>
        <time>2020-08-28T09:22:58Z</time>
      </trkpt>
      <trkpt lat="50.44112" lon="2.90963">
        <ele>29</ele>
        <time>2020-08-28T09:23:01Z</time>
      </trkpt>
      <trkpt lat="50.44109" lon="2.90962">
        <ele>29</ele>
        <time>2020-08-28T09:23:01Z</time>
      </trkpt>
      <trkpt lat="50.44105" lon="2.90952">
        <ele>29</ele>
        <time>2020-08-28T09:23:03Z</time>
      </trkpt>
      <trkpt lat="50.44094" lon="2.90951">
        <ele>29</ele>
        <time>2020-08-28T09:23:06Z</time>
      </trkpt>
      <trkpt lat="50.44091" lon="2.90953">
        <ele>29</ele>
        <time>2020-08-28T09:23:07Z</time>
      </trkpt>
      <trkpt lat="50.44088" lon="2.90964">
        <ele>29</ele>
        <time>2020-08-28T09:23:08Z</time>
      </trkpt>
      <trkpt lat="50.44092" lon="2.9098">
        <ele>29</ele>
        <time>2020-08-28T09:23:11Z</time>
      </trkpt>
      <trkpt lat="50.44102" lon="2.91">
        <ele>29</ele>
        <time>2020-08-28T09:23:15Z</time>
      </trkpt>
      <trkpt lat="50.44113" lon="2.91031">
        <ele>29</ele>
        <time>2020-08-28T09:23:20Z</time>
      </trkpt>
      <trkpt lat="50.44094" lon="2.91011">
        <ele>29</ele>
        <time>2020-08-28T09:23:25Z</time>
      </trkpt>
      <trkpt lat="50.44087" lon="2.90995">
        <ele>29</ele>
        <time>2020-08-28T09:23:28Z</time>
      </trkpt>
      <trkpt lat="50.4407" lon="2.90969">
        <ele>28</ele>
        <time>2020-08-28T09:23:34Z</time>
      </trkpt>
      <trkpt lat="50.44048" lon="2.90947">
        <ele>27</ele>
        <time>2020-08-28T09:23:40Z</time>
      </trkpt>
      <trkpt lat="50.44022" lon="2.9089">
        <ele>25</ele>
        <time>2020-08-28T09:23:50Z</time>
      </trkpt>
      <trkpt lat="50.44012" lon="2.90883">
        <ele>25</ele>
        <time>2020-08-28T09:23:53Z</time>
      </trkpt>
      <trkpt lat="50.44008" lon="2.90883">
        <ele>24</ele>
        <time>2020-08-28T09:23:54Z</time>
      </trkpt>
      <trkpt lat="50.43999" lon="2.90891">
        <ele>24</ele>
        <time>2020-08-28T09:23:56Z</time>
      </trkpt>
      <trkpt lat="50.43998" lon="2.90916">
        <ele>25</ele>
        <time>2020-08-28T09:24:00Z</time>
      </trkpt>
      <trkpt lat="50.44007" lon="2.90959">
        <ele>26</ele>
        <time>2020-08-28T09:24:07Z</time>
      </trkpt>
      <trkpt lat="50.4402" lon="2.90985">
        <ele>27</ele>
        <time>2020-08-28T09:24:12Z</time>
      </trkpt>
      <trkpt lat="50.44026" lon="2.90986">
        <ele>27</ele>
        <time>2020-08-28T09:24:13Z</time>
      </trkpt>
      <trkpt lat="50.44029" lon="2.9102">
        <ele>27</ele>
        <time>2020-08-28T09:24:18Z</time>
      </trkpt>
      <trkpt lat="50.44026" lon="2.9105">
        <ele>27</ele>
        <time>2020-08-28T09:24:23Z</time>
      </trkpt>
      <trkpt lat="50.44022" lon="2.91071">
        <ele>27</ele>
        <time>2020-08-28T09:24:26Z</time>
      </trkpt>
      <trkpt lat="50.43984" lon="2.91074">
        <ele>26</ele>
        <time>2020-08-28T09:24:35Z</time>
      </trkpt>
      <trkpt lat="50.43977" lon="2.91078">
        <ele>26</ele>
        <time>2020-08-28T09:24:36Z</time>
      </trkpt>
      <trkpt lat="50.43965" lon="2.91097">
        <ele>26</ele>
        <time>2020-08-28T09:24:40Z</time>
      </trkpt>
      <trkpt lat="50.43961" lon="2.91118">
        <ele>26</ele>
        <time>2020-08-28T09:24:44Z</time>
      </trkpt>
      <trkpt lat="50.43967" lon="2.91142">
        <ele>26</ele>
        <time>2020-08-28T09:24:48Z</time>
      </trkpt>
      <trkpt lat="50.43972" lon="2.91151">
        <ele>25</ele>
        <time>2020-08-28T09:24:49Z</time>
      </trkpt>
      <trkpt lat="50.43978" lon="2.91178">
        <ele>26</ele>
        <time>2020-08-28T09:24:54Z</time>
      </trkpt>
      <trkpt lat="50.4399" lon="2.9121">
        <ele>26</ele>
        <time>2020-08-28T09:24:59Z</time>
      </trkpt>
      <trkpt lat="50.43997" lon="2.91216">
        <ele>26</ele>
        <time>2020-08-28T09:25:01Z</time>
      </trkpt>
      <trkpt lat="50.44036" lon="2.91202">
        <ele>26</ele>
        <time>2020-08-28T09:25:10Z</time>
      </trkpt>
      <trkpt lat="50.44041" lon="2.91204">
        <ele>26</ele>
        <time>2020-08-28T09:25:11Z</time>
      </trkpt>
      <trkpt lat="50.44062" lon="2.91235">
        <ele>27</ele>
        <time>2020-08-28T09:25:18Z</time>
      </trkpt>
      <trkpt lat="50.44068" lon="2.91256">
        <ele>28</ele>
        <time>2020-08-28T09:25:22Z</time>
      </trkpt>
      <trkpt lat="50.44067" lon="2.91268">
        <ele>27</ele>
        <time>2020-08-28T09:25:23Z</time>
      </trkpt>
      <trkpt lat="50.44054" lon="2.91296">
        <ele>26</ele>
        <time>2020-08-28T09:25:29Z</time>
      </trkpt>
      <trkpt lat="50.44049" lon="2.91301">
        <ele>26</ele>
        <time>2020-08-28T09:25:30Z</time>
      </trkpt>
      <trkpt lat="50.44042" lon="2.91305">
        <ele>26</ele>
        <time>2020-08-28T09:25:32Z</time>
      </trkpt>
      <trkpt lat="50.44031" lon="2.91307">
        <ele>26</ele>
        <time>2020-08-28T09:25:34Z</time>
      </trkpt>
      <trkpt lat="50.44024" lon="2.91317">
        <ele>26</ele>
        <time>2020-08-28T09:25:37Z</time>
      </trkpt>
      <trkpt lat="50.44011" lon="2.9132">
        <ele>25</ele>
        <time>2020-08-28T09:25:40Z</time>
      </trkpt>
      <trkpt lat="50.43997" lon="2.91342">
        <ele>25</ele>
        <time>2020-08-28T09:25:44Z</time>
      </trkpt>
      <trkpt lat="50.43992" lon="2.91346">
        <ele>25</ele>
        <time>2020-08-28T09:25:46Z</time>
      </trkpt>
      <trkpt lat="50.43987" lon="2.91384">
        <ele>24</ele>
        <time>2020-08-28T09:25:51Z</time>
      </trkpt>
      <trkpt lat="50.4395" lon="2.91417">
        <ele>25</ele>
        <time>2020-08-28T09:26:01Z</time>
      </trkpt>
      <trkpt lat="50.43941" lon="2.91412">
        <ele>26</ele>
        <time>2020-08-28T09:26:03Z</time>
      </trkpt>
      <trkpt lat="50.43935" lon="2.91369">
        <ele>27</ele>
        <time>2020-08-28T09:26:10Z</time>
      </trkpt>
      <trkpt lat="50.43924" lon="2.91344">
        <ele>28</ele>
        <time>2020-08-28T09:26:15Z</time>
      </trkpt>
      <trkpt lat="50.4392" lon="2.91344">
        <ele>29</ele>
        <time>2020-08-28T09:26:15Z</time>
      </trkpt>
      <trkpt lat="50.43918" lon="2.91347">
        <ele>29</ele>
        <time>2020-08-28T09:26:16Z</time>
      </trkpt>
      <trkpt lat="50.43911" lon="2.91365">
        <ele>29</ele>
        <time>2020-08-28T09:26:19Z</time>
      </trkpt>
      <trkpt lat="50.43915" lon="2.91411">
        <ele>27</ele>
        <time>2020-08-28T09:26:26Z</time>
      </trkpt>
      <trkpt lat="50.43909" lon="2.91438">
        <ele>28</ele>
        <time>2020-08-28T09:26:30Z</time>
      </trkpt>
      <trkpt lat="50.43918" lon="2.91472">
        <ele>26</ele>
        <time>2020-08-28T09:26:36Z</time>
      </trkpt>
      <trkpt lat="50.43926" lon="2.91484">
        <ele>25</ele>
        <time>2020-08-28T09:26:38Z</time>
      </trkpt>
      <trkpt lat="50.43967" lon="2.91434">
        <ele>24</ele>
        <time>2020-08-28T09:26:51Z</time>
      </trkpt>
      <trkpt lat="50.43988" lon="2.91415">
        <ele>24</ele>
        <time>2020-08-28T09:26:56Z</time>
      </trkpt>
      <trkpt lat="50.44018" lon="2.914">
        <ele>23</ele>
        <time>2020-08-28T09:27:04Z</time>
      </trkpt>
      <trkpt lat="50.44041" lon="2.91394">
        <ele>24</ele>
        <time>2020-08-28T09:27:09Z</time>
      </trkpt>
      <trkpt lat="50.44043" lon="2.91413">
        <ele>23</ele>
        <time>2020-08-28T09:27:12Z</time>
      </trkpt>
      <trkpt lat="50.44038" lon="2.91467">
        <ele>23</ele>
        <time>2020-08-28T09:27:20Z</time>
      </trkpt>
      <trkpt lat="50.44037" lon="2.9153">
        <ele>23</ele>
        <time>2020-08-28T09:27:29Z</time>
      </trkpt>
      <trkpt lat="50.44023" lon="2.9155">
        <ele>23</ele>
        <time>2020-08-28T09:27:34Z</time>
      </trkpt>
      <trkpt lat="50.44013" lon="2.91584">
        <ele>24</ele>
        <time>2020-08-28T09:27:39Z</time>
      </trkpt>
      <trkpt lat="50.44006" lon="2.9159">
        <ele>24</ele>
        <time>2020-08-28T09:27:41Z</time>
      </trkpt>
      <trkpt lat="50.44003" lon="2.91589">
        <ele>24</ele>
        <time>2020-08-28T09:27:42Z</time>
      </trkpt>
      <trkpt lat="50.43973" lon="2.91559">
        <ele>24</ele>
        <time>2020-08-28T09:27:50Z</time>
      </trkpt>
      <trkpt lat="50.43954" lon="2.91544">
        <ele>24</ele>
        <time>2020-08-28T09:27:55Z</time>
      </trkpt>
      <trkpt lat="50.43933" lon="2.9157">
        <ele>25</ele>
        <time>2020-08-28T09:28:01Z</time>
      </trkpt>
      <trkpt lat="50.4393" lon="2.91581">
        <ele>25</ele>
        <time>2020-08-28T09:28:03Z</time>
      </trkpt>
      <trkpt lat="50.43931" lon="2.91608">
        <ele>24</ele>
        <time>2020-08-28T09:28:07Z</time>
      </trkpt>
      <trkpt lat="50.43925" lon="2.91745">
        <ele>23</ele>
        <time>2020-08-28T09:28:28Z</time>
      </trkpt>
      <trkpt lat="50.43926" lon="2.91762">
        <ele>23</ele>
        <time>2020-08-28T09:28:30Z</time>
      </trkpt>
      <trkpt lat="50.43939" lon="2.91764">
        <ele>24</ele>
        <time>2020-08-28T09:28:33Z</time>
      </trkpt>
      <trkpt lat="50.43958" lon="2.91758">
        <ele>24</ele>
        <time>2020-08-28T09:28:38Z</time>
      </trkpt>
      <trkpt lat="50.43973" lon="2.91739">
        <ele>25</ele>
        <time>2020-08-28T09:28:42Z</time>
      </trkpt>
      <trkpt lat="50.44003" lon="2.91692">
        <ele>25</ele>
        <time>2020-08-28T09:28:52Z</time>
      </trkpt>
      <trkpt lat="50.44026" lon="2.91664">
        <ele>24</ele>
        <time>2020-08-28T09:28:59Z</time>
      </trkpt>
      <trkpt lat="50.44051" lon="2.91642">
        <ele>24</ele>
        <time>2020-08-28T09:29:06Z</time>
      </trkpt>
      <trkpt lat="50.44063" lon="2.91615">
        <ele>24</ele>
        <time>2020-08-28T09:29:11Z</time>
      </trkpt>
      <trkpt lat="50.44062" lon="2.91585">
        <ele>23</ele>
        <time>2020-08-28T09:29:15Z</time>
      </trkpt>
      <trkpt lat="50.44067" lon="2.91575">
        <ele>23</ele>
        <time>2020-08-28T09:29:17Z</time>
      </trkpt>
      <trkpt lat="50.44099" lon="2.91559">
        <ele>23</ele>
        <time>2020-08-28T09:29:25Z</time>
      </trkpt>
      <trkpt lat="50.44127" lon="2.91551">
        <ele>23</ele>
        <time>2020-08-28T09:29:31Z</time>
      </trkpt>
      <trkpt lat="50.44164" lon="2.91584">
        <ele>24</ele>
        <time>2020-08-28T09:29:41Z</time>
      </trkpt>
      <trkpt lat="50.4419" lon="2.91579">
        <ele>24</ele>
        <time>2020-08-28T09:29:48Z</time>
      </trkpt>
      <trkpt lat="50.44213" lon="2.91579">
        <ele>23</ele>
        <time>2020-08-28T09:29:53Z</time>
      </trkpt>
      <trkpt lat="50.44247" lon="2.91586">
        <ele>23</ele>
        <time>2020-08-28T09:30:01Z</time>
      </trkpt>
      <trkpt lat="50.44273" lon="2.91577">
        <ele>23</ele>
        <time>2020-08-28T09:30:07Z</time>
      </trkpt>
      <trkpt lat="50.44286" lon="2.91563">
        <ele>23</ele>
        <time>2020-08-28T09:30:11Z</time>
      </trkpt>
      <trkpt lat="50.44299" lon="2.91559">
        <ele>22</ele>
        <time>2020-08-28T09:30:14Z</time>
      </trkpt>
      <trkpt lat="50.44321" lon="2.91566">
        <ele>23</ele>
        <time>2020-08-28T09:30:19Z</time>
      </trkpt>
      <trkpt lat="50.44414" lon="2.91628">
        <ele>25</ele>
        <time>2020-08-28T09:30:43Z</time>
      </trkpt>
      <trkpt lat="50.44445" lon="2.91646">
        <ele>26</ele>
        <time>2020-08-28T09:30:50Z</time>
      </trkpt>
      <trkpt lat="50.44457" lon="2.91649">
        <ele>26</ele>
        <time>2020-08-28T09:30:53Z</time>
      </trkpt>
      <trkpt lat="50.44468" lon="2.91644">
        <ele>26</ele>
        <time>2020-08-28T09:30:56Z</time>
      </trkpt>
      <trkpt lat="50.44475" lon="2.91636">
        <ele>25</ele>
        <time>2020-08-28T09:30:58Z</time>
      </trkpt>
      <trkpt lat="50.44479" lon="2.91627">
        <ele>25</ele>
        <time>2020-08-28T09:31:00Z</time>
      </trkpt>
      <trkpt lat="50.44475" lon="2.91562">
        <ele>24</ele>
        <time>2020-08-28T09:31:09Z</time>
      </trkpt>
      <trkpt lat="50.44458" lon="2.91516">
        <ele>24</ele>
        <time>2020-08-28T09:31:17Z</time>
      </trkpt>
      <trkpt lat="50.44422" lon="2.91478">
        <ele>24</ele>
        <time>2020-08-28T09:31:27Z</time>
      </trkpt>
      <trkpt lat="50.44405" lon="2.91421">
        <ele>24</ele>
        <time>2020-08-28T09:31:37Z</time>
      </trkpt>
      <trkpt lat="50.44401" lon="2.91382">
        <ele>24</ele>
        <time>2020-08-28T09:31:43Z</time>
      </trkpt>
      <trkpt lat="50.44408" lon="2.91367">
        <ele>25</ele>
        <time>2020-08-28T09:31:45Z</time>
      </trkpt>
      <trkpt lat="50.44413" lon="2.91366">
        <ele>25</ele>
        <time>2020-08-28T09:31:47Z</time>
      </trkpt>
      <trkpt lat="50.44421" lon="2.91371">
        <ele>25</ele>
        <time>2020-08-28T09:31:49Z</time>
      </trkpt>
      <trkpt lat="50.44542" lon="2.91562">
        <ele>25</ele>
        <time>2020-08-28T09:32:29Z</time>
      </trkpt>
      <trkpt lat="50.44557" lon="2.91572">
        <ele>25</ele>
        <time>2020-08-28T09:32:32Z</time>
      </trkpt>
      <trkpt lat="50.44573" lon="2.91577">
        <ele>25</ele>
        <time>2020-08-28T09:32:36Z</time>
      </trkpt>
      <trkpt lat="50.44595" lon="2.91597">
        <ele>25</ele>
        <time>2020-08-28T09:32:42Z</time>
      </trkpt>
      <trkpt lat="50.44658" lon="2.91691">
        <ele>26</ele>
        <time>2020-08-28T09:33:02Z</time>
      </trkpt>
      <trkpt lat="50.44674" lon="2.91712">
        <ele>27</ele>
        <time>2020-08-28T09:33:07Z</time>
      </trkpt>
      <trkpt lat="50.44694" lon="2.91728">
        <ele>27</ele>
        <time>2020-08-28T09:33:13Z</time>
      </trkpt>
      <trkpt lat="50.44701" lon="2.91737">
        <ele>27</ele>
        <time>2020-08-28T09:33:15Z</time>
      </trkpt>
      <trkpt lat="50.44699" lon="2.91754">
        <ele>27</ele>
        <time>2020-08-28T09:33:17Z</time>
      </trkpt>
      <trkpt lat="50.44708" lon="2.9177">
        <ele>27</ele>
        <time>2020-08-28T09:33:20Z</time>
      </trkpt>
      <trkpt lat="50.44817" lon="2.91933">
        <ele>26</ele>
        <time>2020-08-28T09:33:56Z</time>
      </trkpt>
      <trkpt lat="50.44817" lon="2.91949">
        <ele>26</ele>
        <time>2020-08-28T09:33:58Z</time>
      </trkpt>
      <trkpt lat="50.4481" lon="2.91967">
        <ele>26</ele>
        <time>2020-08-28T09:34:01Z</time>
      </trkpt>
      <trkpt lat="50.44784" lon="2.92">
        <ele>26</ele>
        <time>2020-08-28T09:34:09Z</time>
      </trkpt>
      <trkpt lat="50.44781" lon="2.92002">
        <ele>26</ele>
        <time>2020-08-28T09:34:10Z</time>
      </trkpt>
      <trkpt lat="50.44773" lon="2.91997">
        <ele>26</ele>
        <time>2020-08-28T09:34:12Z</time>
      </trkpt>
      <trkpt lat="50.44766" lon="2.91971">
        <ele>26</ele>
        <time>2020-08-28T09:34:16Z</time>
      </trkpt>
      <trkpt lat="50.44756" lon="2.91968">
        <ele>26</ele>
        <time>2020-08-28T09:34:18Z</time>
      </trkpt>
      <trkpt lat="50.44753" lon="2.91969">
        <ele>26</ele>
        <time>2020-08-28T09:34:19Z</time>
      </trkpt>
      <trkpt lat="50.44737" lon="2.9199">
        <ele>26</ele>
        <time>2020-08-28T09:34:24Z</time>
      </trkpt>
      <trkpt lat="50.44721" lon="2.91998">
        <ele>27</ele>
        <time>2020-08-28T09:34:28Z</time>
      </trkpt>
      <trkpt lat="50.44706" lon="2.92014">
        <ele>28</ele>
        <time>2020-08-28T09:34:32Z</time>
      </trkpt>
      <trkpt lat="50.44709" lon="2.92047">
        <ele>27</ele>
        <time>2020-08-28T09:34:37Z</time>
      </trkpt>
      <trkpt lat="50.44706" lon="2.92065">
        <ele>27</ele>
        <time>2020-08-28T09:34:40Z</time>
      </trkpt>
      <trkpt lat="50.44708" lon="2.92088">
        <ele>27</ele>
        <time>2020-08-28T09:34:43Z</time>
      </trkpt>
      <trkpt lat="50.44705" lon="2.92105">
        <ele>27</ele>
        <time>2020-08-28T09:34:46Z</time>
      </trkpt>
      <trkpt lat="50.44716" lon="2.92117">
        <ele>27</ele>
        <time>2020-08-28T09:34:49Z</time>
      </trkpt>
      <trkpt lat="50.44719" lon="2.92138">
        <ele>27</ele>
        <time>2020-08-28T09:34:52Z</time>
      </trkpt>
      <trkpt lat="50.44716" lon="2.92156">
        <ele>28</ele>
        <time>2020-08-28T09:34:55Z</time>
      </trkpt>
      <trkpt lat="50.44717" lon="2.92179">
        <ele>28</ele>
        <time>2020-08-28T09:34:58Z</time>
      </trkpt>
      <trkpt lat="50.4472" lon="2.92196">
        <ele>28</ele>
        <time>2020-08-28T09:35:01Z</time>
      </trkpt>
      <trkpt lat="50.44719" lon="2.92212">
        <ele>28</ele>
        <time>2020-08-28T09:35:03Z</time>
      </trkpt>
      <trkpt lat="50.44722" lon="2.9222">
        <ele>28</ele>
        <time>2020-08-28T09:35:05Z</time>
      </trkpt>
      <trkpt lat="50.44742" lon="2.92233">
        <ele>28</ele>
        <time>2020-08-28T09:35:10Z</time>
      </trkpt>
      <trkpt lat="50.44748" lon="2.9224">
        <ele>28</ele>
        <time>2020-08-28T09:35:11Z</time>
      </trkpt>
      <trkpt lat="50.44765" lon="2.92252">
        <ele>28</ele>
        <time>2020-08-28T09:35:16Z</time>
      </trkpt>
      <trkpt lat="50.44767" lon="2.92251">
        <ele>28</ele>
        <time>2020-08-28T09:35:16Z</time>
      </trkpt>
      <trkpt lat="50.44771" lon="2.92234">
        <ele>28</ele>
        <time>2020-08-28T09:35:19Z</time>
      </trkpt>
      <trkpt lat="50.4477" lon="2.92196">
        <ele>27</ele>
        <time>2020-08-28T09:35:25Z</time>
      </trkpt>
      <trkpt lat="50.44778" lon="2.9217">
        <ele>27</ele>
        <time>2020-08-28T09:35:29Z</time>
      </trkpt>
      <trkpt lat="50.44793" lon="2.9216">
        <ele>27</ele>
        <time>2020-08-28T09:35:33Z</time>
      </trkpt>
      <trkpt lat="50.44816" lon="2.92154">
        <ele>27</ele>
        <time>2020-08-28T09:35:38Z</time>
      </trkpt>
      <trkpt lat="50.44828" lon="2.92147">
        <ele>27</ele>
        <time>2020-08-28T09:35:41Z</time>
      </trkpt>
      <trkpt lat="50.44852" lon="2.9214">
        <ele>26</ele>
        <time>2020-08-28T09:35:47Z</time>
      </trkpt>
      <trkpt lat="50.4489" lon="2.92133">
        <ele>26</ele>
        <time>2020-08-28T09:35:56Z</time>
      </trkpt>
      <trkpt lat="50.44903" lon="2.92134">
        <ele>25</ele>
        <time>2020-08-28T09:35:59Z</time>
      </trkpt>
      <trkpt lat="50.44935" lon="2.92144">
        <ele>25</ele>
        <time>2020-08-28T09:36:07Z</time>
      </trkpt>
      <trkpt lat="50.4494" lon="2.92148">
        <ele>25</ele>
        <time>2020-08-28T09:36:08Z</time>
      </trkpt>
      <trkpt lat="50.44951" lon="2.92166">
        <ele>25</ele>
        <time>2020-08-28T09:36:12Z</time>
      </trkpt>
      <trkpt lat="50.44956" lon="2.92198">
        <ele>25</ele>
        <time>2020-08-28T09:36:16Z</time>
      </trkpt>
      <trkpt lat="50.44947" lon="2.92205">
        <ele>25</ele>
        <time>2020-08-28T09:36:19Z</time>
      </trkpt>
      <trkpt lat="50.44941" lon="2.92203">
        <ele>25</ele>
        <time>2020-08-28T09:36:20Z</time>
      </trkpt>
      <trkpt lat="50.44922" lon="2.92213">
        <ele>25</ele>
        <time>2020-08-28T09:36:25Z</time>
      </trkpt>
      <trkpt lat="50.44905" lon="2.92232">
        <ele>26</ele>
        <time>2020-08-28T09:36:30Z</time>
      </trkpt>
      <trkpt lat="50.449" lon="2.92242">
        <ele>26</ele>
        <time>2020-08-28T09:36:32Z</time>
      </trkpt>
      <trkpt lat="50.44891" lon="2.92275">
        <ele>26</ele>
        <time>2020-08-28T09:36:37Z</time>
      </trkpt>
      <trkpt lat="50.4488" lon="2.92286">
        <ele>26</ele>
        <time>2020-08-28T09:36:40Z</time>
      </trkpt>
      <trkpt lat="50.44855" lon="2.92287">
        <ele>27</ele>
        <time>2020-08-28T09:36:46Z</time>
      </trkpt>
      <trkpt lat="50.44836" lon="2.92293">
        <ele>28</ele>
        <time>2020-08-28T09:36:50Z</time>
      </trkpt>
      <trkpt lat="50.44827" lon="2.92308">
        <ele>28</ele>
        <time>2020-08-28T09:36:53Z</time>
      </trkpt>
      <trkpt lat="50.44826" lon="2.92315">
        <ele>28</ele>
        <time>2020-08-28T09:36:55Z</time>
      </trkpt>
      <trkpt lat="50.4483" lon="2.92332">
        <ele>28</ele>
        <time>2020-08-28T09:36:57Z</time>
      </trkpt>
      <trkpt lat="50.44873" lon="2.92407">
        <ele>28</ele>
        <time>2020-08-28T09:37:12Z</time>
      </trkpt>
      <trkpt lat="50.44912" lon="2.92503">
        <ele>26</ele>
        <time>2020-08-28T09:37:29Z</time>
      </trkpt>
      <trkpt lat="50.44929" lon="2.92536">
        <ele>27</ele>
        <time>2020-08-28T09:37:35Z</time>
      </trkpt>
      <trkpt lat="50.44944" lon="2.92548">
        <ele>27</ele>
        <time>2020-08-28T09:37:39Z</time>
      </trkpt>
      <trkpt lat="50.44969" lon="2.92579">
        <ele>29</ele>
        <time>2020-08-28T09:37:47Z</time>
      </trkpt>
      <trkpt lat="50.44991" lon="2.92596">
        <ele>29</ele>
        <time>2020-08-28T09:37:53Z</time>
      </trkpt>
      <trkpt lat="50.45021" lon="2.92596">
        <ele>29</ele>
        <time>2020-08-28T09:38:00Z</time>
      </trkpt>
      <trkpt lat="50.45024" lon="2.92594">
        <ele>29</ele>
        <time>2020-08-28T09:38:00Z</time>
      </trkpt>
      <trkpt lat="50.45025" lon="2.92583">
        <ele>29</ele>
        <time>2020-08-28T09:38:02Z</time>
      </trkpt>
      <trkpt lat="50.45009" lon="2.92564">
        <ele>28</ele>
        <time>2020-08-28T09:38:07Z</time>
      </trkpt>
      <trkpt lat="50.45003" lon="2.92533">
        <ele>28</ele>
        <time>2020-08-28T09:38:12Z</time>
      </trkpt>
      <trkpt lat="50.45012" lon="2.92508">
        <ele>27</ele>
        <time>2020-08-28T09:38:16Z</time>
      </trkpt>
      <trkpt lat="50.45025" lon="2.925">
        <ele>27</ele>
        <time>2020-08-28T09:38:19Z</time>
      </trkpt>
      <trkpt lat="50.45061" lon="2.92495">
        <ele>28</ele>
        <time>2020-08-28T09:38:27Z</time>
      </trkpt>
      <trkpt lat="50.4508" lon="2.92473">
        <ele>27</ele>
        <time>2020-08-28T09:38:33Z</time>
      </trkpt>
      <trkpt lat="50.45088" lon="2.92392">
        <ele>24</ele>
        <time>2020-08-28T09:38:45Z</time>
      </trkpt>
      <trkpt lat="50.45085" lon="2.92356">
        <ele>23</ele>
        <time>2020-08-28T09:38:51Z</time>
      </trkpt>
      <trkpt lat="50.4509" lon="2.92343">
        <ele>22</ele>
        <time>2020-08-28T09:38:53Z</time>
      </trkpt>
      <trkpt lat="50.45095" lon="2.92344">
        <ele>22</ele>
        <time>2020-08-28T09:38:54Z</time>
      </trkpt>
      <trkpt lat="50.4512" lon="2.92355">
        <ele>23</ele>
        <time>2020-08-28T09:39:00Z</time>
      </trkpt>
      <trkpt lat="50.45136" lon="2.92368">
        <ele>24</ele>
        <time>2020-08-28T09:39:04Z</time>
      </trkpt>
      <trkpt lat="50.45146" lon="2.92424">
        <ele>26</ele>
        <time>2020-08-28T09:39:13Z</time>
      </trkpt>
      <trkpt lat="50.4515" lon="2.92426">
        <ele>26</ele>
        <time>2020-08-28T09:39:14Z</time>
      </trkpt>
      <trkpt lat="50.45174" lon="2.92459">
        <ele>26</ele>
        <time>2020-08-28T09:39:21Z</time>
      </trkpt>
      <trkpt lat="50.45201" lon="2.9249">
        <ele>25</ele>
        <time>2020-08-28T09:39:29Z</time>
      </trkpt>
      <trkpt lat="50.45281" lon="2.92629">
        <ele>23</ele>
        <time>2020-08-28T09:39:57Z</time>
      </trkpt>
      <trkpt lat="50.45289" lon="2.9263">
        <ele>23</ele>
        <time>2020-08-28T09:39:59Z</time>
      </trkpt>
      <trkpt lat="50.45301" lon="2.9264">
        <ele>23</ele>
        <time>2020-08-28T09:40:02Z</time>
      </trkpt>
      <trkpt lat="50.45317" lon="2.92663">
        <ele>23</ele>
        <time>2020-08-28T09:40:07Z</time>
      </trkpt>
      <trkpt lat="50.4532" lon="2.92687">
        <ele>23</ele>
        <time>2020-08-28T09:40:11Z</time>
      </trkpt>
      <trkpt lat="50.45317" lon="2.92699">
        <ele>23</ele>
        <time>2020-08-28T09:40:13Z</time>
      </trkpt>
      <trkpt lat="50.45317" lon="2.92724">
        <ele>23</ele>
        <time>2020-08-28T09:40:16Z</time>
      </trkpt>
      <trkpt lat="50.45349" lon="2.9283">
        <ele>24</ele>
        <time>2020-08-28T09:40:34Z</time>
      </trkpt>
      <trkpt lat="50.45369" lon="2.92916">
        <ele>25</ele>
        <time>2020-08-28T09:40:47Z</time>
      </trkpt>
      <trkpt lat="50.45369" lon="2.92929">
        <ele>25</ele>
        <time>2020-08-28T09:40:49Z</time>
      </trkpt>
      <trkpt lat="50.45362" lon="2.92941">
        <ele>26</ele>
        <time>2020-08-28T09:40:52Z</time>
      </trkpt>
      <trkpt lat="50.45351" lon="2.92952">
        <ele>27</ele>
        <time>2020-08-28T09:40:55Z</time>
      </trkpt>
      <trkpt lat="50.45355" lon="2.92961">
        <ele>27</ele>
        <time>2020-08-28T09:40:57Z</time>
      </trkpt>
      <trkpt lat="50.45366" lon="2.92967">
        <ele>26</ele>
        <time>2020-08-28T09:40:59Z</time>
      </trkpt>
      <trkpt lat="50.45375" lon="2.92967">
        <ele>26</ele>
        <time>2020-08-28T09:41:01Z</time>
      </trkpt>
      <trkpt lat="50.45387" lon="2.92962">
        <ele>25</ele>
        <time>2020-08-28T09:41:04Z</time>
      </trkpt>
      <trkpt lat="50.45407" lon="2.92939">
        <ele>24</ele>
        <time>2020-08-28T09:41:10Z</time>
      </trkpt>
      <trkpt lat="50.45413" lon="2.92938">
        <ele>24</ele>
        <time>2020-08-28T09:41:11Z</time>
      </trkpt>
      <trkpt lat="50.45416" lon="2.9294">
        <ele>24</ele>
        <time>2020-08-28T09:41:12Z</time>
      </trkpt>
      <trkpt lat="50.45422" lon="2.9296">
        <ele>24</ele>
        <time>2020-08-28T09:41:15Z</time>
      </trkpt>
      <trkpt lat="50.45469" lon="2.93073">
        <ele>25</ele>
        <time>2020-08-28T09:41:36Z</time>
      </trkpt>
      <trkpt lat="50.45467" lon="2.93102">
        <ele>25</ele>
        <time>2020-08-28T09:41:40Z</time>
      </trkpt>
      <trkpt lat="50.4546" lon="2.93111">
        <ele>25</ele>
        <time>2020-08-28T09:41:42Z</time>
      </trkpt>
      <trkpt lat="50.45459" lon="2.9312">
        <ele>25</ele>
        <time>2020-08-28T09:41:43Z</time>
      </trkpt>
      <trkpt lat="50.45462" lon="2.93131">
        <ele>25</ele>
        <time>2020-08-28T09:41:45Z</time>
      </trkpt>
      <trkpt lat="50.45466" lon="2.93133">
        <ele>25</ele>
        <time>2020-08-28T09:41:46Z</time>
      </trkpt>
      <trkpt lat="50.4547" lon="2.9314">
        <ele>25</ele>
        <time>2020-08-28T09:41:48Z</time>
      </trkpt>
      <trkpt lat="50.45464" lon="2.93169">
        <ele>25</ele>
        <time>2020-08-28T09:41:52Z</time>
      </trkpt>
      <trkpt lat="50.45462" lon="2.9317">
        <ele>25</ele>
        <time>2020-08-28T09:41:53Z</time>
      </trkpt>
      <trkpt lat="50.45455" lon="2.9316">
        <ele>25</ele>
        <time>2020-08-28T09:41:55Z</time>
      </trkpt>
      <trkpt lat="50.45449" lon="2.93164">
        <ele>25</ele>
        <time>2020-08-28T09:41:56Z</time>
      </trkpt>
      <trkpt lat="50.454" lon="2.9316">
        <ele>27</ele>
        <time>2020-08-28T09:42:08Z</time>
      </trkpt>
      <trkpt lat="50.45393" lon="2.93164">
        <ele>28</ele>
        <time>2020-08-28T09:42:09Z</time>
      </trkpt>
      <trkpt lat="50.45373" lon="2.93165">
        <ele>28</ele>
        <time>2020-08-28T09:42:14Z</time>
      </trkpt>
      <trkpt lat="50.45357" lon="2.93163">
        <ele>28</ele>
        <time>2020-08-28T09:42:18Z</time>
      </trkpt>
      <trkpt lat="50.45348" lon="2.93165">
        <ele>29</ele>
        <time>2020-08-28T09:42:20Z</time>
      </trkpt>
      <trkpt lat="50.45286" lon="2.9321">
        <ele>29</ele>
        <time>2020-08-28T09:42:36Z</time>
      </trkpt>
      <trkpt lat="50.45242" lon="2.93252">
        <ele>29</ele>
        <time>2020-08-28T09:42:48Z</time>
      </trkpt>
      <trkpt lat="50.45239" lon="2.93259">
        <ele>29</ele>
        <time>2020-08-28T09:42:49Z</time>
      </trkpt>
      <trkpt lat="50.45249" lon="2.93292">
        <ele>28</ele>
        <time>2020-08-28T09:42:55Z</time>
      </trkpt>
      <trkpt lat="50.45236" lon="2.93322">
        <ele>28</ele>
        <time>2020-08-28T09:43:00Z</time>
      </trkpt>
      <trkpt lat="50.45228" lon="2.93332">
        <ele>28</ele>
        <time>2020-08-28T09:43:02Z</time>
      </trkpt>
      <trkpt lat="50.45215" lon="2.93341">
        <ele>29</ele>
        <time>2020-08-28T09:43:06Z</time>
      </trkpt>
      <trkpt lat="50.45206" lon="2.93354">
        <ele>30</ele>
        <time>2020-08-28T09:43:09Z</time>
      </trkpt>
      <trkpt lat="50.45206" lon="2.93368">
        <ele>30</ele>
        <time>2020-08-28T09:43:11Z</time>
      </trkpt>
      <trkpt lat="50.45213" lon="2.93368">
        <ele>30</ele>
        <time>2020-08-28T09:43:12Z</time>
      </trkpt>
      <trkpt lat="50.45221" lon="2.93376">
        <ele>29</ele>
        <time>2020-08-28T09:43:15Z</time>
      </trkpt>
      <trkpt lat="50.45226" lon="2.93416">
        <ele>29</ele>
        <time>2020-08-28T09:43:21Z</time>
      </trkpt>
      <trkpt lat="50.45238" lon="2.93408">
        <ele>28</ele>
        <time>2020-08-28T09:43:24Z</time>
      </trkpt>
      <trkpt lat="50.45268" lon="2.93378">
        <ele>27</ele>
        <time>2020-08-28T09:43:32Z</time>
      </trkpt>
      <trkpt lat="50.45296" lon="2.93359">
        <ele>26</ele>
        <time>2020-08-28T09:43:39Z</time>
      </trkpt>
      <trkpt lat="50.45312" lon="2.93354">
        <ele>26</ele>
        <time>2020-08-28T09:43:43Z</time>
      </trkpt>
      <trkpt lat="50.45333" lon="2.93329">
        <ele>26</ele>
        <time>2020-08-28T09:43:49Z</time>
      </trkpt>
      <trkpt lat="50.45359" lon="2.93311">
        <ele>27</ele>
        <time>2020-08-28T09:43:56Z</time>
      </trkpt>
      <trkpt lat="50.45381" lon="2.93321">
        <ele>26</ele>
        <time>2020-08-28T09:44:01Z</time>
      </trkpt>
      <trkpt lat="50.45391" lon="2.93311">
        <ele>27</ele>
        <time>2020-08-28T09:44:04Z</time>
      </trkpt>
      <trkpt lat="50.45395" lon="2.93316">
        <ele>26</ele>
        <time>2020-08-28T09:44:05Z</time>
      </trkpt>
      <trkpt lat="50.45413" lon="2.93371">
        <ele>26</ele>
        <time>2020-08-28T09:44:14Z</time>
      </trkpt>
      <trkpt lat="50.45419" lon="2.93381">
        <ele>27</ele>
        <time>2020-08-28T09:44:16Z</time>
      </trkpt>
      <trkpt lat="50.45428" lon="2.93383">
        <ele>26</ele>
        <time>2020-08-28T09:44:18Z</time>
      </trkpt>
      <trkpt lat="50.45438" lon="2.93379">
        <ele>26</ele>
        <time>2020-08-28T09:44:21Z</time>
      </trkpt>
      <trkpt lat="50.45476" lon="2.93361">
        <ele>24</ele>
        <time>2020-08-28T09:44:30Z</time>
      </trkpt>
      <trkpt lat="50.4549" lon="2.93349">
        <ele>24</ele>
        <time>2020-08-28T09:44:34Z</time>
      </trkpt>
      <trkpt lat="50.45498" lon="2.93348">
        <ele>23</ele>
        <time>2020-08-28T09:44:36Z</time>
      </trkpt>
      <trkpt lat="50.45501" lon="2.93365">
        <ele>24</ele>
        <time>2020-08-28T09:44:38Z</time>
      </trkpt>
      <trkpt lat="50.45498" lon="2.93382">
        <ele>24</ele>
        <time>2020-08-28T09:44:41Z</time>
      </trkpt>
      <trkpt lat="50.45498" lon="2.93407">
        <ele>25</ele>
        <time>2020-08-28T09:44:45Z</time>
      </trkpt>
      <trkpt lat="50.45494" lon="2.93421">
        <ele>25</ele>
        <time>2020-08-28T09:44:47Z</time>
      </trkpt>
      <trkpt lat="50.45511" lon="2.93461">
        <ele>25</ele>
        <time>2020-08-28T09:44:54Z</time>
      </trkpt>
      <trkpt lat="50.45527" lon="2.93482">
        <ele>25</ele>
        <time>2020-08-28T09:44:59Z</time>
      </trkpt>
      <trkpt lat="50.45544" lon="2.93473">
        <ele>25</ele>
        <time>2020-08-28T09:45:03Z</time>
      </trkpt>
      <trkpt lat="50.45587" lon="2.9343">
        <ele>25</ele>
        <time>2020-08-28T09:45:15Z</time>
      </trkpt>
      <trkpt lat="50.45592" lon="2.93428">
        <ele>25</ele>
        <time>2020-08-28T09:45:16Z</time>
      </trkpt>
      <trkpt lat="50.456" lon="2.93433">
        <ele>25</ele>
        <time>2020-08-28T09:45:18Z</time>
      </trkpt>
      <trkpt lat="50.45635" lon="2.93526">
        <ele>24</ele>
        <time>2020-08-28T09:45:34Z</time>
      </trkpt>
      <trkpt lat="50.45652" lon="2.9356">
        <ele>23</ele>
        <time>2020-08-28T09:45:41Z</time>
      </trkpt>
      <trkpt lat="50.45675" lon="2.93628">
        <ele>24</ele>
        <time>2020-08-28T09:45:52Z</time>
      </trkpt>
      <trkpt lat="50.45673" lon="2.93657">
        <ele>24</ele>
        <time>2020-08-28T09:45:56Z</time>
      </trkpt>
      <trkpt lat="50.45658" lon="2.93682">
        <ele>25</ele>
        <time>2020-08-28T09:46:02Z</time>
      </trkpt>
      <trkpt lat="50.45642" lon="2.93724">
        <ele>26</ele>
        <time>2020-08-28T09:46:09Z</time>
      </trkpt>
      <trkpt lat="50.45649" lon="2.93741">
        <ele>26</ele>
        <time>2020-08-28T09:46:12Z</time>
      </trkpt>
      <trkpt lat="50.45675" lon="2.93772">
        <ele>26</ele>
        <time>2020-08-28T09:46:20Z</time>
      </trkpt>
      <trkpt lat="50.45679" lon="2.93804">
        <ele>26</ele>
        <time>2020-08-28T09:46:24Z</time>
      </trkpt>
      <trkpt lat="50.45704" lon="2.93821">
        <ele>26</ele>
        <time>2020-08-28T09:46:31Z</time>
      </trkpt>
      <trkpt lat="50.45721" lon="2.93836">
        <ele>26</ele>
        <time>2020-08-28T09:46:35Z</time>
      </trkpt>
      <trkpt lat="50.45745" lon="2.93862">
        <ele>25</ele>
        <time>2020-08-28T09:46:42Z</time>
      </trkpt>
      <trkpt lat="50.45769" lon="2.93898">
        <ele>24</ele>
        <time>2020-08-28T09:46:50Z</time>
      </trkpt>
      <trkpt lat="50.45791" lon="2.9392">
        <ele>24</ele>
        <time>2020-08-28T09:46:56Z</time>
      </trkpt>
      <trkpt lat="50.45836" lon="2.94012">
        <ele>23</ele>
        <time>2020-08-28T09:47:13Z</time>
      </trkpt>
      <trkpt lat="50.45866" lon="2.94066">
        <ele>25</ele>
        <time>2020-08-28T09:47:24Z</time>
      </trkpt>
      <trkpt lat="50.45948" lon="2.94199">
        <ele>26</ele>
        <time>2020-08-28T09:47:51Z</time>
      </trkpt>
      <trkpt lat="50.45957" lon="2.94206">
        <ele>26</ele>
        <time>2020-08-28T09:47:54Z</time>
      </trkpt>
      <trkpt lat="50.45999" lon="2.94262">
        <ele>26</ele>
        <time>2020-08-28T09:48:07Z</time>
      </trkpt>
      <trkpt lat="50.46077" lon="2.9438">
        <ele>26</ele>
        <time>2020-08-28T09:48:32Z</time>
      </trkpt>
      <trkpt lat="50.46151" lon="2.9446">
        <ele>24</ele>
        <time>2020-08-28T09:48:53Z</time>
      </trkpt>
      <trkpt lat="50.46181" lon="2.94486">
        <ele>24</ele>
        <time>2020-08-28T09:49:01Z</time>
      </trkpt>
      <trkpt lat="50.46221" lon="2.94504">
        <ele>25</ele>
        <time>2020-08-28T09:49:11Z</time>
      </trkpt>
      <trkpt lat="50.46254" lon="2.94505">
        <ele>25</ele>
        <time>2020-08-28T09:49:18Z</time>
      </trkpt>
      <trkpt lat="50.46265" lon="2.94512">
        <ele>26</ele>
        <time>2020-08-28T09:49:21Z</time>
      </trkpt>
      <trkpt lat="50.46288" lon="2.94515">
        <ele>27</ele>
        <time>2020-08-28T09:49:26Z</time>
      </trkpt>
      <trkpt lat="50.46397" lon="2.945">
        <ele>30</ele>
        <time>2020-08-28T09:49:52Z</time>
      </trkpt>
      <trkpt lat="50.46472" lon="2.94478">
        <ele>26</ele>
        <time>2020-08-28T09:50:10Z</time>
      </trkpt>
      <trkpt lat="50.46575" lon="2.94455">
        <ele>25</ele>
        <time>2020-08-28T09:50:34Z</time>
      </trkpt>
      <trkpt lat="50.46669" lon="2.94438">
        <ele>26</ele>
        <time>2020-08-28T09:50:56Z</time>
      </trkpt>
      <trkpt lat="50.46695" lon="2.94447">
        <ele>26</ele>
        <time>2020-08-28T09:51:02Z</time>
      </trkpt>
      <trkpt lat="50.46724" lon="2.94481">
        <ele>27</ele>
        <time>2020-08-28T09:51:11Z</time>
      </trkpt>
      <trkpt lat="50.46779" lon="2.94585">
        <ele>28</ele>
        <time>2020-08-28T09:51:31Z</time>
      </trkpt>
      <trkpt lat="50.46809" lon="2.94634">
        <ele>26</ele>
        <time>2020-08-28T09:51:41Z</time>
      </trkpt>
      <trkpt lat="50.46821" lon="2.94661">
        <ele>26</ele>
        <time>2020-08-28T09:51:46Z</time>
      </trkpt>
      <trkpt lat="50.46824" lon="2.94688">
        <ele>26</ele>
        <time>2020-08-28T09:51:50Z</time>
      </trkpt>
      <trkpt lat="50.46812" lon="2.94792">
        <ele>26</ele>
        <time>2020-08-28T09:52:06Z</time>
      </trkpt>
      <trkpt lat="50.46812" lon="2.94834">
        <ele>26</ele>
        <time>2020-08-28T09:52:12Z</time>
      </trkpt>
      <trkpt lat="50.46818" lon="2.94863">
        <ele>25</ele>
        <time>2020-08-28T09:52:17Z</time>
      </trkpt>
      <trkpt lat="50.4683" lon="2.94893">
        <ele>24</ele>
        <time>2020-08-28T09:52:22Z</time>
      </trkpt>
      <trkpt lat="50.46859" lon="2.95094">
        <ele>25</ele>
        <time>2020-08-28T09:52:52Z</time>
      </trkpt>
      <trkpt lat="50.46856" lon="2.95124">
        <ele>25</ele>
        <time>2020-08-28T09:52:57Z</time>
      </trkpt>
      <trkpt lat="50.46843" lon="2.95139">
        <ele>26</ele>
        <time>2020-08-28T09:53:01Z</time>
      </trkpt>
      <trkpt lat="50.46837" lon="2.95155">
        <ele>27</ele>
        <time>2020-08-28T09:53:03Z</time>
      </trkpt>
      <trkpt lat="50.46846" lon="2.95215">
        <ele>25</ele>
        <time>2020-08-28T09:53:13Z</time>
      </trkpt>
      <trkpt lat="50.46852" lon="2.95215">
        <ele>25</ele>
        <time>2020-08-28T09:53:14Z</time>
      </trkpt>
      <trkpt lat="50.46853" lon="2.95218">
        <ele>25</ele>
        <time>2020-08-28T09:53:15Z</time>
      </trkpt>
      <trkpt lat="50.46855" lon="2.95235">
        <ele>25</ele>
        <time>2020-08-28T09:53:17Z</time>
      </trkpt>
      <trkpt lat="50.46852" lon="2.95254">
        <ele>25</ele>
        <time>2020-08-28T09:53:20Z</time>
      </trkpt>
      <trkpt lat="50.46828" lon="2.95271">
        <ele>25</ele>
        <time>2020-08-28T09:53:26Z</time>
      </trkpt>
      <trkpt lat="50.46815" lon="2.95295">
        <ele>26</ele>
        <time>2020-08-28T09:53:31Z</time>
      </trkpt>
      <trkpt lat="50.46809" lon="2.95313">
        <ele>26</ele>
        <time>2020-08-28T09:53:34Z</time>
      </trkpt>
      <trkpt lat="50.46812" lon="2.95372">
        <ele>27</ele>
        <time>2020-08-28T09:53:43Z</time>
      </trkpt>
      <trkpt lat="50.46829" lon="2.95409">
        <ele>28</ele>
        <time>2020-08-28T09:53:49Z</time>
      </trkpt>
      <trkpt lat="50.46834" lon="2.95427">
        <ele>28</ele>
        <time>2020-08-28T09:53:52Z</time>
      </trkpt>
      <trkpt lat="50.46829" lon="2.95439">
        <ele>27</ele>
        <time>2020-08-28T09:53:54Z</time>
      </trkpt>
      <trkpt lat="50.46819" lon="2.95445">
        <ele>27</ele>
        <time>2020-08-28T09:53:57Z</time>
      </trkpt>
      <trkpt lat="50.46811" lon="2.95449">
        <ele>27</ele>
        <time>2020-08-28T09:53:59Z</time>
      </trkpt>
      <trkpt lat="50.46786" lon="2.95455">
        <ele>26</ele>
        <time>2020-08-28T09:54:05Z</time>
      </trkpt>
      <trkpt lat="50.46774" lon="2.95451">
        <ele>25</ele>
        <time>2020-08-28T09:54:08Z</time>
      </trkpt>
      <trkpt lat="50.46772" lon="2.95448">
        <ele>25</ele>
        <time>2020-08-28T09:54:08Z</time>
      </trkpt>
      <trkpt lat="50.46769" lon="2.95422">
        <ele>26</ele>
        <time>2020-08-28T09:54:12Z</time>
      </trkpt>
      <trkpt lat="50.4677" lon="2.95367">
        <ele>26</ele>
        <time>2020-08-28T09:54:20Z</time>
      </trkpt>
      <trkpt lat="50.4676" lon="2.95326">
        <ele>26</ele>
        <time>2020-08-28T09:54:27Z</time>
      </trkpt>
      <trkpt lat="50.46756" lon="2.95259">
        <ele>26</ele>
        <time>2020-08-28T09:54:37Z</time>
      </trkpt>
      <trkpt lat="50.46763" lon="2.95227">
        <ele>26</ele>
        <time>2020-08-28T09:54:42Z</time>
      </trkpt>
      <trkpt lat="50.46763" lon="2.95198">
        <ele>26</ele>
        <time>2020-08-28T09:54:46Z</time>
      </trkpt>
      <trkpt lat="50.46766" lon="2.95181">
        <ele>26</ele>
        <time>2020-08-28T09:54:49Z</time>
      </trkpt>
      <trkpt lat="50.46785" lon="2.95146">
        <ele>27</ele>
        <time>2020-08-28T09:54:56Z</time>
      </trkpt>
      <trkpt lat="50.4679" lon="2.95121">
        <ele>27</ele>
        <time>2020-08-28T09:55:00Z</time>
      </trkpt>
      <trkpt lat="50.46784" lon="2.95098">
        <ele>27</ele>
        <time>2020-08-28T09:55:03Z</time>
      </trkpt>
      <trkpt lat="50.4674" lon="2.95042">
        <ele>27</ele>
        <time>2020-08-28T09:55:17Z</time>
      </trkpt>
      <trkpt lat="50.46722" lon="2.95025">
        <ele>26</ele>
        <time>2020-08-28T09:55:22Z</time>
      </trkpt>
      <trkpt lat="50.46707" lon="2.95003">
        <ele>25</ele>
        <time>2020-08-28T09:55:26Z</time>
      </trkpt>
      <trkpt lat="50.46701" lon="2.94987">
        <ele>25</ele>
        <time>2020-08-28T09:55:29Z</time>
      </trkpt>
      <trkpt lat="50.46691" lon="2.94898">
        <ele>29</ele>
        <time>2020-08-28T09:55:43Z</time>
      </trkpt>
      <trkpt lat="50.46684" lon="2.94885">
        <ele>30</ele>
        <time>2020-08-28T09:55:45Z</time>
      </trkpt>
      <trkpt lat="50.46674" lon="2.94874">
        <ele>31</ele>
        <time>2020-08-28T09:55:48Z</time>
      </trkpt>
      <trkpt lat="50.46672" lon="2.94868">
        <ele>32</ele>
        <time>2020-08-28T09:55:49Z</time>
      </trkpt>
      <trkpt lat="50.46682" lon="2.94852">
        <ele>33</ele>
        <time>2020-08-28T09:55:52Z</time>
      </trkpt>
      <trkpt lat="50.46692" lon="2.94844">
        <ele>33</ele>
        <time>2020-08-28T09:55:55Z</time>
      </trkpt>
      <trkpt lat="50.46703" lon="2.94829">
        <ele>34</ele>
        <time>2020-08-28T09:55:58Z</time>
      </trkpt>
      <trkpt lat="50.46705" lon="2.94817">
        <ele>34</ele>
        <time>2020-08-28T09:56:00Z</time>
      </trkpt>
      <trkpt lat="50.467" lon="2.94801">
        <ele>34</ele>
        <time>2020-08-28T09:56:03Z</time>
      </trkpt>
      <trkpt lat="50.46658" lon="2.94753">
        <ele>36</ele>
        <time>2020-08-28T09:56:15Z</time>
      </trkpt>
      <trkpt lat="50.46646" lon="2.94735">
        <ele>35</ele>
        <time>2020-08-28T09:56:19Z</time>
      </trkpt>
      <trkpt lat="50.46635" lon="2.94708">
        <ele>34</ele>
        <time>2020-08-28T09:56:24Z</time>
      </trkpt>
      <trkpt lat="50.46632" lon="2.94705">
        <ele>34</ele>
        <time>2020-08-28T09:56:24Z</time>
      </trkpt>
      <trkpt lat="50.46626" lon="2.94704">
        <ele>33</ele>
        <time>2020-08-28T09:56:26Z</time>
      </trkpt>
      <trkpt lat="50.46623" lon="2.94705">
        <ele>33</ele>
        <time>2020-08-28T09:56:26Z</time>
      </trkpt>
      <trkpt lat="50.46612" lon="2.94722">
        <ele>33</ele>
        <time>2020-08-28T09:56:30Z</time>
      </trkpt>
      <trkpt lat="50.46615" lon="2.94787">
        <ele>35</ele>
        <time>2020-08-28T09:56:40Z</time>
      </trkpt>
      <trkpt lat="50.46603" lon="2.94803">
        <ele>35</ele>
        <time>2020-08-28T09:56:43Z</time>
      </trkpt>
      <trkpt lat="50.46583" lon="2.94815">
        <ele>35</ele>
        <time>2020-08-28T09:56:48Z</time>
      </trkpt>
      <trkpt lat="50.46566" lon="2.94816">
        <ele>34</ele>
        <time>2020-08-28T09:56:52Z</time>
      </trkpt>
      <trkpt lat="50.4654" lon="2.94873">
        <ele>34</ele>
        <time>2020-08-28T09:57:03Z</time>
      </trkpt>
      <trkpt lat="50.46523" lon="2.94876">
        <ele>33</ele>
        <time>2020-08-28T09:57:07Z</time>
      </trkpt>
      <trkpt lat="50.46492" lon="2.9487">
        <ele>33</ele>
        <time>2020-08-28T09:57:14Z</time>
      </trkpt>
      <trkpt lat="50.46475" lon="2.94871">
        <ele>32</ele>
        <time>2020-08-28T09:57:18Z</time>
      </trkpt>
      <trkpt lat="50.46442" lon="2.94887">
        <ele>31</ele>
        <time>2020-08-28T09:57:26Z</time>
      </trkpt>
      <trkpt lat="50.46409" lon="2.94888">
        <ele>31</ele>
        <time>2020-08-28T09:57:34Z</time>
      </trkpt>
      <trkpt lat="50.46404" lon="2.94886">
        <ele>31</ele>
        <time>2020-08-28T09:57:35Z</time>
      </trkpt>
      <trkpt lat="50.46383" lon="2.94869">
        <ele>30</ele>
        <time>2020-08-28T09:57:41Z</time>
      </trkpt>
      <trkpt lat="50.46378" lon="2.94844">
        <ele>31</ele>
        <time>2020-08-28T09:57:44Z</time>
      </trkpt>
      <trkpt lat="50.46384" lon="2.94823">
        <ele>31</ele>
        <time>2020-08-28T09:57:48Z</time>
      </trkpt>
      <trkpt lat="50.46398" lon="2.948">
        <ele>32</ele>
        <time>2020-08-28T09:57:53Z</time>
      </trkpt>
      <trkpt lat="50.46407" lon="2.94767">
        <ele>32</ele>
        <time>2020-08-28T09:57:58Z</time>
      </trkpt>
      <trkpt lat="50.46405" lon="2.94761">
        <ele>32</ele>
        <time>2020-08-28T09:57:59Z</time>
      </trkpt>
      <trkpt lat="50.46406" lon="2.94754">
        <ele>32</ele>
        <time>2020-08-28T09:58:00Z</time>
      </trkpt>
      <trkpt lat="50.46414" lon="2.94744">
        <ele>32</ele>
        <time>2020-08-28T09:58:02Z</time>
      </trkpt>
      <trkpt lat="50.46424" lon="2.94716">
        <ele>31</ele>
        <time>2020-08-28T09:58:07Z</time>
      </trkpt>
      <trkpt lat="50.46424" lon="2.94704">
        <ele>31</ele>
        <time>2020-08-28T09:58:09Z</time>
      </trkpt>
      <trkpt lat="50.46404" lon="2.94693">
        <ele>30</ele>
        <time>2020-08-28T09:58:14Z</time>
      </trkpt>
      <trkpt lat="50.46373" lon="2.94662">
        <ele>29</ele>
        <time>2020-08-28T09:58:23Z</time>
      </trkpt>
      <trkpt lat="50.46367" lon="2.94666">
        <ele>29</ele>
        <time>2020-08-28T09:58:24Z</time>
      </trkpt>
      <trkpt lat="50.46328" lon="2.94673">
        <ele>29</ele>
        <time>2020-08-28T09:58:33Z</time>
      </trkpt>
      <trkpt lat="50.46299" lon="2.94704">
        <ele>27</ele>
        <time>2020-08-28T09:58:41Z</time>
      </trkpt>
      <trkpt lat="50.46295" lon="2.94702">
        <ele>27</ele>
        <time>2020-08-28T09:58:42Z</time>
      </trkpt>
      <trkpt lat="50.46262" lon="2.94633">
        <ele>25</ele>
        <time>2020-08-28T09:58:55Z</time>
      </trkpt>
      <trkpt lat="50.46224" lon="2.94565">
        <ele>25</ele>
        <time>2020-08-28T09:59:09Z</time>
      </trkpt>
      <trkpt lat="50.46203" lon="2.94537">
        <ele>25</ele>
        <time>2020-08-28T09:59:15Z</time>
      </trkpt>
      <trkpt lat="50.46124" lon="2.94489">
        <ele>25</ele>
        <time>2020-08-28T09:59:35Z</time>
      </trkpt>
      <trkpt lat="50.46089" lon="2.94459">
        <ele>25</ele>
        <time>2020-08-28T09:59:44Z</time>
      </trkpt>
      <trkpt lat="50.46051" lon="2.94414">
        <ele>26</ele>
        <time>2020-08-28T09:59:55Z</time>
      </trkpt>
      <trkpt lat="50.46003" lon="2.94349">
        <ele>27</ele>
        <time>2020-08-28T10:00:10Z</time>
      </trkpt>
      <trkpt lat="50.45974" lon="2.94301">
        <ele>27</ele>
        <time>2020-08-28T10:00:20Z</time>
      </trkpt>
      <trkpt lat="50.45964" lon="2.9428">
        <ele>27</ele>
        <time>2020-08-28T10:00:24Z</time>
      </trkpt>
      <trkpt lat="50.4595" lon="2.94241">
        <ele>27</ele>
        <time>2020-08-28T10:00:30Z</time>
      </trkpt>
      <trkpt lat="50.45953" lon="2.94227">
        <ele>27</ele>
        <time>2020-08-28T10:00:33Z</time>
      </trkpt>
      <trkpt lat="50.45956" lon="2.94224">
        <ele>27</ele>
        <time>2020-08-28T10:00:34Z</time>
      </trkpt>
      <trkpt lat="50.46037" lon="2.94203">
        <ele>25</ele>
        <time>2020-08-28T10:00:53Z</time>
      </trkpt>
      <trkpt lat="50.46081" lon="2.94209">
        <ele>25</ele>
        <time>2020-08-28T10:01:03Z</time>
      </trkpt>
      <trkpt lat="50.46088" lon="2.94201">
        <ele>24</ele>
        <time>2020-08-28T10:01:05Z</time>
      </trkpt>
      <trkpt lat="50.4609" lon="2.9418">
        <ele>24</ele>
        <time>2020-08-28T10:01:08Z</time>
      </trkpt>
      <trkpt lat="50.46088" lon="2.94173">
        <ele>24</ele>
        <time>2020-08-28T10:01:09Z</time>
      </trkpt>
      <trkpt lat="50.4608" lon="2.94164">
        <ele>24</ele>
        <time>2020-08-28T10:01:12Z</time>
      </trkpt>
      <trkpt lat="50.46039" lon="2.94154">
        <ele>25</ele>
        <time>2020-08-28T10:01:21Z</time>
      </trkpt>
      <trkpt lat="50.45986" lon="2.94117">
        <ele>26</ele>
        <time>2020-08-28T10:01:35Z</time>
      </trkpt>
      <trkpt lat="50.45949" lon="2.94095">
        <ele>26</ele>
        <time>2020-08-28T10:01:44Z</time>
      </trkpt>
      <trkpt lat="50.45932" lon="2.9409">
        <ele>26</ele>
        <time>2020-08-28T10:01:48Z</time>
      </trkpt>
      <trkpt lat="50.45902" lon="2.94045">
        <ele>26</ele>
        <time>2020-08-28T10:01:58Z</time>
      </trkpt>
      <trkpt lat="50.45862" lon="2.9397">
        <ele>24</ele>
        <time>2020-08-28T10:02:12Z</time>
      </trkpt>
      <trkpt lat="50.45815" lon="2.93874">
        <ele>23</ele>
        <time>2020-08-28T10:02:30Z</time>
      </trkpt>
      <trkpt lat="50.45777" lon="2.93784">
        <ele>24</ele>
        <time>2020-08-28T10:02:46Z</time>
      </trkpt>
      <trkpt lat="50.45757" lon="2.93725">
        <ele>23</ele>
        <time>2020-08-28T10:02:56Z</time>
      </trkpt>
      <trkpt lat="50.45688" lon="2.93563">
        <ele>24</ele>
        <time>2020-08-28T10:03:25Z</time>
      </trkpt>
      <trkpt lat="50.4568" lon="2.93531">
        <ele>24</ele>
        <time>2020-08-28T10:03:30Z</time>
      </trkpt>
      <trkpt lat="50.45658" lon="2.93471">
        <ele>24</ele>
        <time>2020-08-28T10:03:41Z</time>
      </trkpt>
      <trkpt lat="50.45623" lon="2.93385">
        <ele>25</ele>
        <time>2020-08-28T10:03:56Z</time>
      </trkpt>
      <trkpt lat="50.45502" lon="2.93064">
        <ele>24</ele>
        <time>2020-08-28T10:04:51Z</time>
      </trkpt>
      <trkpt lat="50.45427" lon="2.92855">
        <ele>23</ele>
        <time>2020-08-28T10:05:27Z</time>
      </trkpt>
      <trkpt lat="50.45401" lon="2.92791">
        <ele>23</ele>
        <time>2020-08-28T10:05:38Z</time>
      </trkpt>
      <trkpt lat="50.45338" lon="2.9261">
        <ele>21</ele>
        <time>2020-08-28T10:06:09Z</time>
      </trkpt>
      <trkpt lat="50.45295" lon="2.92513">
        <ele>22</ele>
        <time>2020-08-28T10:06:27Z</time>
      </trkpt>
      <trkpt lat="50.45243" lon="2.92429">
        <ele>22</ele>
        <time>2020-08-28T10:06:44Z</time>
      </trkpt>
      <trkpt lat="50.45157" lon="2.92306">
        <ele>22</ele>
        <time>2020-08-28T10:07:11Z</time>
      </trkpt>
      <trkpt lat="50.45112" lon="2.92248">
        <ele>23</ele>
        <time>2020-08-28T10:07:25Z</time>
      </trkpt>
      <trkpt lat="50.45069" lon="2.92203">
        <ele>23</ele>
        <time>2020-08-28T10:07:37Z</time>
      </trkpt>
      <trkpt lat="50.44978" lon="2.92079">
        <ele>24</ele>
        <time>2020-08-28T10:08:05Z</time>
      </trkpt>
      <trkpt lat="50.4479" lon="2.91807">
        <ele>26</ele>
        <time>2020-08-28T10:09:05Z</time>
      </trkpt>
      <trkpt lat="50.44777" lon="2.91782">
        <ele>26</ele>
        <time>2020-08-28T10:09:09Z</time>
      </trkpt>
      <trkpt lat="50.44793" lon="2.91739">
        <ele>26</ele>
        <time>2020-08-28T10:09:17Z</time>
      </trkpt>
      <trkpt lat="50.44796" lon="2.91738">
        <ele>26</ele>
        <time>2020-08-28T10:09:18Z</time>
      </trkpt>
      <trkpt lat="50.44802" lon="2.91742">
        <ele>26</ele>
        <time>2020-08-28T10:09:19Z</time>
      </trkpt>
      <trkpt lat="50.44869" lon="2.91762">
        <ele>26</ele>
        <time>2020-08-28T10:09:35Z</time>
      </trkpt>
      <trkpt lat="50.44889" lon="2.91771">
        <ele>26</ele>
        <time>2020-08-28T10:09:40Z</time>
      </trkpt>
      <trkpt lat="50.44918" lon="2.91792">
        <ele>26</ele>
        <time>2020-08-28T10:09:47Z</time>
      </trkpt>
      <trkpt lat="50.4495" lon="2.91826">
        <ele>25</ele>
        <time>2020-08-28T10:09:56Z</time>
      </trkpt>
      <trkpt lat="50.44965" lon="2.91846">
        <ele>25</ele>
        <time>2020-08-28T10:10:01Z</time>
      </trkpt>
      <trkpt lat="50.4499" lon="2.9189">
        <ele>25</ele>
        <time>2020-08-28T10:10:10Z</time>
      </trkpt>
      <trkpt lat="50.45046" lon="2.91975">
        <ele>25</ele>
        <time>2020-08-28T10:10:28Z</time>
      </trkpt>
      <trkpt lat="50.4522" lon="2.92184">
        <ele>24</ele>
        <time>2020-08-28T10:11:19Z</time>
      </trkpt>
      <trkpt lat="50.45308" lon="2.92296">
        <ele>23</ele>
        <time>2020-08-28T10:11:46Z</time>
      </trkpt>
      <trkpt lat="50.45332" lon="2.92346">
        <ele>23</ele>
        <time>2020-08-28T10:11:55Z</time>
      </trkpt>
      <trkpt lat="50.4545" lon="2.92637">
        <ele>26</ele>
        <time>2020-08-28T10:12:46Z</time>
      </trkpt>
      <trkpt lat="50.45459" lon="2.92649">
        <ele>26</ele>
        <time>2020-08-28T10:12:49Z</time>
      </trkpt>
      <trkpt lat="50.45472" lon="2.92642">
        <ele>27</ele>
        <time>2020-08-28T10:12:52Z</time>
      </trkpt>
      <trkpt lat="50.45492" lon="2.92612">
        <ele>27</ele>
        <time>2020-08-28T10:12:59Z</time>
      </trkpt>
      <trkpt lat="50.45574" lon="2.9252">
        <ele>30</ele>
        <time>2020-08-28T10:13:22Z</time>
      </trkpt>
      <trkpt lat="50.45584" lon="2.92499">
        <ele>30</ele>
        <time>2020-08-28T10:13:26Z</time>
      </trkpt>
      <trkpt lat="50.45583" lon="2.92482">
        <ele>30</ele>
        <time>2020-08-28T10:13:29Z</time>
      </trkpt>
      <trkpt lat="50.45567" lon="2.92445">
        <ele>30</ele>
        <time>2020-08-28T10:13:35Z</time>
      </trkpt>
      <trkpt lat="50.45477" lon="2.9227">
        <ele>28</ele>
        <time>2020-08-28T10:14:09Z</time>
      </trkpt>
      <trkpt lat="50.45464" lon="2.92234">
        <ele>28</ele>
        <time>2020-08-28T10:14:15Z</time>
      </trkpt>
      <trkpt lat="50.45443" lon="2.92155">
        <ele>28</ele>
        <time>2020-08-28T10:14:28Z</time>
      </trkpt>
      <trkpt lat="50.45413" lon="2.92067">
        <ele>29</ele>
        <time>2020-08-28T10:14:42Z</time>
      </trkpt>
      <trkpt lat="50.45384" lon="2.92">
        <ele>30</ele>
        <time>2020-08-28T10:14:54Z</time>
      </trkpt>
      <trkpt lat="50.45311" lon="2.91847">
        <ele>29</ele>
        <time>2020-08-28T10:15:23Z</time>
      </trkpt>
      <trkpt lat="50.45303" lon="2.91815">
        <ele>28</ele>
        <time>2020-08-28T10:15:28Z</time>
      </trkpt>
      <trkpt lat="50.45293" lon="2.91727">
        <ele>28</ele>
        <time>2020-08-28T10:15:41Z</time>
      </trkpt>
      <trkpt lat="50.45275" lon="2.91416">
        <ele>30</ele>
        <time>2020-08-28T10:16:28Z</time>
      </trkpt>
      <trkpt lat="50.45277" lon="2.91392">
        <ele>31</ele>
        <time>2020-08-28T10:16:31Z</time>
      </trkpt>
      <trkpt lat="50.45285" lon="2.91391">
        <ele>31</ele>
        <time>2020-08-28T10:16:33Z</time>
      </trkpt>
      <trkpt lat="50.45346" lon="2.91435">
        <ele>31</ele>
        <time>2020-08-28T10:16:49Z</time>
      </trkpt>
      <trkpt lat="50.45368" lon="2.91428">
        <ele>30</ele>
        <time>2020-08-28T10:16:54Z</time>
      </trkpt>
      <trkpt lat="50.45438" lon="2.91385">
        <ele>30</ele>
        <time>2020-08-28T10:17:12Z</time>
      </trkpt>
      <trkpt lat="50.45498" lon="2.91372">
        <ele>30</ele>
        <time>2020-08-28T10:17:26Z</time>
      </trkpt>
      <trkpt lat="50.45524" lon="2.9137">
        <ele>30</ele>
        <time>2020-08-28T10:17:32Z</time>
      </trkpt>
      <trkpt lat="50.4561" lon="2.91379">
        <ele>29</ele>
        <time>2020-08-28T10:17:52Z</time>
      </trkpt>
      <trkpt lat="50.45663" lon="2.91391">
        <ele>29</ele>
        <time>2020-08-28T10:18:04Z</time>
      </trkpt>
      <trkpt lat="50.45718" lon="2.9141">
        <ele>29</ele>
        <time>2020-08-28T10:18:18Z</time>
      </trkpt>
      <trkpt lat="50.4576" lon="2.9142">
        <ele>29</ele>
        <time>2020-08-28T10:18:28Z</time>
      </trkpt>
      <trkpt lat="50.45797" lon="2.91412">
        <ele>28</ele>
        <time>2020-08-28T10:18:36Z</time>
      </trkpt>
      <trkpt lat="50.45852" lon="2.91391">
        <ele>28</ele>
        <time>2020-08-28T10:18:49Z</time>
      </trkpt>
      <trkpt lat="50.45948" lon="2.91345">
        <ele>27</ele>
        <time>2020-08-28T10:19:13Z</time>
      </trkpt>
      <trkpt lat="50.4596" lon="2.91336">
        <ele>27</ele>
        <time>2020-08-28T10:19:16Z</time>
      </trkpt>
      <trkpt lat="50.4596" lon="2.91313">
        <ele>27</ele>
        <time>2020-08-28T10:19:19Z</time>
      </trkpt>
      <trkpt lat="50.45957" lon="2.91303">
        <ele>27</ele>
        <time>2020-08-28T10:19:21Z</time>
      </trkpt>
      <trkpt lat="50.45949" lon="2.91199">
        <ele>27</ele>
        <time>2020-08-28T10:19:37Z</time>
      </trkpt>
      <trkpt lat="50.45931" lon="2.9104">
        <ele>25</ele>
        <time>2020-08-28T10:20:01Z</time>
      </trkpt>
      <trkpt lat="50.45921" lon="2.91023">
        <ele>25</ele>
        <time>2020-08-28T10:20:04Z</time>
      </trkpt>
      <trkpt lat="50.45858" lon="2.90995">
        <ele>26</ele>
        <time>2020-08-28T10:20:19Z</time>
      </trkpt>
      <trkpt lat="50.45807" lon="2.90967">
        <ele>27</ele>
        <time>2020-08-28T10:20:32Z</time>
      </trkpt>
      <trkpt lat="50.4579" lon="2.90953">
        <ele>27</ele>
        <time>2020-08-28T10:20:37Z</time>
      </trkpt>
      <trkpt lat="50.45753" lon="2.90907">
        <ele>28</ele>
        <time>2020-08-28T10:20:48Z</time>
      </trkpt>
      <trkpt lat="50.45718" lon="2.90852">
        <ele>28</ele>
        <time>2020-08-28T10:20:59Z</time>
      </trkpt>
      <trkpt lat="50.45656" lon="2.90732">
        <ele>27</ele>
        <time>2020-08-28T10:21:22Z</time>
      </trkpt>
      <trkpt lat="50.45621" lon="2.90675">
        <ele>28</ele>
        <time>2020-08-28T10:21:34Z</time>
      </trkpt>
      <trkpt lat="50.45581" lon="2.906">
        <ele>30</ele>
        <time>2020-08-28T10:21:48Z</time>
      </trkpt>
      <trkpt lat="50.45534" lon="2.90523">
        <ele>29</ele>
        <time>2020-08-28T10:22:04Z</time>
      </trkpt>
      <trkpt lat="50.4553" lon="2.90511">
        <ele>29</ele>
        <time>2020-08-28T10:22:06Z</time>
      </trkpt>
      <trkpt lat="50.45502" lon="2.90464">
        <ele>29</ele>
        <time>2020-08-28T10:22:16Z</time>
      </trkpt>
      <trkpt lat="50.45494" lon="2.90463">
        <ele>29</ele>
        <time>2020-08-28T10:22:18Z</time>
      </trkpt>
      <trkpt lat="50.4541" lon="2.90494">
        <ele>32</ele>
        <time>2020-08-28T10:22:38Z</time>
      </trkpt>
      <trkpt lat="50.45355" lon="2.90511">
        <ele>34</ele>
        <time>2020-08-28T10:22:51Z</time>
      </trkpt>
      <trkpt lat="50.45285" lon="2.90528">
        <ele>34</ele>
        <time>2020-08-28T10:23:07Z</time>
      </trkpt>
      <trkpt lat="50.45224" lon="2.90537">
        <ele>35</ele>
        <time>2020-08-28T10:23:22Z</time>
      </trkpt>
      <trkpt lat="50.45217" lon="2.90535">
        <ele>35</ele>
        <time>2020-08-28T10:23:23Z</time>
      </trkpt>
      <trkpt lat="50.45213" lon="2.90526">
        <ele>35</ele>
        <time>2020-08-28T10:23:25Z</time>
      </trkpt>
      <trkpt lat="50.45217" lon="2.9051">
        <ele>35</ele>
        <time>2020-08-28T10:23:28Z</time>
      </trkpt>
      <trkpt lat="50.45278" lon="2.90375">
        <ele>32</ele>
        <time>2020-08-28T10:23:52Z</time>
      </trkpt>
      <trkpt lat="50.45341" lon="2.90199">
        <ele>32</ele>
        <time>2020-08-28T10:24:22Z</time>
      </trkpt>
      <trkpt lat="50.45443" lon="2.89933">
        <ele>32</ele>
        <time>2020-08-28T10:25:08Z</time>
      </trkpt>
      <trkpt lat="50.45506" lon="2.89725">
        <ele>31</ele>
        <time>2020-08-28T10:25:43Z</time>
      </trkpt>
      <trkpt lat="50.45652" lon="2.89279">
        <ele>29</ele>
        <time>2020-08-28T10:26:57Z</time>
      </trkpt>
      <trkpt lat="50.45662" lon="2.89238">
        <ele>28</ele>
        <time>2020-08-28T10:27:04Z</time>
      </trkpt>
      <trkpt lat="50.45668" lon="2.89195">
        <ele>28</ele>
        <time>2020-08-28T10:27:10Z</time>
      </trkpt>
      <trkpt lat="50.45675" lon="2.89166">
        <ele>29</ele>
        <time>2020-08-28T10:27:15Z</time>
      </trkpt>
      <trkpt lat="50.45679" lon="2.89103">
        <ele>29</ele>
        <time>2020-08-28T10:27:24Z</time>
      </trkpt>
      <trkpt lat="50.45681" lon="2.891">
        <ele>30</ele>
        <time>2020-08-28T10:27:25Z</time>
      </trkpt>
      <trkpt lat="50.45685" lon="2.89103">
        <ele>30</ele>
        <time>2020-08-28T10:27:26Z</time>
      </trkpt>
      <trkpt lat="50.45691" lon="2.89124">
        <ele>30</ele>
        <time>2020-08-28T10:27:29Z</time>
      </trkpt>
      <trkpt lat="50.45702" lon="2.89148">
        <ele>30</ele>
        <time>2020-08-28T10:27:34Z</time>
      </trkpt>
      <trkpt lat="50.45717" lon="2.89163">
        <ele>31</ele>
        <time>2020-08-28T10:27:38Z</time>
      </trkpt>
      <trkpt lat="50.45783" lon="2.89266">
        <ele>31</ele>
        <time>2020-08-28T10:28:00Z</time>
      </trkpt>
      <trkpt lat="50.458" lon="2.89284">
        <ele>31</ele>
        <time>2020-08-28T10:28:05Z</time>
      </trkpt>
      <trkpt lat="50.45829" lon="2.89345">
        <ele>31</ele>
        <time>2020-08-28T10:28:16Z</time>
      </trkpt>
      <trkpt lat="50.45939" lon="2.89503">
        <ele>29</ele>
        <time>2020-08-28T10:28:51Z</time>
      </trkpt>
      <trkpt lat="50.45977" lon="2.89565">
        <ele>27</ele>
        <time>2020-08-28T10:29:03Z</time>
      </trkpt>
      <trkpt lat="50.46019" lon="2.89621">
        <ele>27</ele>
        <time>2020-08-28T10:29:16Z</time>
      </trkpt>
      <trkpt lat="50.46129" lon="2.89748">
        <ele>26</ele>
        <time>2020-08-28T10:29:48Z</time>
      </trkpt>
      <trkpt lat="50.46168" lon="2.89785">
        <ele>26</ele>
        <time>2020-08-28T10:29:59Z</time>
      </trkpt>
      <trkpt lat="50.46246" lon="2.8983">
        <ele>27</ele>
        <time>2020-08-28T10:30:18Z</time>
      </trkpt>
      <trkpt lat="50.46255" lon="2.8985">
        <ele>27</ele>
        <time>2020-08-28T10:30:22Z</time>
      </trkpt>
      <trkpt lat="50.46323" lon="2.89898">
        <ele>25</ele>
        <time>2020-08-28T10:30:39Z</time>
      </trkpt>
      <trkpt lat="50.46334" lon="2.899">
        <ele>25</ele>
        <time>2020-08-28T10:30:42Z</time>
      </trkpt>
      <trkpt lat="50.46336" lon="2.89896">
        <ele>25</ele>
        <time>2020-08-28T10:30:43Z</time>
      </trkpt>
      <trkpt lat="50.46329" lon="2.89877">
        <ele>25</ele>
        <time>2020-08-28T10:30:46Z</time>
      </trkpt>
      <trkpt lat="50.46317" lon="2.89869">
        <ele>25</ele>
        <time>2020-08-28T10:30:49Z</time>
      </trkpt>
      <trkpt lat="50.46309" lon="2.89856">
        <ele>25</ele>
        <time>2020-08-28T10:30:52Z</time>
      </trkpt>
      <trkpt lat="50.4631" lon="2.89837">
        <ele>26</ele>
        <time>2020-08-28T10:30:54Z</time>
      </trkpt>
      <trkpt lat="50.46295" lon="2.89819">
        <ele>26</ele>
        <time>2020-08-28T10:30:59Z</time>
      </trkpt>
      <trkpt lat="50.46289" lon="2.89792">
        <ele>26</ele>
        <time>2020-08-28T10:31:03Z</time>
      </trkpt>
      <trkpt lat="50.46284" lon="2.89783">
        <ele>27</ele>
        <time>2020-08-28T10:31:05Z</time>
      </trkpt>
      <trkpt lat="50.46268" lon="2.89765">
        <ele>27</ele>
        <time>2020-08-28T10:31:10Z</time>
      </trkpt>
      <trkpt lat="50.46261" lon="2.89741">
        <ele>28</ele>
        <time>2020-08-28T10:31:13Z</time>
      </trkpt>
      <trkpt lat="50.46259" lon="2.89723">
        <ele>28</ele>
        <time>2020-08-28T10:31:16Z</time>
      </trkpt>
      <trkpt lat="50.46248" lon="2.89711">
        <ele>28</ele>
        <time>2020-08-28T10:31:19Z</time>
      </trkpt>
      <trkpt lat="50.46233" lon="2.89705">
        <ele>28</ele>
        <time>2020-08-28T10:31:23Z</time>
      </trkpt>
      <trkpt lat="50.46221" lon="2.89695">
        <ele>28</ele>
        <time>2020-08-28T10:31:26Z</time>
      </trkpt>
      <trkpt lat="50.4621" lon="2.89665">
        <ele>28</ele>
        <time>2020-08-28T10:31:31Z</time>
      </trkpt>
      <trkpt lat="50.46181" lon="2.89601">
        <ele>29</ele>
        <time>2020-08-28T10:31:43Z</time>
      </trkpt>
      <trkpt lat="50.46173" lon="2.89593">
        <ele>29</ele>
        <time>2020-08-28T10:31:45Z</time>
      </trkpt>
      <trkpt lat="50.46158" lon="2.89603">
        <ele>29</ele>
        <time>2020-08-28T10:31:49Z</time>
      </trkpt>
      <trkpt lat="50.46153" lon="2.89603">
        <ele>29</ele>
        <time>2020-08-28T10:31:50Z</time>
      </trkpt>
      <trkpt lat="50.46142" lon="2.89589">
        <ele>29</ele>
        <time>2020-08-28T10:31:53Z</time>
      </trkpt>
      <trkpt lat="50.46129" lon="2.89565">
        <ele>29</ele>
        <time>2020-08-28T10:31:58Z</time>
      </trkpt>
      <trkpt lat="50.46109" lon="2.89537">
        <ele>30</ele>
        <time>2020-08-28T10:32:04Z</time>
      </trkpt>
      <trkpt lat="50.46057" lon="2.8945">
        <ele>32</ele>
        <time>2020-08-28T10:32:22Z</time>
      </trkpt>
      <trkpt lat="50.4601" lon="2.89378">
        <ele>32</ele>
        <time>2020-08-28T10:32:37Z</time>
      </trkpt>
      <trkpt lat="50.45982" lon="2.89324">
        <ele>33</ele>
        <time>2020-08-28T10:32:48Z</time>
      </trkpt>
      <trkpt lat="50.45889" lon="2.89162">
        <ele>34</ele>
        <time>2020-08-28T10:33:20Z</time>
      </trkpt>
    </trkseg>
  </trk>
</gpx>